Darstellungsparameter: Aktuell verwendete Einstellungen:
Skalierung der Graphiken ... ?
xyx+y,   Skalierungsfaktor:      Skalierung: Modus: x, Faktor: 1
Darstellungszeitraum ... ?
Vom - - bis: - -   Zeitraum: 06.03.2014 - 02.09.2014
Min/Max/Avg-Anzeige ... ?
Zeige MMA aktuell
Zeige MMA Monat
Zeige MMA alles
Zeige --A aktuell
Zeige --A Monat
Zeige --A alles
Keine MMA-Anzeige
MMA:
Minimum Maximum Average (ber die Originaldaten)
MMA-Basis: 06.03.2014 - 02.09.2014
Quicknavigation für Darstellung... ?
Tage:      1T, 2T, 3T, 5T -1T -2T -3T -5T +1T +2T +3T +5T
Wochen: 1W, 2W, 3W -1W -2W -3W +1W +2W +3W
Monate: 1M, 3M, 6M -1M -3M -6M +1M +3M +6M
Jahre:    1J, 3J, 5J, 10J -1J -3J -5J -10J +1J +3J +5J +10J
Nutze für die Darstellung ... ?
Originaldaten oder Mittelwerte auf ...
Stundenbasis Tagesbasis Wochenbasis
Monatsbasis Jahresbasis      Datenbasis: Original-Daten
Darstellen als:
Statistik (Auto) Statistik J:M      Darstellung:
Zur Graphik,    zurück zur Übersicht aller Sensoren.
 
Tabellarische Datenbersicht: ?
 
Sensor: Nr:Datum:Temp:Feuchte:Taupunkt:
Aussen-T/F 1 06-03-2014 00:00:00 1.9 C 94 % 1.04 C
2 06-03-2014 00:05:00 1.8 C 94 % 0.94 C
3 06-03-2014 00:10:00 1.9 C 95 % 1.19 C
4 06-03-2014 00:15:00 1.9 C 95 % 1.19 C
5 06-03-2014 00:20:00 1.8 C 95 % 1.09 C
6 06-03-2014 00:25:00 1.8 C 95 % 1.09 C
7 06-03-2014 00:30:00 1.7 C 95 % 0.99 C
8 06-03-2014 00:35:00 1.7 C 95 % 0.99 C
9 06-03-2014 00:40:00 1.7 C 95 % 0.99 C
10 06-03-2014 00:45:00 1.7 C 95 % 0.99 C
11 06-03-2014 00:50:00 1.4 C 95 % 0.69 C
12 06-03-2014 00:55:00 1.3 C 95 % 0.59 C
13 06-03-2014 01:00:00 1.3 C 95 % 0.59 C
14 06-03-2014 01:05:00 1.4 C 95 % 0.69 C
15 06-03-2014 01:10:00 1.4 C 95 % 0.69 C
16 06-03-2014 01:15:00 1.5 C 95 % 0.79 C
17 06-03-2014 01:20:00 1.4 C 95 % 0.69 C
18 06-03-2014 01:25:00 1.4 C 95 % 0.69 C
19 06-03-2014 01:30:00 1.3 C 95 % 0.59 C
20 06-03-2014 01:35:00 1.2 C 95 % 0.49 C
21 06-03-2014 01:40:00 1.2 C 95 % 0.49 C
22 06-03-2014 01:45:00 1.1 C 95 % 0.39 C
23 06-03-2014 01:50:00 1 C 95 % 0.29 C
24 06-03-2014 01:55:00 0.9 C 95 % 0.19 C
25 06-03-2014 02:00:00 0.9 C 95 % 0.19 C
Sensor: Nr:Datum:Temp:Feuchte:Taupunkt:
Aussen-T/F 26 06-03-2014 02:05:00 0.9 C 96 % 0.34 C
27 06-03-2014 02:10:00 0.8 C 95 % 0.09 C
28 06-03-2014 02:15:00 0.7 C 95 % -0.01 C
29 06-03-2014 02:20:00 0.7 C 95 % -0.01 C
30 06-03-2014 02:25:00 0.7 C 96 % 0.14 C
31 06-03-2014 02:30:00 0.7 C 96 % 0.14 C
32 06-03-2014 02:35:00 0.7 C 96 % 0.14 C
33 06-03-2014 02:40:00 0.7 C 96 % 0.14 C
34 06-03-2014 02:45:00 0.6 C 96 % 0.04 C
35 06-03-2014 02:50:00 0.4 C 95 % -0.31 C
36 06-03-2014 02:55:00 0.3 C 96 % -0.26 C
37 06-03-2014 03:00:00 0.3 C 96 % -0.26 C
38 06-03-2014 03:05:00 0.3 C 96 % -0.26 C
39 06-03-2014 03:10:00 0.3 C 96 % -0.26 C
40 06-03-2014 03:15:00 0.2 C 96 % -0.36 C
41 06-03-2014 03:20:00 0.2 C 96 % -0.36 C
42 06-03-2014 03:25:00 0.2 C 96 % -0.36 C
43 06-03-2014 03:30:00 0.2 C 96 % -0.36 C
44 06-03-2014 03:35:00 0.1 C 96 % -0.46 C
45 06-03-2014 03:40:00 0.1 C 96 % -0.46 C
46 06-03-2014 03:45:00 0.1 C 96 % -0.46 C
47 06-03-2014 03:50:00 0 C 96 % -0.56 C
48 06-03-2014 03:55:00 0 C 96 % -0.56 C
49 06-03-2014 04:00:00 0 C 96 % -0.56 C
50 06-03-2014 04:05:00 0 C 96 % -0.56 C
Sensor: Nr:Datum:Temp:Feuchte:Taupunkt:
Aussen-T/F 51 06-03-2014 04:10:00 0 C 96 % -0.56 C
52 06-03-2014 04:15:00 0 C 96 % -0.56 C
53 06-03-2014 04:20:00 -0.1 C 96 % -0.66 C
54 06-03-2014 04:25:00 -0.2 C 96 % -0.76 C
55 06-03-2014 04:30:00 -0.3 C 96 % -0.86 C
56 06-03-2014 04:35:00 -0.3 C 96 % -0.86 C
57 06-03-2014 04:40:00 -0.3 C 96 % -0.86 C
58 06-03-2014 04:45:00 -0.4 C 96 % -0.96 C
59 06-03-2014 04:50:00 -0.4 C 96 % -0.96 C
60 06-03-2014 04:55:00 -0.4 C 96 % -0.96 C
61 06-03-2014 05:00:00 -0.5 C 96 % -1.06 C
62 06-03-2014 05:05:00 -0.5 C 96 % -1.06 C
63 06-03-2014 05:10:00 -0.6 C 96 % -1.16 C
64 06-03-2014 05:15:00 -0.6 C 96 % -1.16 C
65 06-03-2014 05:20:00 -0.6 C 96 % -1.16 C
66 06-03-2014 05:25:00 -0.7 C 96 % -1.26 C
67 06-03-2014 05:30:00 -0.7 C 96 % -1.26 C
68 06-03-2014 05:35:00 -0.7 C 96 % -1.26 C
69 06-03-2014 05:40:00 -0.7 C 96 % -1.26 C
70 06-03-2014 05:45:00 -0.7 C 96 % -1.26 C
71 06-03-2014 05:50:00 -0.6 C 96 % -1.16 C
72 06-03-2014 05:55:00 -0.5 C 96 % -1.06 C
73 06-03-2014 06:00:00 -0.5 C 96 % -1.06 C
74 06-03-2014 06:05:00 -0.4 C 97 % -0.82 C
75 06-03-2014 06:10:00 -0.3 C 97 % -0.72 C
Sensor: Nr:Datum:Temp:Feuchte:Taupunkt:
Aussen-T/F 76 06-03-2014 06:15:00 -0.3 C 97 % -0.72 C
77 06-03-2014 06:20:00 -0.3 C 97 % -0.72 C
78 06-03-2014 06:25:00 -0.2 C 97 % -0.62 C
79 06-03-2014 06:30:00 -0.2 C 97 % -0.62 C
80 06-03-2014 06:35:00 -0.1 C 97 % -0.52 C
81 06-03-2014 06:40:00 -0.1 C 97 % -0.52 C
82 06-03-2014 06:45:00 -0.1 C 97 % -0.52 C
83 06-03-2014 06:50:00 -0.2 C 97 % -0.62 C
84 06-03-2014 06:55:00 -0.2 C 97 % -0.62 C
85 06-03-2014 07:00:00 -0.2 C 97 % -0.62 C
86 06-03-2014 07:05:00 -0.2 C 97 % -0.62 C
87 06-03-2014 07:10:00 -0.2 C 97 % -0.62 C
88 06-03-2014 07:15:00 -0.2 C 97 % -0.62 C
89 06-03-2014 07:20:00 -0.2 C 97 % -0.62 C
90 06-03-2014 07:25:00 -0.1 C 97 % -0.52 C
91 06-03-2014 07:30:00 -0.1 C 97 % -0.52 C
92 06-03-2014 07:35:00 -0.1 C 97 % -0.52 C
93 06-03-2014 07:40:00 -0.1 C 97 % -0.52 C
94 06-03-2014 07:45:00 0 C 97 % -0.42 C
95 06-03-2014 07:50:00 0 C 97 % -0.42 C
96 06-03-2014 07:55:00 0.1 C 97 % -0.32 C
97 06-03-2014 08:00:00 0.1 C 97 % -0.32 C
98 06-03-2014 08:05:00 0.1 C 97 % -0.32 C
99 06-03-2014 08:10:00 0.2 C 97 % -0.22 C
100 06-03-2014 08:15:00 0.2 C 97 % -0.22 C
Sensor: Nr:Datum:Temp:Feuchte:Taupunkt:
Aussen-T/F 101 06-03-2014 08:20:00 0.3 C 97 % -0.12 C
102 06-03-2014 08:25:00 0.3 C 97 % -0.12 C
103 06-03-2014 08:30:00 0.3 C 97 % -0.12 C
104 06-03-2014 08:35:00 0.3 C 97 % -0.12 C
105 06-03-2014 08:40:00 0.4 C 97 % -0.02 C
106 06-03-2014 08:45:00 0.4 C 97 % -0.02 C
107 06-03-2014 08:50:00 0.4 C 97 % -0.02 C
108 06-03-2014 08:55:00 0.5 C 97 % 0.08 C
109 06-03-2014 09:00:00 0.5 C 97 % 0.08 C
110 06-03-2014 09:05:00 0.6 C 97 % 0.18 C
111 06-03-2014 09:10:00 0.5 C 97 % 0.08 C
112 06-03-2014 09:15:00 0.6 C 97 % 0.18 C
113 06-03-2014 09:20:00 0.6 C 97 % 0.18 C
114 06-03-2014 09:25:00 0.7 C 97 % 0.28 C
115 06-03-2014 09:30:00 0.8 C 97 % 0.38 C
116 06-03-2014 09:35:00 0.8 C 97 % 0.38 C
117 06-03-2014 09:40:00 0.9 C 97 % 0.48 C
118 06-03-2014 09:45:00 0.9 C 97 % 0.48 C
119 06-03-2014 09:50:00 1.1 C 97 % 0.68 C
120 06-03-2014 09:55:00 1.1 C 97 % 0.68 C
121 06-03-2014 10:00:00 1.1 C 97 % 0.68 C
122 06-03-2014 10:05:00 1.1 C 97 % 0.68 C
123 06-03-2014 10:10:00 1.2 C 97 % 0.78 C
124 06-03-2014 10:15:00 1.2 C 98 % 0.92 C
125 06-03-2014 10:20:00 1.4 C 97 % 0.98 C
Sensor: Nr:Datum:Temp:Feuchte:Taupunkt:
Aussen-T/F 126 06-03-2014 10:25:00 1.4 C 97 % 0.98 C
127 06-03-2014 10:30:00 1.5 C 97 % 1.08 C
128 06-03-2014 10:35:00 1.6 C 98 % 1.32 C
129 06-03-2014 10:40:00 1.7 C 98 % 1.42 C
130 06-03-2014 10:45:00 1.8 C 97 % 1.38 C
131 06-03-2014 10:50:00 1.8 C 97 % 1.38 C
132 06-03-2014 10:55:00 1.9 C 98 % 1.62 C
133 06-03-2014 11:00:00 1.9 C 98 % 1.62 C
134 06-03-2014 11:05:00 2 C 98 % 1.72 C
135 06-03-2014 11:10:00 2.1 C 98 % 1.82 C
136 06-03-2014 11:15:00 2.2 C 98 % 1.92 C
137 06-03-2014 11:20:00 2.2 C 98 % 1.92 C
138 06-03-2014 11:25:00 2.3 C 98 % 2.02 C
139 06-03-2014 11:30:00 2.5 C 98 % 2.22 C
140 06-03-2014 11:35:00 2.6 C 98 % 2.32 C
141 06-03-2014 11:40:00 2.6 C 98 % 2.32 C
142 06-03-2014 11:45:00 2.7 C 98 % 2.42 C
143 06-03-2014 11:50:00 2.8 C 98 % 2.52 C
144 06-03-2014 11:55:00 3.1 C 98 % 2.82 C
145 06-03-2014 12:00:00 3.2 C 98 % 2.92 C
146 06-03-2014 12:05:00 3.3 C 98 % 3.01 C
147 06-03-2014 12:10:00 3.5 C 98 % 3.21 C
148 06-03-2014 12:15:00 3.7 C 98 % 3.41 C
149 06-03-2014 12:20:00 3.8 C 98 % 3.51 C
150 06-03-2014 12:25:00 4 C 98 % 3.71 C
Sensor: Nr:Datum:Temp:Feuchte:Taupunkt:
Aussen-T/F 151 06-03-2014 12:30:00 4.2 C 98 % 3.91 C
152 06-03-2014 12:35:00 4.3 C 98 % 4.01 C
153 06-03-2014 12:40:00 4.6 C 98 % 4.31 C
154 06-03-2014 12:45:00 5.1 C 98 % 4.81 C
155 06-03-2014 12:50:00 5.5 C 98 % 5.21 C
156 06-03-2014 12:55:00 5.8 C 98 % 5.51 C
157 06-03-2014 13:00:00 6 C 98 % 5.71 C
158 06-03-2014 13:05:00 6.3 C 98 % 6.01 C
159 06-03-2014 13:10:00 6.7 C 97 % 6.26 C
160 06-03-2014 13:15:00 7.1 C 94 % 6.2 C
161 06-03-2014 13:20:00 7.5 C 92 % 6.29 C
162 06-03-2014 13:25:00 7.8 C 89 % 6.1 C
163 06-03-2014 13:30:00 8.1 C 87 % 6.07 C
164 06-03-2014 13:35:00 8.3 C 85 % 5.93 C
165 06-03-2014 13:40:00 8.5 C 84 % 5.96 C
166 06-03-2014 13:45:00 8.7 C 85 % 6.32 C
167 06-03-2014 13:50:00 8.9 C 83 % 6.17 C
168 06-03-2014 13:55:00 9.1 C 82 % 6.19 C
169 06-03-2014 14:00:00 9.2 C 81 % 6.11 C
170 06-03-2014 14:05:00 9.4 C 80 % 6.13 C
171 06-03-2014 14:10:00 9.6 C 80 % 6.32 C
172 06-03-2014 14:15:00 9.7 C 79 % 6.24 C
173 06-03-2014 14:20:00 9.9 C 79 % 6.43 C
174 06-03-2014 14:25:00 10.1 C 77 % 6.26 C
175 06-03-2014 14:30:00 10.3 C 79 % 6.82 C
Sensor: Nr:Datum:Temp:Feuchte:Taupunkt:
Aussen-T/F 176 06-03-2014 14:35:00 10.5 C 77 % 6.64 C
177 06-03-2014 14:40:00 10.7 C 77 % 6.84 C
178 06-03-2014 14:45:00 11 C 76 % 6.94 C
179 06-03-2014 14:50:00 11.3 C 75 % 7.04 C
180 06-03-2014 14:55:00 11.5 C 74 % 7.03 C
181 06-03-2014 15:00:00 11.8 C 72 % 6.92 C
182 06-03-2014 15:05:00 11.9 C 70 % 6.61 C
183 06-03-2014 15:10:00 12.1 C 71 % 7.01 C
184 06-03-2014 15:15:00 12.3 C 69 % 6.78 C
185 06-03-2014 15:20:00 12.5 C 69 % 6.97 C
186 06-03-2014 15:25:00 12.6 C 65 % 6.2 C
187 06-03-2014 15:30:00 12.8 C 67 % 6.83 C
188 06-03-2014 15:35:00 12.9 C 63 % 6.04 C
189 06-03-2014 15:40:00 13 C 63 % 6.13 C
190 06-03-2014 15:45:00 13.1 C 62 % 5.99 C
191 06-03-2014 15:50:00 13.1 C 62 % 5.99 C
192 06-03-2014 15:55:00 12.9 C 60 % 5.33 C
193 06-03-2014 16:00:00 12.8 C 61 % 5.48 C
194 06-03-2014 16:05:00 12.6 C 62 % 5.52 C
195 06-03-2014 16:10:00 12.5 C 63 % 5.66 C
196 06-03-2014 16:15:00 12.4 C 62 % 5.33 C
197 06-03-2014 16:20:00 12.4 C 62 % 5.33 C
198 06-03-2014 16:25:00 12.3 C 62 % 5.24 C
199 06-03-2014 16:30:00 12.3 C 63 % 5.47 C
200 06-03-2014 16:35:00 12.3 C 62 % 5.24 C
Sensor: Nr:Datum:Temp:Feuchte:Taupunkt:
Aussen-T/F 201 06-03-2014 16:40:00 12.2 C 67 % 6.26 C
202 06-03-2014 16:45:00 12.1 C 63 % 5.28 C
203 06-03-2014 16:50:00 12 C 67 % 6.07 C
204 06-03-2014 16:55:00 11.7 C 68 % 6 C
205 06-03-2014 17:00:00 11.5 C 66 % 5.38 C
206 06-03-2014 17:05:00 11.6 C 65 % 5.25 C
207 06-03-2014 17:10:00 11.4 C 70 % 6.13 C
208 06-03-2014 17:15:00 10.9 C 72 % 6.06 C
209 06-03-2014 17:20:00 10.6 C 73 % 5.97 C
210 06-03-2014 17:25:00 10.2 C 75 % 5.97 C
211 06-03-2014 17:30:00 9.9 C 76 % 5.87 C
212 06-03-2014 17:35:00 9.6 C 77 % 5.77 C
213 06-03-2014 17:40:00 9.4 C 77 % 5.58 C
214 06-03-2014 17:45:00 9.2 C 77 % 5.38 C
215 06-03-2014 17:50:00 9 C 78 % 5.38 C
216 06-03-2014 17:55:00 8.8 C 79 % 5.36 C
217 06-03-2014 18:00:00 8.6 C 79 % 5.17 C
218 06-03-2014 18:05:00 8.3 C 80 % 5.06 C
219 06-03-2014 18:10:00 8.1 C 80 % 4.86 C
220 06-03-2014 18:15:00 7.8 C 80 % 4.57 C
221 06-03-2014 18:20:00 7.6 C 81 % 4.55 C
222 06-03-2014 18:25:00 7.4 C 81 % 4.36 C
223 06-03-2014 18:30:00 7.3 C 81 % 4.26 C
224 06-03-2014 18:35:00 7.2 C 81 % 4.16 C
225 06-03-2014 18:40:00 7.1 C 81 % 4.07 C
Sensor: Nr:Datum:Temp:Feuchte:Taupunkt:
Aussen-T/F 226 06-03-2014 18:45:00 6.9 C 82 % 4.05 C
227 06-03-2014 18:50:00 6.8 C 82 % 3.95 C
228 06-03-2014 18:55:00 6.7 C 83 % 4.02 C
229 06-03-2014 19:00:00 6.6 C 83 % 3.92 C
230 06-03-2014 19:05:00 6.5 C 83 % 3.83 C
231 06-03-2014 19:10:00 6.4 C 84 % 3.9 C
232 06-03-2014 19:15:00 6.4 C 84 % 3.9 C
233 06-03-2014 19:20:00 6.4 C 84 % 3.9 C
234 06-03-2014 19:25:00 6.3 C 84 % 3.8 C
235 06-03-2014 19:30:00 6.2 C 85 % 3.87 C
236 06-03-2014 19:35:00 6.2 C 85 % 3.87 C
237 06-03-2014 19:40:00 6.1 C 86 % 3.94 C
238 06-03-2014 19:45:00 6.1 C 86 % 3.94 C
239 06-03-2014 19:50:00 6.1 C 86 % 3.94 C
240 06-03-2014 19:55:00 6 C 86 % 3.84 C
241 06-03-2014 20:00:00 5.9 C 86 % 3.74 C
242 06-03-2014 20:05:00 5.8 C 86 % 3.64 C
243 06-03-2014 20:10:00 5.7 C 86 % 3.55 C
244 06-03-2014 20:15:00 5.5 C 86 % 3.35 C
245 06-03-2014 20:20:00 5.3 C 86 % 3.15 C
246 06-03-2014 20:25:00 5.3 C 86 % 3.15 C
247 06-03-2014 20:30:00 5.2 C 87 % 3.22 C
248 06-03-2014 20:35:00 5.1 C 87 % 3.12 C
249 06-03-2014 20:40:00 4.9 C 87 % 2.92 C
250 06-03-2014 20:45:00 4.9 C 86 % 2.76 C
Sensor: Nr:Datum:Temp:Feuchte:Taupunkt:
Aussen-T/F 251 06-03-2014 20:50:00 4.9 C 86 % 2.76 C
252 06-03-2014 20:55:00 4.8 C 87 % 2.82 C
253 06-03-2014 21:00:00 4.7 C 88 % 2.89 C
254 06-03-2014 21:05:00 4.6 C 87 % 2.63 C
255 06-03-2014 21:10:00 4.4 C 88 % 2.59 C
256 06-03-2014 21:15:00 4.3 C 88 % 2.49 C
257 06-03-2014 21:20:00 4.1 C 88 % 2.3 C
258 06-03-2014 21:25:00 4 C 89 % 2.36 C
259 06-03-2014 21:30:00 3.9 C 89 % 2.26 C
260 06-03-2014 21:35:00 3.8 C 89 % 2.16 C
261 06-03-2014 21:40:00 3.8 C 89 % 2.16 C
262 06-03-2014 21:45:00 3.7 C 89 % 2.06 C
263 06-03-2014 21:50:00 3.7 C 89 % 2.06 C
264 06-03-2014 21:55:00 3.7 C 89 % 2.06 C
265 06-03-2014 22:00:00 3.6 C 89 % 1.96 C
266 06-03-2014 22:05:00 3.5 C 89 % 1.86 C
267 06-03-2014 22:10:00 3.4 C 89 % 1.76 C
268 06-03-2014 22:15:00 3.4 C 89 % 1.76 C
269 06-03-2014 22:20:00 3.3 C 89 % 1.67 C
270 06-03-2014 22:25:00 3.2 C 89 % 1.57 C
271 06-03-2014 22:30:00 3.1 C 89 % 1.47 C
272 06-03-2014 22:35:00 2.9 C 89 % 1.27 C
273 06-03-2014 22:40:00 2.8 C 89 % 1.17 C
274 06-03-2014 22:45:00 2.8 C 90 % 1.33 C
275 06-03-2014 22:50:00 2.7 C 90 % 1.23 C
Sensor: Nr:Datum:Temp:Feuchte:Taupunkt:
Aussen-T/F 276 06-03-2014 22:55:00 2.6 C 90 % 1.13 C
277 06-03-2014 23:00:00 2.4 C 90 % 0.93 C
278 06-03-2014 23:05:00 2.3 C 91 % 0.99 C
279 06-03-2014 23:10:00 2.2 C 91 % 0.89 C
280 06-03-2014 23:15:00 2.2 C 91 % 0.89 C
281 06-03-2014 23:20:00 2.2 C 91 % 0.89 C
282 06-03-2014 23:25:00 2 C 91 % 0.69 C
283 06-03-2014 23:30:00 1.9 C 91 % 0.59 C
284 06-03-2014 23:35:00 1.8 C 91 % 0.49 C
285 06-03-2014 23:40:00 1.8 C 92 % 0.64 C
286 06-03-2014 23:45:00 1.7 C 92 % 0.54 C
287 06-03-2014 23:50:00 1.7 C 92 % 0.54 C
288 06-03-2014 23:55:00 1.7 C 93 % 0.69 C
289 07-03-2014 00:00:00 1.7 C 93 % 0.69 C
290 07-03-2014 00:05:00 1.6 C 93 % 0.59 C
291 07-03-2014 00:10:00 1.4 C 92 % 0.25 C
292 07-03-2014 00:15:00 1.3 C 93 % 0.3 C
293 07-03-2014 00:20:00 1.3 C 93 % 0.3 C
294 07-03-2014 00:25:00 1.2 C 93 % 0.2 C
295 07-03-2014 00:30:00 1.2 C 93 % 0.2 C
296 07-03-2014 00:35:00 1.2 C 93 % 0.2 C
297 07-03-2014 00:40:00 1.1 C 94 % 0.24 C
298 07-03-2014 00:45:00 1.1 C 93 % 0.1 C
299 07-03-2014 00:50:00 1.1 C 94 % 0.24 C
300 07-03-2014 00:55:00 1.1 C 94 % 0.24 C
Sensor: Nr:Datum:Temp:Feuchte:Taupunkt:
Aussen-T/F 301 07-03-2014 01:00:00 1.1 C 94 % 0.24 C
302 07-03-2014 01:05:00 1.1 C 94 % 0.24 C
303 07-03-2014 01:10:00 1.1 C 94 % 0.24 C
304 07-03-2014 01:15:00 0.9 C 94 % 0.05 C
305 07-03-2014 01:20:00 0.8 C 94 % -0.05 C
306 07-03-2014 01:25:00 0.8 C 94 % -0.05 C
307 07-03-2014 01:30:00 0.8 C 94 % -0.05 C
308 07-03-2014 01:35:00 0.7 C 94 % -0.15 C
309 07-03-2014 01:40:00 0.8 C 94 % -0.05 C
310 07-03-2014 01:45:00 0.7 C 94 % -0.15 C
311 07-03-2014 01:50:00 0.5 C 94 % -0.35 C
312 07-03-2014 01:55:00 0.4 C 94 % -0.45 C
313 07-03-2014 02:00:00 0.4 C 94 % -0.45 C
314 07-03-2014 02:05:00 0.4 C 95 % -0.31 C
315 07-03-2014 02:10:00 0.4 C 95 % -0.31 C
316 07-03-2014 02:15:00 0.4 C 95 % -0.31 C
317 07-03-2014 02:20:00 0.3 C 95 % -0.4 C
318 07-03-2014 02:25:00 0.3 C 95 % -0.4 C
319 07-03-2014 02:30:00 0.3 C 95 % -0.4 C
320 07-03-2014 02:35:00 0.2 C 95 % -0.5 C
321 07-03-2014 02:40:00 0.1 C 95 % -0.6 C
322 07-03-2014 02:45:00 -0.1 C 95 % -0.8 C
323 07-03-2014 02:50:00 -0.1 C 95 % -0.8 C
324 07-03-2014 02:55:00 -0.1 C 95 % -0.8 C
325 07-03-2014 03:00:00 -0.1 C 95 % -0.8 C
Sensor: Nr:Datum:Temp:Feuchte:Taupunkt:
Aussen-T/F 326 07-03-2014 03:05:00 -0.1 C 95 % -0.8 C
327 07-03-2014 03:10:00 -0.1 C 95 % -0.8 C
328 07-03-2014 03:15:00 -0.1 C 95 % -0.8 C
329 07-03-2014 03:20:00 -0.1 C 95 % -0.8 C
330 07-03-2014 03:25:00 -0.1 C 95 % -0.8 C
331 07-03-2014 03:30:00 -0.1 C 95 % -0.8 C
332 07-03-2014 03:35:00 -0.1 C 95 % -0.8 C
333 07-03-2014 03:40:00 -0.2 C 95 % -0.9 C
334 07-03-2014 03:45:00 -0.2 C 95 % -0.9 C
335 07-03-2014 03:50:00 -0.3 C 95 % -1 C
336 07-03-2014 03:55:00 -0.3 C 95 % -1 C
337 07-03-2014 04:00:00 -0.3 C 95 % -1 C
338 07-03-2014 04:05:00 -0.3 C 95 % -1 C
339 07-03-2014 04:20:00 -0.4 C 96 % -0.96 C
340 07-03-2014 04:25:00 -0.4 C 96 % -0.96 C
341 07-03-2014 04:30:00 -0.4 C 96 % -0.96 C
342 07-03-2014 07:55:00 -0.9 C 97 % -1.32 C
343 07-03-2014 08:00:00 -0.9 C 97 % -1.32 C
344 07-03-2014 08:05:00 -0.9 C 97 % -1.32 C
345 07-03-2014 08:10:00 -0.9 C 97 % -1.32 C
346 07-03-2014 08:15:00 -0.9 C 97 % -1.32 C
347 07-03-2014 08:20:00 -0.9 C 97 % -1.32 C
348 07-03-2014 08:25:00 -0.9 C 97 % -1.32 C
349 07-03-2014 08:30:00 -0.8 C 97 % -1.22 C
350 07-03-2014 08:35:00 -0.7 C 97 % -1.12 C
Sensor: Nr:Datum:Temp:Feuchte:Taupunkt:
Aussen-T/F 351 07-03-2014 08:40:00 -0.7 C 97 % -1.12 C
352 07-03-2014 08:45:00 -0.6 C 97 % -1.02 C
353 07-03-2014 08:50:00 -0.6 C 97 % -1.02 C
354 07-03-2014 08:55:00 -0.6 C 97 % -1.02 C
355 07-03-2014 09:00:00 -0.5 C 97 % -0.92 C
356 07-03-2014 09:05:00 -0.5 C 97 % -0.92 C
357 07-03-2014 09:10:00 -0.4 C 97 % -0.82 C
358 07-03-2014 09:15:00 -0.4 C 97 % -0.82 C
359 07-03-2014 09:20:00 -0.3 C 97 % -0.72 C
360 07-03-2014 09:25:00 -0.2 C 97 % -0.62 C
361 07-03-2014 09:30:00 -0.1 C 97 % -0.52 C
362 07-03-2014 09:35:00 -0.1 C 97 % -0.52 C
363 07-03-2014 09:40:00 0.1 C 97 % -0.32 C
364 07-03-2014 09:45:00 0.1 C 97 % -0.32 C
365 07-03-2014 09:50:00 0.2 C 97 % -0.22 C
366 07-03-2014 09:55:00 0.3 C 97 % -0.12 C
367 07-03-2014 10:00:00 0.4 C 97 % -0.02 C
368 07-03-2014 10:05:00 0.5 C 97 % 0.08 C
369 07-03-2014 10:10:00 0.6 C 97 % 0.18 C
370 07-03-2014 10:15:00 0.8 C 97 % 0.38 C
371 07-03-2014 10:20:00 0.8 C 97 % 0.38 C
372 07-03-2014 10:25:00 0.9 C 97 % 0.48 C
373 07-03-2014 10:30:00 1.1 C 97 % 0.68 C
374 07-03-2014 10:35:00 1.4 C 97 % 0.98 C
375 07-03-2014 10:40:00 1.7 C 98 % 1.42 C
Sensor: Nr:Datum:Temp:Feuchte:Taupunkt:
Aussen-T/F 376 07-03-2014 10:45:00 1.7 C 98 % 1.42 C
377 07-03-2014 13:15:00 11.6 C 71 % 6.53 C
378 07-03-2014 13:20:00 11.7 C 72 % 6.83 C
379 07-03-2014 13:25:00 11.9 C 70 % 6.61 C
380 07-03-2014 13:30:00 12.2 C 70 % 6.9 C
381 07-03-2014 13:35:00 12.3 C 69 % 6.78 C
382 07-03-2014 13:40:00 12.4 C 70 % 7.09 C
383 07-03-2014 13:45:00 12.4 C 70 % 7.09 C
384 07-03-2014 13:50:00 12.4 C 69 % 6.88 C
385 07-03-2014 13:55:00 12.6 C 68 % 6.86 C
386 07-03-2014 14:00:00 12.7 C 68 % 6.95 C
387 07-03-2014 14:05:00 12.9 C 66 % 6.71 C
388 07-03-2014 14:10:00 13.2 C 66 % 7 C
389 07-03-2014 14:15:00 13.4 C 63 % 6.51 C
390 07-03-2014 14:20:00 13.6 C 63 % 6.7 C
391 07-03-2014 14:25:00 13.9 C 61 % 6.51 C
392 07-03-2014 14:30:00 14.2 C 58 % 6.06 C
393 07-03-2014 14:35:00 14.2 C 56 % 5.56 C
394 07-03-2014 14:40:00 14.2 C 60 % 6.56 C
395 07-03-2014 14:45:00 14.3 C 57 % 5.91 C
396 07-03-2014 14:50:00 14.4 C 53 % 4.95 C
397 07-03-2014 14:55:00 14.7 C 51 % 4.68 C
398 07-03-2014 15:00:00 14.7 C 51 % 4.68 C
399 07-03-2014 15:05:00 15 C 50 % 4.67 C
400 07-03-2014 15:10:00 15.2 C 46 % 3.67 C
Sensor: Nr:Datum:Temp:Feuchte:Taupunkt:
Aussen-T/F 401 07-03-2014 15:15:00 15.3 C 47 % 4.07 C
402 07-03-2014 15:20:00 15.3 C 47 % 4.07 C
403 07-03-2014 15:25:00 15.3 C 45 % 3.45 C
404 07-03-2014 15:30:00 15.3 C 44 % 3.13 C
405 07-03-2014 15:35:00 15.3 C 44 % 3.13 C
406 07-03-2014 15:40:00 15.3 C 44 % 3.13 C
407 07-03-2014 15:45:00 15.1 C 45 % 3.27 C
408 07-03-2014 15:50:00 15.1 C 45 % 3.27 C
409 07-03-2014 15:55:00 15 C 45 % 3.18 C
410 07-03-2014 16:00:00 14.9 C 46 % 3.4 C
411 07-03-2014 16:05:00 14.8 C 52 % 5.05 C
412 07-03-2014 16:10:00 14.7 C 46 % 3.22 C
413 07-03-2014 16:15:00 14.6 C 50 % 4.31 C
414 07-03-2014 16:20:00 14.4 C 56 % 5.74 C
415 07-03-2014 16:25:00 14.2 C 50 % 3.94 C
416 07-03-2014 16:30:00 14.1 C 54 % 4.94 C
417 07-03-2014 16:35:00 13.9 C 56 % 5.28 C
418 07-03-2014 16:40:00 13.6 C 61 % 6.23 C
419 07-03-2014 16:45:00 13.2 C 64 % 6.55 C
420 07-03-2014 16:50:00 12.8 C 64 % 6.17 C
421 07-03-2014 16:55:00 12.5 C 66 % 6.33 C
422 07-03-2014 17:00:00 12.3 C 67 % 6.36 C
423 07-03-2014 17:05:00 12.1 C 67 % 6.17 C
424 07-03-2014 17:10:00 12 C 67 % 6.07 C
425 07-03-2014 17:15:00 11.9 C 67 % 5.98 C
Sensor: Nr:Datum:Temp:Feuchte:Taupunkt:
Aussen-T/F 426 07-03-2014 17:20:00 11.7 C 68 % 6 C
427 07-03-2014 17:25:00 11.6 C 69 % 6.11 C
428 07-03-2014 17:30:00 11.4 C 71 % 6.34 C
429 07-03-2014 17:35:00 11.2 C 71 % 6.14 C
430 07-03-2014 17:40:00 11 C 72 % 6.15 C
431 07-03-2014 17:45:00 10.7 C 72 % 5.87 C
432 07-03-2014 17:50:00 10.6 C 72 % 5.77 C
433 07-03-2014 17:55:00 10.4 C 73 % 5.78 C
434 07-03-2014 18:00:00 10.3 C 73 % 5.68 C
435 07-03-2014 18:05:00 10.2 C 73 % 5.58 C
436 07-03-2014 18:10:00 10.2 C 74 % 5.78 C
437 07-03-2014 18:15:00 10.1 C 74 % 5.68 C
438 07-03-2014 18:20:00 10.1 C 74 % 5.68 C
439 07-03-2014 18:25:00 9.9 C 74 % 5.49 C
440 07-03-2014 18:30:00 9.9 C 74 % 5.49 C
441 07-03-2014 18:35:00 9.9 C 74 % 5.49 C
442 07-03-2014 18:40:00 9.9 C 75 % 5.68 C
443 07-03-2014 18:45:00 9.9 C 71 % 4.9 C
444 07-03-2014 18:50:00 10.1 C 72 % 5.29 C
445 07-03-2014 18:55:00 9.9 C 72 % 5.1 C
446 07-03-2014 19:00:00 9.7 C 74 % 5.3 C
447 07-03-2014 19:05:00 9.6 C 75 % 5.39 C
448 07-03-2014 19:10:00 9.6 C 75 % 5.39 C
449 07-03-2014 19:30:00 8.9 C 76 % 4.91 C
450 07-03-2014 19:35:00 8.9 C 76 % 4.91 C
Sensor: Nr:Datum:Temp:Feuchte:Taupunkt:
Aussen-T/F 451 07-03-2014 19:40:00 9.1 C 76 % 5.1 C
452 07-03-2014 19:45:00 9.1 C 76 % 5.1 C
453 07-03-2014 19:50:00 8.9 C 77 % 5.09 C
454 07-03-2014 19:55:00 8.9 C 77 % 5.09 C
455 07-03-2014 20:00:00 8.8 C 76 % 4.81 C
456 07-03-2014 20:05:00 8.8 C 76 % 4.81 C
457 07-03-2014 20:10:00 8.7 C 77 % 4.9 C
458 07-03-2014 20:15:00 8.7 C 77 % 4.9 C
459 07-03-2014 20:20:00 8.7 C 77 % 4.9 C
460 07-03-2014 20:25:00 8.2 C 79 % 4.78 C
461 07-03-2014 20:30:00 8.2 C 78 % 4.6 C
462 07-03-2014 20:35:00 8.1 C 77 % 4.32 C
463 07-03-2014 20:40:00 8.1 C 78 % 4.5 C
464 07-03-2014 20:45:00 7.9 C 80 % 4.67 C
465 07-03-2014 20:50:00 7.8 C 79 % 4.39 C
466 07-03-2014 20:55:00 7.7 C 80 % 4.47 C
467 07-03-2014 21:00:00 7.7 C 79 % 4.3 C
468 07-03-2014 21:05:00 7.8 C 79 % 4.39 C
469 07-03-2014 21:10:00 7.8 C 79 % 4.39 C
470 07-03-2014 21:15:00 7.8 C 79 % 4.39 C
471 07-03-2014 21:20:00 7.8 C 80 % 4.57 C
472 07-03-2014 21:25:00 7.6 C 80 % 4.38 C
473 07-03-2014 21:30:00 7.3 C 81 % 4.26 C
474 07-03-2014 21:35:00 7.4 C 81 % 4.36 C
475 07-03-2014 21:40:00 7.7 C 81 % 4.65 C
Sensor: Nr:Datum:Temp:Feuchte:Taupunkt:
Aussen-T/F 476 07-03-2014 21:45:00 7.9 C 80 % 4.67 C
477 07-03-2014 21:50:00 8.1 C 80 % 4.86 C
478 07-03-2014 21:55:00 8.3 C 80 % 5.06 C
479 07-03-2014 22:00:00 8.3 C 79 % 4.88 C
480 07-03-2014 22:05:00 8.3 C 79 % 4.88 C
481 07-03-2014 22:10:00 8.1 C 79 % 4.68 C
482 07-03-2014 22:15:00 7.8 C 79 % 4.39 C
483 07-03-2014 22:20:00 7.7 C 80 % 4.47 C
484 07-03-2014 22:25:00 7.4 C 82 % 4.53 C
485 07-03-2014 22:30:00 7.2 C 83 % 4.51 C
486 07-03-2014 22:35:00 6.9 C 83 % 4.22 C
487 07-03-2014 22:40:00 6.8 C 83 % 4.12 C
488 07-03-2014 22:45:00 6.7 C 83 % 4.02 C
489 07-03-2014 22:50:00 6.5 C 84 % 4 C
490 07-03-2014 22:55:00 6.3 C 85 % 3.97 C
491 07-03-2014 23:00:00 6.2 C 85 % 3.87 C
492 07-03-2014 23:05:00 6.2 C 85 % 3.87 C
493 07-03-2014 23:10:00 5.9 C 85 % 3.58 C
494 07-03-2014 23:15:00 5.8 C 85 % 3.48 C
495 07-03-2014 23:20:00 5.6 C 85 % 3.28 C
496 07-03-2014 23:25:00 5.4 C 86 % 3.25 C
497 07-03-2014 23:30:00 5.3 C 87 % 3.32 C
498 07-03-2014 23:35:00 5.2 C 88 % 3.38 C
499 07-03-2014 23:40:00 5.2 C 87 % 3.22 C
500 07-03-2014 23:45:00 5.1 C 88 % 3.28 C
Sensor: Nr:Datum:Temp:Feuchte:Taupunkt:
Aussen-T/F 501 07-03-2014 23:50:00 4.9 C 88 % 3.08 C
502 07-03-2014 23:55:00 5.1 C 90 % 3.6 C
503 08-03-2014 00:00:00 5.2 C 89 % 3.54 C
504 08-03-2014 00:05:00 5.2 C 88 % 3.38 C
505 08-03-2014 00:10:00 5.3 C 87 % 3.32 C
506 08-03-2014 00:15:00 5.2 C 87 % 3.22 C
507 08-03-2014 00:20:00 5.1 C 87 % 3.12 C
508 08-03-2014 00:25:00 4.9 C 87 % 2.92 C
509 08-03-2014 00:30:00 4.7 C 87 % 2.73 C
510 08-03-2014 00:35:00 4.5 C 88 % 2.69 C
511 08-03-2014 00:40:00 4.4 C 89 % 2.75 C
512 08-03-2014 00:45:00 4.4 C 89 % 2.75 C
513 08-03-2014 00:50:00 4.4 C 89 % 2.75 C
514 08-03-2014 00:55:00 4.3 C 89 % 2.65 C
515 08-03-2014 01:00:00 4.3 C 90 % 2.81 C
516 08-03-2014 01:05:00 4.4 C 90 % 2.91 C
517 08-03-2014 01:10:00 4.4 C 90 % 2.91 C
518 08-03-2014 01:15:00 4.4 C 90 % 2.91 C
519 08-03-2014 01:20:00 4.5 C 89 % 2.85 C
520 08-03-2014 01:25:00 4.5 C 89 % 2.85 C
521 08-03-2014 01:30:00 4.4 C 90 % 2.91 C
522 08-03-2014 01:35:00 4.4 C 90 % 2.91 C
523 08-03-2014 01:40:00 4.4 C 90 % 2.91 C
524 08-03-2014 01:45:00 4.4 C 90 % 2.91 C
525 08-03-2014 01:50:00 4.4 C 89 % 2.75 C
Sensor: Nr:Datum:Temp:Feuchte:Taupunkt:
Aussen-T/F 526 08-03-2014 01:55:00 4.4 C 89 % 2.75 C
527 08-03-2014 02:00:00 4.4 C 89 % 2.75 C
528 08-03-2014 02:05:00 4.3 C 90 % 2.81 C
529 08-03-2014 02:10:00 4.3 C 90 % 2.81 C
530 08-03-2014 02:15:00 4.3 C 90 % 2.81 C
531 08-03-2014 02:20:00 4.3 C 90 % 2.81 C
532 08-03-2014 02:25:00 4.3 C 90 % 2.81 C
533 08-03-2014 02:30:00 4.4 C 90 % 2.91 C
534 08-03-2014 02:35:00 4.4 C 90 % 2.91 C
535 08-03-2014 02:40:00 4.4 C 90 % 2.91 C
536 08-03-2014 02:45:00 4.4 C 90 % 2.91 C
537 08-03-2014 02:50:00 4.4 C 90 % 2.91 C
538 08-03-2014 02:55:00 4.3 C 90 % 2.81 C
539 08-03-2014 03:00:00 4.2 C 90 % 2.71 C
540 08-03-2014 03:05:00 4.1 C 90 % 2.61 C
541 08-03-2014 03:10:00 4 C 90 % 2.51 C
542 08-03-2014 03:15:00 3.9 C 90 % 2.41 C
543 08-03-2014 03:20:00 3.7 C 90 % 2.22 C
544 08-03-2014 03:25:00 3.6 C 90 % 2.12 C
545 08-03-2014 03:30:00 3.4 C 91 % 2.07 C
546 08-03-2014 03:35:00 3.4 C 91 % 2.07 C
547 08-03-2014 03:40:00 3.4 C 91 % 2.07 C
548 08-03-2014 03:45:00 3.3 C 92 % 2.13 C
549 08-03-2014 03:50:00 3.3 C 92 % 2.13 C
550 08-03-2014 03:55:00 3.2 C 91 % 1.88 C
Sensor: Nr:Datum:Temp:Feuchte:Taupunkt:
Aussen-T/F 551 08-03-2014 04:00:00 3.2 C 92 % 2.03 C
552 08-03-2014 04:05:00 3.1 C 92 % 1.93 C
553 08-03-2014 04:10:00 3.1 C 92 % 1.93 C
554 08-03-2014 04:15:00 3.1 C 93 % 2.08 C
555 08-03-2014 04:20:00 3.2 C 93 % 2.18 C
556 08-03-2014 04:25:00 3.3 C 93 % 2.28 C
557 08-03-2014 04:30:00 3.2 C 92 % 2.03 C
558 08-03-2014 04:35:00 3 C 92 % 1.83 C
559 08-03-2014 04:40:00 2.8 C 92 % 1.63 C
560 08-03-2014 04:45:00 2.8 C 92 % 1.63 C
561 08-03-2014 04:50:00 2.7 C 93 % 1.68 C
562 08-03-2014 04:55:00 2.6 C 92 % 1.43 C
563 08-03-2014 05:00:00 2.4 C 93 % 1.39 C
564 08-03-2014 05:05:00 2.4 C 93 % 1.39 C
565 08-03-2014 05:10:00 2.3 C 93 % 1.29 C
566 08-03-2014 05:15:00 2.3 C 93 % 1.29 C
567 08-03-2014 05:20:00 2.3 C 94 % 1.44 C
568 08-03-2014 05:25:00 2.3 C 94 % 1.44 C
569 08-03-2014 05:30:00 2.3 C 94 % 1.44 C
570 08-03-2014 05:35:00 2.3 C 94 % 1.44 C
571 08-03-2014 05:40:00 2.3 C 94 % 1.44 C
572 08-03-2014 05:45:00 2.3 C 94 % 1.44 C
573 08-03-2014 05:50:00 2.2 C 94 % 1.34 C
574 08-03-2014 05:55:00 2.2 C 94 % 1.34 C
575 08-03-2014 06:00:00 2.2 C 94 % 1.34 C
Sensor: Nr:Datum:Temp:Feuchte:Taupunkt:
Aussen-T/F 576 08-03-2014 06:05:00 2.2 C 94 % 1.34 C
577 08-03-2014 06:10:00 2.1 C 94 % 1.24 C
578 08-03-2014 06:15:00 2.1 C 94 % 1.24 C
579 08-03-2014 06:20:00 2 C 94 % 1.14 C
580 08-03-2014 06:25:00 1.9 C 94 % 1.04 C
581 08-03-2014 06:30:00 1.9 C 94 % 1.04 C
582 08-03-2014 06:35:00 1.8 C 94 % 0.94 C
583 08-03-2014 06:40:00 1.8 C 94 % 0.94 C
584 08-03-2014 06:45:00 1.7 C 94 % 0.84 C
585 08-03-2014 06:50:00 1.7 C 95 % 0.99 C
586 08-03-2014 06:55:00 1.8 C 95 % 1.09 C
587 08-03-2014 07:00:00 1.8 C 95 % 1.09 C
588 08-03-2014 07:05:00 1.8 C 95 % 1.09 C
589 08-03-2014 07:10:00 1.8 C 95 % 1.09 C
590 08-03-2014 07:15:00 1.7 C 95 % 0.99 C
591 08-03-2014 07:20:00 1.8 C 95 % 1.09 C
592 08-03-2014 07:25:00 1.8 C 95 % 1.09 C
593 08-03-2014 07:30:00 1.7 C 95 % 0.99 C
594 08-03-2014 07:35:00 1.7 C 95 % 0.99 C
595 08-03-2014 07:40:00 1.6 C 95 % 0.89 C
596 08-03-2014 07:45:00 1.6 C 95 % 0.89 C
597 08-03-2014 07:50:00 1.6 C 95 % 0.89 C
598 08-03-2014 07:55:00 1.6 C 95 % 0.89 C
599 08-03-2014 08:00:00 1.6 C 95 % 0.89 C
600 08-03-2014 08:05:00 1.7 C 95 % 0.99 C
Sensor: Nr:Datum:Temp:Feuchte:Taupunkt:
Aussen-T/F 601 08-03-2014 08:10:00 1.7 C 95 % 0.99 C
602 08-03-2014 08:15:00 1.8 C 95 % 1.09 C
603 08-03-2014 08:20:00 1.8 C 95 % 1.09 C
604 08-03-2014 08:25:00 1.8 C 95 % 1.09 C
605 08-03-2014 08:30:00 1.9 C 95 % 1.19 C
606 08-03-2014 08:35:00 1.9 C 95 % 1.19 C
607 08-03-2014 08:40:00 2 C 95 % 1.29 C
608 08-03-2014 08:45:00 2.1 C 95 % 1.38 C
609 08-03-2014 08:50:00 2.2 C 96 % 1.63 C
610 08-03-2014 08:55:00 2.2 C 96 % 1.63 C
611 08-03-2014 09:00:00 2.5 C 96 % 1.93 C
612 08-03-2014 09:05:00 2.5 C 96 % 1.93 C
613 08-03-2014 09:10:00 2.5 C 96 % 1.93 C
614 08-03-2014 09:15:00 2.8 C 95 % 2.08 C
615 08-03-2014 09:20:00 2.8 C 95 % 2.08 C
616 08-03-2014 09:25:00 2.9 C 96 % 2.33 C
617 08-03-2014 09:30:00 3.1 C 95 % 2.38 C
618 08-03-2014 09:35:00 3.2 C 95 % 2.48 C
619 08-03-2014 09:40:00 3.4 C 96 % 2.82 C
620 08-03-2014 09:45:00 3.6 C 96 % 3.02 C
621 08-03-2014 09:50:00 3.8 C 96 % 3.22 C
622 08-03-2014 09:55:00 4 C 96 % 3.42 C
623 08-03-2014 10:00:00 4.3 C 95 % 3.57 C
624 08-03-2014 10:05:00 4.4 C 95 % 3.67 C
625 08-03-2014 10:10:00 4.4 C 95 % 3.67 C
Sensor: Nr:Datum:Temp:Feuchte:Taupunkt:
Aussen-T/F 626 08-03-2014 10:15:00 5.1 C 95 % 4.37 C
627 08-03-2014 10:20:00 5.3 C 95 % 4.57 C
628 08-03-2014 10:25:00 5.6 C 94 % 4.71 C
629 08-03-2014 10:30:00 5.7 C 93 % 4.66 C
630 08-03-2014 10:35:00 6.1 C 92 % 4.9 C
631 08-03-2014 10:40:00 6.3 C 92 % 5.1 C
632 08-03-2014 10:45:00 6.4 C 92 % 5.2 C
633 08-03-2014 10:50:00 6.4 C 92 % 5.2 C
634 08-03-2014 11:30:00 8.9 C 85 % 6.52 C
635 08-03-2014 11:35:00 9.2 C 85 % 6.81 C
636 08-03-2014 11:40:00 9.4 C 85 % 7.01 C
637 08-03-2014 11:45:00 9.7 C 84 % 7.13 C
638 08-03-2014 11:50:00 10 C 84 % 7.43 C
639 08-03-2014 11:55:00 10.8 C 78 % 7.12 C
640 08-03-2014 12:00:00 11.4 C 78 % 7.71 C
641 08-03-2014 12:05:00 11.9 C 73 % 7.22 C
642 08-03-2014 12:10:00 12.6 C 68 % 6.86 C
643 08-03-2014 12:15:00 13.1 C 67 % 7.12 C
644 08-03-2014 12:20:00 13.4 C 63 % 6.51 C
645 08-03-2014 12:25:00 13.7 C 66 % 7.47 C
646 08-03-2014 12:30:00 14.1 C 63 % 7.17 C
647 08-03-2014 12:35:00 14.4 C 61 % 6.98 C
648 08-03-2014 12:40:00 14.7 C 61 % 7.27 C
649 08-03-2014 12:45:00 14.9 C 60 % 7.21 C
650 08-03-2014 12:50:00 15.3 C 57 % 6.84 C
Sensor: Nr:Datum:Temp:Feuchte:Taupunkt:
Aussen-T/F 651 08-03-2014 12:55:00 15.4 C 59 % 7.44 C
652 08-03-2014 13:00:00 15.4 C 56 % 6.68 C
653 08-03-2014 13:05:00 15.5 C 55 % 6.51 C
654 08-03-2014 13:10:00 15.7 C 55 % 6.69 C
655 08-03-2014 13:15:00 15.8 C 55 % 6.79 C
656 08-03-2014 13:20:00 15.6 C 52 % 5.79 C
657 08-03-2014 13:25:00 15.4 C 52 % 5.61 C
658 08-03-2014 13:30:00 15.4 C 55 % 6.42 C
659 08-03-2014 13:35:00 15.4 C 52 % 5.61 C
660 08-03-2014 13:40:00 15.4 C 54 % 6.15 C
661 08-03-2014 13:45:00 15.3 C 53 % 5.79 C
662 08-03-2014 13:50:00 15.3 C 54 % 6.06 C
663 08-03-2014 13:55:00 15.3 C 53 % 5.79 C
664 08-03-2014 14:00:00 15.4 C 52 % 5.61 C
665 08-03-2014 14:05:00 15.5 C 54 % 6.24 C
666 08-03-2014 14:10:00 15.7 C 53 % 6.16 C
667 08-03-2014 14:15:00 15.8 C 51 % 5.69 C
668 08-03-2014 14:20:00 15.9 C 51 % 5.79 C
669 08-03-2014 14:25:00 15.9 C 50 % 5.5 C
670 08-03-2014 14:30:00 15.9 C 51 % 5.79 C
671 08-03-2014 14:35:00 15.9 C 49 % 5.21 C
672 08-03-2014 14:40:00 15.8 C 50 % 5.41 C
673 08-03-2014 14:45:00 15.9 C 52 % 6.07 C
674 08-03-2014 14:50:00 15.9 C 52 % 6.07 C
675 08-03-2014 14:55:00 16 C 52 % 6.16 C
Sensor: Nr:Datum:Temp:Feuchte:Taupunkt:
Aussen-T/F 676 08-03-2014 15:00:00 16.2 C 50 % 5.78 C
677 08-03-2014 15:05:00 16.1 C 52 % 6.25 C
678 08-03-2014 15:10:00 16.2 C 51 % 6.06 C
679 08-03-2014 15:15:00 16.2 C 50 % 5.78 C
680 08-03-2014 15:20:00 16.3 C 51 % 6.16 C
681 08-03-2014 15:25:00 16.2 C 49 % 5.49 C
682 08-03-2014 15:30:00 16.1 C 50 % 5.69 C
683 08-03-2014 15:35:00 16.2 C 49 % 5.49 C
684 08-03-2014 15:40:00 16.2 C 49 % 5.49 C
685 08-03-2014 15:45:00 16.2 C 50 % 5.78 C
686 08-03-2014 15:50:00 16.2 C 48 % 5.19 C
687 08-03-2014 15:55:00 16.1 C 50 % 5.69 C
688 08-03-2014 16:00:00 15.9 C 51 % 5.79 C
689 08-03-2014 16:05:00 15.8 C 50 % 5.41 C
690 08-03-2014 16:10:00 15.8 C 50 % 5.41 C
691 08-03-2014 16:15:00 15.7 C 50 % 5.32 C
692 08-03-2014 16:20:00 15.6 C 49 % 4.94 C
693 08-03-2014 16:25:00 15.5 C 50 % 5.13 C
694 08-03-2014 16:30:00 15.4 C 50 % 5.04 C
695 08-03-2014 16:35:00 15.4 C 50 % 5.04 C
696 08-03-2014 16:40:00 15.3 C 53 % 5.79 C
697 08-03-2014 16:45:00 15 C 51 % 4.96 C
698 08-03-2014 16:50:00 14.8 C 54 % 5.59 C
699 08-03-2014 16:55:00 14.7 C 52 % 4.96 C
700 08-03-2014 17:00:00 14.7 C 58 % 6.53 C
Sensor: Nr:Datum:Temp:Feuchte:Taupunkt:
Aussen-T/F 701 08-03-2014 17:05:00 14.6 C 52 % 4.87 C
702 08-03-2014 17:10:00 14.7 C 52 % 4.96 C
703 08-03-2014 17:15:00 14.7 C 56 % 6.02 C
704 08-03-2014 17:20:00 14.6 C 55 % 5.67 C
705 08-03-2014 17:25:00 14.3 C 57 % 5.91 C
706 08-03-2014 17:30:00 14.1 C 58 % 5.97 C
707 08-03-2014 17:35:00 13.9 C 55 % 5.02 C
708 08-03-2014 17:40:00 14 C 61 % 6.61 C
709 08-03-2014 17:45:00 13.5 C 62 % 6.37 C
710 08-03-2014 17:50:00 12.9 C 65 % 6.49 C
711 08-03-2014 17:55:00 12.3 C 66 % 6.14 C
712 08-03-2014 18:00:00 11.8 C 68 % 6.09 C
713 08-03-2014 18:05:00 11.3 C 69 % 5.83 C
714 08-03-2014 18:10:00 11.1 C 70 % 5.84 C
715 08-03-2014 18:15:00 10.8 C 71 % 5.76 C
716 08-03-2014 18:20:00 10.5 C 71 % 5.47 C
717 08-03-2014 18:25:00 10.3 C 72 % 5.48 C
718 08-03-2014 18:30:00 10 C 73 % 5.39 C
719 08-03-2014 18:35:00 9.8 C 73 % 5.2 C
720 08-03-2014 18:40:00 9.6 C 74 % 5.2 C
721 08-03-2014 18:45:00 9.4 C 75 % 5.2 C
722 08-03-2014 18:50:00 9.3 C 75 % 5.1 C
723 08-03-2014 18:55:00 9.2 C 75 % 5.01 C
724 08-03-2014 19:00:00 9.1 C 76 % 5.1 C
725 08-03-2014 19:05:00 9 C 76 % 5 C
Sensor: Nr:Datum:Temp:Feuchte:Taupunkt:
Aussen-T/F 726 08-03-2014 19:10:00 8.8 C 77 % 5 C
727 08-03-2014 19:15:00 8.8 C 78 % 5.18 C
728 08-03-2014 19:20:00 8.6 C 77 % 4.8 C
729 08-03-2014 19:25:00 8.6 C 77 % 4.8 C
730 08-03-2014 19:30:00 8.6 C 77 % 4.8 C
731 08-03-2014 19:35:00 8.6 C 78 % 4.99 C
732 08-03-2014 19:40:00 8.4 C 78 % 4.79 C
733 08-03-2014 19:45:00 8.3 C 79 % 4.88 C
734 08-03-2014 19:50:00 8.2 C 79 % 4.78 C
735 08-03-2014 19:55:00 8 C 80 % 4.77 C
736 08-03-2014 20:00:00 7.8 C 80 % 4.57 C
737 08-03-2014 20:05:00 7.7 C 81 % 4.65 C
738 08-03-2014 20:10:00 7.5 C 82 % 4.63 C
739 08-03-2014 20:15:00 7.3 C 82 % 4.44 C
740 08-03-2014 20:20:00 7.3 C 82 % 4.44 C
741 08-03-2014 20:25:00 7.2 C 84 % 4.68 C
742 08-03-2014 20:30:00 7.1 C 84 % 4.58 C
743 08-03-2014 20:35:00 6.9 C 84 % 4.39 C
744 08-03-2014 20:40:00 6.9 C 84 % 4.39 C
745 08-03-2014 20:45:00 6.9 C 84 % 4.39 C
746 08-03-2014 20:50:00 6.9 C 84 % 4.39 C
747 08-03-2014 20:55:00 6.7 C 84 % 4.19 C
748 08-03-2014 21:00:00 6.6 C 85 % 4.26 C
749 08-03-2014 21:05:00 6.4 C 85 % 4.07 C
750 08-03-2014 21:10:00 6.3 C 85 % 3.97 C
Sensor: Nr:Datum:Temp:Feuchte:Taupunkt:
Aussen-T/F 751 08-03-2014 21:15:00 6.3 C 86 % 4.14 C
752 08-03-2014 21:20:00 6.2 C 85 % 3.87 C
753 08-03-2014 21:25:00 6.2 C 86 % 4.04 C
754 08-03-2014 21:30:00 6.2 C 86 % 4.04 C
755 08-03-2014 21:35:00 6.1 C 85 % 3.77 C
756 08-03-2014 21:40:00 5.9 C 85 % 3.58 C
757 08-03-2014 21:45:00 5.8 C 85 % 3.48 C
758 08-03-2014 21:50:00 5.7 C 86 % 3.55 C
759 08-03-2014 21:55:00 5.6 C 86 % 3.45 C
760 08-03-2014 22:00:00 5.4 C 87 % 3.41 C
761 08-03-2014 22:05:00 5.4 C 87 % 3.41 C
762 08-03-2014 22:10:00 5.3 C 87 % 3.32 C
763 08-03-2014 22:15:00 5.3 C 87 % 3.32 C
764 08-03-2014 22:20:00 5.2 C 87 % 3.22 C
765 08-03-2014 22:25:00 5.2 C 88 % 3.38 C
766 08-03-2014 22:30:00 5.1 C 87 % 3.12 C
767 08-03-2014 22:35:00 5.1 C 87 % 3.12 C
768 08-03-2014 22:40:00 5.1 C 87 % 3.12 C
769 08-03-2014 22:45:00 4.8 C 87 % 2.82 C
770 08-03-2014 22:50:00 4.8 C 87 % 2.82 C
771 08-03-2014 22:55:00 4.7 C 87 % 2.73 C
772 08-03-2014 23:00:00 4.7 C 87 % 2.73 C
773 08-03-2014 23:05:00 4.6 C 88 % 2.79 C
774 08-03-2014 23:10:00 4.6 C 88 % 2.79 C
775 08-03-2014 23:15:00 4.4 C 88 % 2.59 C
Sensor: Nr:Datum:Temp:Feuchte:Taupunkt:
Aussen-T/F 776 08-03-2014 23:20:00 4.3 C 88 % 2.49 C
777 08-03-2014 23:25:00 4.1 C 88 % 2.3 C
778 08-03-2014 23:30:00 3.9 C 88 % 2.1 C
779 08-03-2014 23:35:00 3.8 C 89 % 2.16 C
780 08-03-2014 23:40:00 3.8 C 90 % 2.31 C
781 08-03-2014 23:45:00 3.8 C 90 % 2.31 C
782 08-03-2014 23:50:00 3.7 C 89 % 2.06 C
783 08-03-2014 23:55:00 3.6 C 89 % 1.96 C
784 09-03-2014 00:00:00 3.5 C 90 % 2.02 C
785 09-03-2014 00:05:00 3.5 C 90 % 2.02 C
786 09-03-2014 00:10:00 3.5 C 90 % 2.02 C
787 09-03-2014 00:15:00 3.4 C 90 % 1.92 C
788 09-03-2014 00:20:00 3.4 C 90 % 1.92 C
789 09-03-2014 00:25:00 3.3 C 90 % 1.82 C
790 09-03-2014 00:30:00 3.2 C 90 % 1.72 C
791 09-03-2014 00:35:00 3.2 C 91 % 1.88 C
792 09-03-2014 00:40:00 3.1 C 91 % 1.78 C
793 09-03-2014 00:45:00 3 C 91 % 1.68 C
794 09-03-2014 00:50:00 2.9 C 91 % 1.58 C
795 09-03-2014 00:55:00 2.9 C 91 % 1.58 C
796 09-03-2014 01:00:00 2.8 C 91 % 1.48 C
797 09-03-2014 01:05:00 2.8 C 92 % 1.63 C
798 09-03-2014 01:10:00 2.8 C 92 % 1.63 C
799 09-03-2014 01:15:00 2.8 C 92 % 1.63 C
800 09-03-2014 01:20:00 2.8 C 92 % 1.63 C
Sensor: Nr:Datum:Temp:Feuchte:Taupunkt:
Aussen-T/F 801 09-03-2014 01:25:00 2.7 C 92 % 1.53 C
802 09-03-2014 01:30:00 2.7 C 92 % 1.53 C
803 09-03-2014 01:35:00 2.6 C 92 % 1.43 C
804 09-03-2014 01:40:00 2.6 C 92 % 1.43 C
805 09-03-2014 01:45:00 2.5 C 92 % 1.34 C
806 09-03-2014 01:50:00 2.4 C 92 % 1.24 C
807 09-03-2014 01:55:00 2.3 C 93 % 1.29 C
808 09-03-2014 02:00:00 2.3 C 93 % 1.29 C
809 09-03-2014 02:05:00 2.2 C 93 % 1.19 C
810 09-03-2014 02:10:00 2.2 C 93 % 1.19 C
811 09-03-2014 02:15:00 2.1 C 93 % 1.09 C
812 09-03-2014 02:20:00 2.1 C 93 % 1.09 C
813 09-03-2014 02:25:00 2 C 93 % 0.99 C
814 09-03-2014 02:30:00 2 C 93 % 0.99 C
815 09-03-2014 02:35:00 1.9 C 94 % 1.04 C
816 09-03-2014 02:40:00 1.9 C 94 % 1.04 C
817 09-03-2014 02:45:00 1.9 C 94 % 1.04 C
818 09-03-2014 02:50:00 1.9 C 94 % 1.04 C
819 09-03-2014 02:55:00 1.9 C 94 % 1.04 C
820 09-03-2014 03:00:00 1.9 C 94 % 1.04 C
821 09-03-2014 03:05:00 1.8 C 94 % 0.94 C
822 09-03-2014 03:10:00 1.8 C 94 % 0.94 C
823 09-03-2014 03:15:00 1.8 C 94 % 0.94 C
824 09-03-2014 03:20:00 1.8 C 94 % 0.94 C
825 09-03-2014 03:25:00 1.7 C 94 % 0.84 C
Sensor: Nr:Datum:Temp:Feuchte:Taupunkt:
Aussen-T/F 826 09-03-2014 03:30:00 1.6 C 94 % 0.74 C
827 09-03-2014 03:35:00 1.6 C 94 % 0.74 C
828 09-03-2014 03:40:00 1.6 C 94 % 0.74 C
829 09-03-2014 03:45:00 1.5 C 94 % 0.64 C
830 09-03-2014 03:50:00 1.5 C 94 % 0.64 C
831 09-03-2014 03:55:00 1.4 C 94 % 0.54 C
832 09-03-2014 04:00:00 1.4 C 94 % 0.54 C
833 09-03-2014 04:05:00 1.3 C 94 % 0.44 C
834 09-03-2014 04:10:00 1.3 C 94 % 0.44 C
835 09-03-2014 04:15:00 1.3 C 94 % 0.44 C
836 09-03-2014 04:20:00 1.2 C 94 % 0.34 C
837 09-03-2014 04:25:00 1.2 C 95 % 0.49 C
838 09-03-2014 04:30:00 1.2 C 95 % 0.49 C
839 09-03-2014 04:35:00 1.1 C 95 % 0.39 C
840 09-03-2014 04:40:00 1.2 C 95 % 0.49 C
841 09-03-2014 04:45:00 1.2 C 95 % 0.49 C
842 09-03-2014 04:50:00 1.2 C 95 % 0.49 C
843 09-03-2014 04:55:00 1.2 C 95 % 0.49 C
844 09-03-2014 05:00:00 1.2 C 95 % 0.49 C
845 09-03-2014 05:05:00 1.1 C 95 % 0.39 C
846 09-03-2014 05:10:00 1.1 C 95 % 0.39 C
847 09-03-2014 05:15:00 1.1 C 95 % 0.39 C
848 09-03-2014 05:20:00 1 C 95 % 0.29 C
849 09-03-2014 05:25:00 0.9 C 95 % 0.19 C
850 09-03-2014 05:30:00 0.9 C 95 % 0.19 C
Sensor: Nr:Datum:Temp:Feuchte:Taupunkt:
Aussen-T/F 851 09-03-2014 05:35:00 0.8 C 95 % 0.09 C
852 09-03-2014 05:40:00 0.8 C 95 % 0.09 C
853 09-03-2014 05:45:00 0.7 C 95 % -0.01 C
854 09-03-2014 05:50:00 0.7 C 95 % -0.01 C
855 09-03-2014 05:55:00 0.6 C 95 % -0.11 C
856 09-03-2014 06:00:00 0.6 C 95 % -0.11 C
857 09-03-2014 06:05:00 0.5 C 95 % -0.21 C
858 09-03-2014 06:10:00 0.4 C 95 % -0.31 C
859 09-03-2014 06:15:00 0.4 C 95 % -0.31 C
860 09-03-2014 06:20:00 0.3 C 95 % -0.4 C
861 09-03-2014 06:25:00 0.3 C 95 % -0.4 C
862 09-03-2014 06:30:00 0.3 C 95 % -0.4 C
863 09-03-2014 06:35:00 0.2 C 95 % -0.5 C
864 09-03-2014 06:40:00 0.2 C 95 % -0.5 C
865 09-03-2014 06:45:00 0.1 C 95 % -0.6 C
866 09-03-2014 06:50:00 0.1 C 95 % -0.6 C
867 09-03-2014 06:55:00 0.1 C 96 % -0.46 C
868 09-03-2014 07:00:00 0.1 C 96 % -0.46 C
869 09-03-2014 07:05:00 0.1 C 96 % -0.46 C
870 09-03-2014 07:10:00 0.1 C 96 % -0.46 C
871 09-03-2014 07:15:00 0.1 C 96 % -0.46 C
872 09-03-2014 07:20:00 0.1 C 96 % -0.46 C
873 09-03-2014 07:25:00 0.1 C 96 % -0.46 C
874 09-03-2014 07:30:00 0.1 C 96 % -0.46 C
875 09-03-2014 07:35:00 0.1 C 96 % -0.46 C
Sensor: Nr:Datum:Temp:Feuchte:Taupunkt:
Aussen-T/F 876 09-03-2014 07:40:00 0.1 C 96 % -0.46 C
877 09-03-2014 07:45:00 0.1 C 96 % -0.46 C
878 09-03-2014 07:50:00 0.1 C 96 % -0.46 C
879 09-03-2014 07:55:00 0.1 C 96 % -0.46 C
880 09-03-2014 08:00:00 0.1 C 96 % -0.46 C
881 09-03-2014 08:05:00 0.1 C 96 % -0.46 C
882 09-03-2014 08:10:00 0.1 C 96 % -0.46 C
883 09-03-2014 08:15:00 0.2 C 96 % -0.36 C
884 09-03-2014 08:20:00 0.2 C 96 % -0.36 C
885 09-03-2014 08:25:00 0.2 C 96 % -0.36 C
886 09-03-2014 08:30:00 0.2 C 96 % -0.36 C
887 09-03-2014 08:35:00 0.2 C 96 % -0.36 C
888 09-03-2014 08:40:00 0.2 C 96 % -0.36 C
889 09-03-2014 08:45:00 0.2 C 96 % -0.36 C
890 09-03-2014 08:50:00 0.2 C 96 % -0.36 C
891 09-03-2014 08:55:00 0.2 C 96 % -0.36 C
892 09-03-2014 09:00:00 0.3 C 96 % -0.26 C
893 09-03-2014 09:05:00 0.4 C 96 % -0.16 C
894 09-03-2014 09:10:00 0.5 C 96 % -0.06 C
895 09-03-2014 09:15:00 0.6 C 97 % 0.18 C
896 09-03-2014 09:20:00 0.7 C 97 % 0.28 C
897 09-03-2014 09:25:00 0.8 C 97 % 0.38 C
898 09-03-2014 09:30:00 0.9 C 97 % 0.48 C
899 09-03-2014 09:35:00 1 C 97 % 0.58 C
900 09-03-2014 09:40:00 1.2 C 97 % 0.78 C
Sensor: Nr:Datum:Temp:Feuchte:Taupunkt:
Aussen-T/F 901 09-03-2014 09:45:00 1.4 C 97 % 0.98 C
902 09-03-2014 09:50:00 1.7 C 97 % 1.28 C
903 09-03-2014 09:55:00 2 C 97 % 1.58 C
904 09-03-2014 10:00:00 2.2 C 97 % 1.77 C
905 09-03-2014 10:05:00 2.5 C 97 % 2.07 C
906 09-03-2014 10:10:00 2.8 C 97 % 2.37 C
907 09-03-2014 10:15:00 2.8 C 97 % 2.37 C
908 09-03-2014 10:20:00 2.8 C 97 % 2.37 C
909 09-03-2014 10:40:00 4.2 C 96 % 3.62 C
910 09-03-2014 10:45:00 4.5 C 96 % 3.92 C
911 09-03-2014 10:50:00 4.8 C 95 % 4.07 C
912 09-03-2014 10:55:00 5.1 C 95 % 4.37 C
913 09-03-2014 11:00:00 5.4 C 94 % 4.51 C
914 09-03-2014 11:05:00 5.7 C 93 % 4.66 C
915 09-03-2014 11:10:00 6.1 C 92 % 4.9 C
916 09-03-2014 11:15:00 6.4 C 91 % 5.04 C
917 09-03-2014 11:20:00 6.7 C 91 % 5.34 C
918 09-03-2014 11:25:00 6.9 C 90 % 5.38 C
919 09-03-2014 11:30:00 7.3 C 89 % 5.61 C
920 09-03-2014 11:35:00 7.6 C 88 % 5.74 C
921 09-03-2014 11:40:00 7.9 C 87 % 5.87 C
922 09-03-2014 11:45:00 8.3 C 85 % 5.93 C
923 09-03-2014 11:50:00 8.8 C 81 % 5.72 C
924 09-03-2014 11:55:00 9.3 C 81 % 6.21 C
925 09-03-2014 12:00:00 9.7 C 80 % 6.42 C
Sensor: Nr:Datum:Temp:Feuchte:Taupunkt:
Aussen-T/F 926 09-03-2014 12:05:00 9.9 C 79 % 6.43 C
927 09-03-2014 12:10:00 10.2 C 78 % 6.54 C
928 09-03-2014 12:15:00 10.6 C 78 % 6.93 C
929 09-03-2014 12:20:00 11.1 C 78 % 7.41 C
930 09-03-2014 12:25:00 11.7 C 74 % 7.23 C
931 09-03-2014 12:30:00 12.1 C 73 % 7.41 C
932 09-03-2014 12:35:00 12.4 C 71 % 7.3 C
933 09-03-2014 12:40:00 12.7 C 70 % 7.38 C
934 09-03-2014 12:45:00 13.1 C 68 % 7.34 C
935 09-03-2014 12:50:00 13.3 C 67 % 7.31 C
936 09-03-2014 12:55:00 13.7 C 65 % 7.25 C
937 09-03-2014 13:00:00 14.1 C 66 % 7.85 C
938 09-03-2014 13:05:00 14.3 C 63 % 7.36 C
939 09-03-2014 13:10:00 14.8 C 48 % 3.91 C
940 09-03-2014 13:15:00 15.8 C 52 % 5.97 C
941 09-03-2014 13:20:00 16.7 C 40 % 3.05 C
942 09-03-2014 13:25:00 17.4 C 40 % 3.68 C
943 09-03-2014 13:30:00 18 C 37 % 3.11 C
944 09-03-2014 13:35:00 18.1 C 36 % 2.81 C
945 09-03-2014 13:40:00 18.2 C 32 % 1.25 C
946 09-03-2014 13:45:00 18.3 C 33 % 1.77 C
947 09-03-2014 13:50:00 18.4 C 33 % 1.86 C
948 09-03-2014 13:55:00 18.6 C 33 % 2.03 C
949 09-03-2014 14:00:00 18.6 C 35 % 2.86 C
950 09-03-2014 14:05:00 18.7 C 27 % -0.66 C
Sensor: Nr:Datum:Temp:Feuchte:Taupunkt:
Aussen-T/F 951 09-03-2014 14:10:00 18.8 C 32 % 1.78 C
952 09-03-2014 14:15:00 18.8 C 27 % -0.57 C
953 09-03-2014 14:20:00 18.9 C 35 % 3.12 C
954 09-03-2014 14:25:00 19.1 C 28 % 0.19 C
955 09-03-2014 14:30:00 19.3 C 30 % 1.31 C
956 09-03-2014 14:35:00 19.4 C 28 % 0.44 C
957 09-03-2014 14:40:00 19.6 C 31 % 2.03 C
958 09-03-2014 14:45:00 19.7 C 31 % 2.12 C
959 09-03-2014 14:50:00 19.7 C 32 % 2.56 C
960 09-03-2014 14:55:00 19.7 C 26 % -0.32 C
961 09-03-2014 15:00:00 19.8 C 25 % -0.77 C
962 09-03-2014 15:05:00 20 C 23 % -1.74 C
963 09-03-2014 15:10:00 20 C 23 % -1.74 C
964 09-03-2014 15:15:00 20.3 C 30 % 2.18 C
965 09-03-2014 15:20:00 20.1 C 22 % -2.25 C
966 09-03-2014 15:25:00 20.3 C 24 % -0.91 C
967 09-03-2014 15:30:00 20.4 C 32 % 3.17 C
968 09-03-2014 15:35:00 20.3 C 31 % 2.64 C
969 09-03-2014 15:40:00 20.5 C 26 % 0.36 C
970 09-03-2014 15:45:00 20.5 C 32 % 3.26 C
971 09-03-2014 15:50:00 20 C 28 % 0.96 C
972 09-03-2014 15:55:00 19.3 C 35 % 3.47 C
973 09-03-2014 16:00:00 18.4 C 40 % 4.57 C
974 09-03-2014 16:05:00 18.1 C 35 % 2.42 C
975 09-03-2014 16:10:00 18.1 C 38 % 3.57 C
Sensor: Nr:Datum:Temp:Feuchte:Taupunkt:
Aussen-T/F 976 09-03-2014 16:15:00 18 C 34 % 1.92 C
977 09-03-2014 16:20:00 18.2 C 34 % 2.1 C
978 09-03-2014 16:25:00 17.9 C 42 % 4.82 C
979 09-03-2014 16:30:00 17.1 C 45 % 5.08 C
980 09-03-2014 16:35:00 16.8 C 49 % 6.04 C
981 09-03-2014 16:40:00 16.5 C 48 % 5.46 C
982 09-03-2014 16:45:00 16.3 C 48 % 5.28 C
983 09-03-2014 16:50:00 16.2 C 49 % 5.49 C
984 09-03-2014 16:55:00 16.1 C 49 % 5.39 C
985 09-03-2014 17:00:00 16 C 51 % 5.88 C
986 09-03-2014 17:05:00 15.8 C 51 % 5.69 C
987 09-03-2014 17:10:00 15.7 C 51 % 5.6 C
988 09-03-2014 17:15:00 15.4 C 51 % 5.33 C
989 09-03-2014 17:20:00 15.3 C 52 % 5.51 C
990 09-03-2014 17:25:00 15.1 C 53 % 5.6 C
991 09-03-2014 17:30:00 15 C 53 % 5.51 C
992 09-03-2014 17:35:00 14.8 C 52 % 5.05 C
993 09-03-2014 17:40:00 14.8 C 53 % 5.32 C
994 09-03-2014 17:45:00 14.7 C 54 % 5.5 C
995 09-03-2014 17:50:00 14.4 C 55 % 5.49 C
996 09-03-2014 17:55:00 14.2 C 55 % 5.3 C
997 09-03-2014 18:00:00 14 C 56 % 5.37 C
998 09-03-2014 18:05:00 13.7 C 56 % 5.09 C
999 09-03-2014 18:10:00 13.5 C 57 % 5.16 C
1000 09-03-2014 18:15:00 13.1 C 58 % 5.03 C
Sensor: Nr:Datum:Temp:Feuchte:Taupunkt:
Aussen-T/F 1001 09-03-2014 18:20:00 12.9 C 58 % 4.85 C
1002 09-03-2014 18:25:00 12.6 C 59 % 4.81 C
1003 09-03-2014 18:30:00 12.3 C 60 % 4.77 C
1004 09-03-2014 18:35:00 12.2 C 60 % 4.67 C
1005 09-03-2014 18:40:00 12 C 60 % 4.49 C
1006 09-03-2014 18:45:00 11.8 C 61 % 4.53 C
1007 09-03-2014 18:50:00 11.6 C 61 % 4.35 C
1008 09-03-2014 18:55:00 11.4 C 63 % 4.62 C
1009 09-03-2014 19:00:00 11.2 C 63 % 4.43 C
1010 09-03-2014 19:05:00 11.2 C 63 % 4.43 C
1011 09-03-2014 19:10:00 11.1 C 64 % 4.56 C
1012 09-03-2014 19:15:00 10.9 C 64 % 4.37 C
1013 09-03-2014 19:20:00 10.8 C 66 % 4.71 C
1014 09-03-2014 19:25:00 10.7 C 66 % 4.62 C
1015 09-03-2014 19:30:00 10.4 C 68 % 4.76 C
1016 09-03-2014 19:35:00 10.1 C 69 % 4.68 C
1017 09-03-2014 19:40:00 9.9 C 71 % 4.9 C
1018 09-03-2014 19:45:00 9.7 C 71 % 4.7 C
1019 09-03-2014 19:50:00 9.5 C 73 % 4.91 C
1020 09-03-2014 19:55:00 9.3 C 73 % 4.72 C
1021 09-03-2014 20:00:00 9.2 C 73 % 4.62 C
1022 09-03-2014 20:05:00 9.2 C 73 % 4.62 C
1023 09-03-2014 20:10:00 9.1 C 74 % 4.72 C
1024 09-03-2014 20:15:00 8.8 C 75 % 4.62 C
1025 09-03-2014 20:20:00 8.8 C 75 % 4.62 C
Sensor: Nr:Datum:Temp:Feuchte:Taupunkt:
Aussen-T/F 1026 09-03-2014 20:25:00 8.7 C 75 % 4.52 C
1027 09-03-2014 20:30:00 8.6 C 76 % 4.62 C
1028 09-03-2014 20:35:00 8.4 C 76 % 4.42 C
1029 09-03-2014 20:40:00 8.4 C 75 % 4.23 C
1030 09-03-2014 20:45:00 8.2 C 76 % 4.23 C
1031 09-03-2014 20:50:00 8.1 C 77 % 4.32 C
1032 09-03-2014 20:55:00 7.9 C 78 % 4.31 C
1033 09-03-2014 21:00:00 7.9 C 78 % 4.31 C
1034 09-03-2014 21:05:00 7.8 C 77 % 4.03 C
1035 09-03-2014 21:10:00 7.8 C 76 % 3.84 C
1036 09-03-2014 21:15:00 7.7 C 75 % 3.56 C
1037 09-03-2014 21:20:00 7.6 C 75 % 3.46 C
1038 09-03-2014 21:25:00 7.4 C 75 % 3.27 C
1039 09-03-2014 21:30:00 7.3 C 76 % 3.36 C
1040 09-03-2014 21:35:00 7.1 C 77 % 3.35 C
1041 09-03-2014 21:40:00 7 C 77 % 3.25 C
1042 09-03-2014 21:45:00 6.8 C 79 % 3.42 C
1043 09-03-2014 21:50:00 6.6 C 80 % 3.4 C
1044 09-03-2014 21:55:00 6.5 C 80 % 3.31 C
1045 09-03-2014 22:00:00 6.5 C 79 % 3.13 C
1046 09-03-2014 22:05:00 6.6 C 79 % 3.23 C
1047 09-03-2014 22:10:00 6.6 C 80 % 3.4 C
1048 09-03-2014 22:15:00 6.4 C 79 % 3.03 C
1049 09-03-2014 22:20:00 6.3 C 79 % 2.93 C
1050 09-03-2014 22:25:00 6 C 79 % 2.64 C
Sensor: Nr:Datum:Temp:Feuchte:Taupunkt:
Aussen-T/F 1051 09-03-2014 22:30:00 5.8 C 79 % 2.45 C
1052 09-03-2014 22:35:00 5.6 C 79 % 2.25 C
1053 09-03-2014 22:40:00 5.4 C 81 % 2.41 C
1054 09-03-2014 22:45:00 5.3 C 82 % 2.48 C
1055 09-03-2014 22:50:00 5.2 C 82 % 2.39 C
1056 09-03-2014 22:55:00 5 C 82 % 2.19 C
1057 09-03-2014 23:00:00 4.8 C 82 % 1.99 C
1058 09-03-2014 23:05:00 4.8 C 83 % 2.16 C
1059 09-03-2014 23:10:00 4.7 C 83 % 2.07 C
1060 09-03-2014 23:15:00 4.7 C 84 % 2.23 C
1061 09-03-2014 23:20:00 4.7 C 84 % 2.23 C
1062 09-03-2014 23:25:00 4.5 C 84 % 2.04 C
1063 09-03-2014 23:30:00 4.4 C 85 % 2.11 C
1064 09-03-2014 23:35:00 4.3 C 85 % 2.01 C
1065 09-03-2014 23:40:00 4.3 C 85 % 2.01 C
1066 09-03-2014 23:45:00 4.3 C 85 % 2.01 C
1067 09-03-2014 23:50:00 4.3 C 85 % 2.01 C
1068 09-03-2014 23:55:00 4.3 C 86 % 2.17 C
1069 10-03-2014 00:00:00 4.3 C 86 % 2.17 C
1070 10-03-2014 00:05:00 4.2 C 85 % 1.91 C
1071 10-03-2014 00:10:00 4.1 C 85 % 1.81 C
1072 10-03-2014 00:15:00 4 C 85 % 1.71 C
1073 10-03-2014 00:20:00 3.9 C 85 % 1.61 C
1074 10-03-2014 00:25:00 3.8 C 85 % 1.52 C
1075 10-03-2014 00:30:00 3.7 C 86 % 1.58 C
Sensor: Nr:Datum:Temp:Feuchte:Taupunkt:
Aussen-T/F 1076 10-03-2014 00:35:00 3.5 C 86 % 1.38 C
1077 10-03-2014 00:40:00 3.3 C 86 % 1.19 C
1078 10-03-2014 00:45:00 3.3 C 87 % 1.35 C
1079 10-03-2014 00:50:00 3.2 C 87 % 1.25 C
1080 10-03-2014 00:55:00 3.2 C 88 % 1.41 C
1081 10-03-2014 01:00:00 3.1 C 88 % 1.31 C
1082 10-03-2014 01:05:00 2.9 C 88 % 1.11 C
1083 10-03-2014 01:10:00 2.9 C 89 % 1.27 C
1084 10-03-2014 01:15:00 2.9 C 89 % 1.27 C
1085 10-03-2014 01:20:00 2.8 C 89 % 1.17 C
1086 10-03-2014 01:25:00 2.8 C 89 % 1.17 C
1087 10-03-2014 01:30:00 2.7 C 89 % 1.07 C
1088 10-03-2014 01:35:00 2.7 C 89 % 1.07 C
1089 10-03-2014 01:40:00 2.7 C 89 % 1.07 C
1090 10-03-2014 01:45:00 2.6 C 89 % 0.97 C
1091 10-03-2014 01:50:00 2.6 C 89 % 0.97 C
1092 10-03-2014 01:55:00 2.6 C 90 % 1.13 C
1093 10-03-2014 02:00:00 2.4 C 90 % 0.93 C
1094 10-03-2014 02:05:00 2.4 C 90 % 0.93 C
1095 10-03-2014 02:10:00 2.3 C 90 % 0.83 C
1096 10-03-2014 02:15:00 2.2 C 90 % 0.73 C
1097 10-03-2014 02:20:00 2.2 C 90 % 0.73 C
1098 10-03-2014 02:25:00 2.1 C 90 % 0.64 C
1099 10-03-2014 02:30:00 2.1 C 91 % 0.79 C
1100 10-03-2014 02:35:00 2.1 C 91 % 0.79 C
Sensor: Nr:Datum:Temp:Feuchte:Taupunkt:
Aussen-T/F 1101 10-03-2014 02:40:00 2.1 C 91 % 0.79 C
1102 10-03-2014 02:45:00 2.1 C 91 % 0.79 C
1103 10-03-2014 02:50:00 2.1 C 91 % 0.79 C
1104 10-03-2014 02:55:00 2.1 C 91 % 0.79 C
1105 10-03-2014 03:00:00 1.9 C 91 % 0.59 C
1106 10-03-2014 03:05:00 1.9 C 91 % 0.59 C
1107 10-03-2014 03:10:00 1.9 C 92 % 0.74 C
1108 10-03-2014 03:15:00 1.9 C 91 % 0.59 C
1109 10-03-2014 03:20:00 1.8 C 91 % 0.49 C
1110 10-03-2014 03:25:00 1.8 C 92 % 0.64 C
1111 10-03-2014 03:30:00 1.8 C 92 % 0.64 C
1112 10-03-2014 03:35:00 1.7 C 92 % 0.54 C
1113 10-03-2014 03:40:00 1.7 C 92 % 0.54 C
1114 10-03-2014 03:45:00 1.7 C 92 % 0.54 C
1115 10-03-2014 03:50:00 1.6 C 92 % 0.44 C
1116 10-03-2014 03:55:00 1.6 C 92 % 0.44 C
1117 10-03-2014 04:00:00 1.6 C 92 % 0.44 C
1118 10-03-2014 04:05:00 1.4 C 92 % 0.25 C
1119 10-03-2014 04:10:00 1.4 C 92 % 0.25 C
1120 10-03-2014 04:15:00 1.3 C 92 % 0.15 C
1121 10-03-2014 04:20:00 1.3 C 92 % 0.15 C
1122 10-03-2014 04:25:00 1.2 C 92 % 0.05 C
1123 10-03-2014 04:30:00 1.2 C 92 % 0.05 C
1124 10-03-2014 04:35:00 1.2 C 93 % 0.2 C
1125 10-03-2014 04:40:00 1.3 C 93 % 0.3 C
Sensor: Nr:Datum:Temp:Feuchte:Taupunkt:
Aussen-T/F 1126 10-03-2014 04:45:00 1.4 C 94 % 0.54 C
1127 10-03-2014 04:50:00 1.4 C 93 % 0.4 C
1128 10-03-2014 04:55:00 1.4 C 93 % 0.4 C
1129 10-03-2014 05:00:00 1.4 C 93 % 0.4 C
1130 10-03-2014 05:05:00 1.4 C 93 % 0.4 C
1131 10-03-2014 05:10:00 1.3 C 93 % 0.3 C
1132 10-03-2014 05:15:00 1.3 C 93 % 0.3 C
1133 10-03-2014 05:20:00 1.3 C 93 % 0.3 C
1134 10-03-2014 05:25:00 1.3 C 93 % 0.3 C
1135 10-03-2014 05:30:00 1.2 C 93 % 0.2 C
1136 10-03-2014 05:35:00 1.1 C 93 % 0.1 C
1137 10-03-2014 05:40:00 1 C 93 % 0 C
1138 10-03-2014 05:45:00 1 C 93 % 0 C
1139 10-03-2014 05:50:00 1 C 93 % 0 C
1140 10-03-2014 05:55:00 0.9 C 93 % -0.1 C
1141 10-03-2014 06:00:00 1 C 94 % 0.15 C
1142 10-03-2014 06:05:00 1.1 C 94 % 0.24 C
1143 10-03-2014 06:10:00 1.1 C 94 % 0.24 C
1144 10-03-2014 06:15:00 1.1 C 94 % 0.24 C
1145 10-03-2014 06:20:00 1.1 C 94 % 0.24 C
1146 10-03-2014 06:25:00 1 C 94 % 0.15 C
1147 10-03-2014 06:30:00 0.9 C 94 % 0.05 C
1148 10-03-2014 06:35:00 0.8 C 94 % -0.05 C
1149 10-03-2014 06:40:00 0.8 C 93 % -0.2 C
1150 10-03-2014 06:45:00 0.7 C 93 % -0.3 C
Sensor: Nr:Datum:Temp:Feuchte:Taupunkt:
Aussen-T/F 1151 10-03-2014 06:50:00 0.7 C 94 % -0.15 C
1152 10-03-2014 06:55:00 0.7 C 94 % -0.15 C
1153 10-03-2014 07:00:00 0.7 C 94 % -0.15 C
1154 10-03-2014 07:05:00 0.6 C 94 % -0.25 C
1155 10-03-2014 07:10:00 0.6 C 94 % -0.25 C
1156 10-03-2014 07:15:00 0.6 C 94 % -0.25 C
1157 10-03-2014 07:20:00 0.6 C 94 % -0.25 C
1158 10-03-2014 07:25:00 0.5 C 94 % -0.35 C
1159 10-03-2014 07:30:00 0.6 C 94 % -0.25 C
1160 10-03-2014 07:35:00 0.6 C 94 % -0.25 C
1161 10-03-2014 07:40:00 0.6 C 95 % -0.11 C
1162 10-03-2014 07:45:00 0.6 C 95 % -0.11 C
1163 10-03-2014 07:50:00 0.7 C 95 % -0.01 C
1164 10-03-2014 07:55:00 0.7 C 95 % -0.01 C
1165 10-03-2014 08:00:00 0.7 C 95 % -0.01 C
1166 10-03-2014 08:05:00 0.7 C 95 % -0.01 C
1167 10-03-2014 08:10:00 0.7 C 95 % -0.01 C
1168 10-03-2014 08:15:00 0.8 C 95 % 0.09 C
1169 10-03-2014 08:20:00 0.9 C 95 % 0.19 C
1170 10-03-2014 08:25:00 0.9 C 95 % 0.19 C
1171 10-03-2014 08:30:00 0.9 C 95 % 0.19 C
1172 10-03-2014 08:35:00 1.1 C 95 % 0.39 C
1173 10-03-2014 08:40:00 1.2 C 95 % 0.49 C
1174 10-03-2014 08:45:00 1.2 C 95 % 0.49 C
1175 10-03-2014 08:50:00 1.3 C 95 % 0.59 C
Sensor: Nr:Datum:Temp:Feuchte:Taupunkt:
Aussen-T/F 1176 10-03-2014 08:55:00 1.3 C 95 % 0.59 C
1177 10-03-2014 09:00:00 1.6 C 95 % 0.89 C
1178 10-03-2014 09:05:00 1.7 C 95 % 0.99 C
1179 10-03-2014 09:10:00 1.7 C 95 % 0.99 C
1180 10-03-2014 09:15:00 1.8 C 95 % 1.09 C
1181 10-03-2014 09:20:00 1.9 C 95 % 1.19 C
1182 10-03-2014 09:25:00 2.2 C 95 % 1.48 C
1183 10-03-2014 09:30:00 2.3 C 95 % 1.58 C
1184 10-03-2014 09:35:00 2.4 C 95 % 1.68 C
1185 10-03-2014 09:40:00 2.8 C 95 % 2.08 C
1186 10-03-2014 09:45:00 3.3 C 94 % 2.43 C
1187 10-03-2014 09:50:00 3.7 C 93 % 2.68 C
1188 10-03-2014 09:55:00 3.9 C 93 % 2.87 C
1189 10-03-2014 10:00:00 4.2 C 92 % 3.02 C
1190 10-03-2014 10:05:00 4.3 C 91 % 2.96 C
1191 10-03-2014 10:10:00 4.5 C 91 % 3.16 C
1192 10-03-2014 10:15:00 4.8 C 91 % 3.46 C
1193 10-03-2014 10:20:00 5 C 90 % 3.5 C
1194 10-03-2014 10:25:00 5.1 C 90 % 3.6 C
1195 10-03-2014 10:30:00 5.2 C 90 % 3.7 C
1196 10-03-2014 10:35:00 5.4 C 90 % 3.89 C
1197 10-03-2014 10:40:00 5.6 C 90 % 4.09 C
1198 10-03-2014 10:45:00 5.8 C 90 % 4.29 C
1199 10-03-2014 10:50:00 5.9 C 89 % 4.23 C
1200 10-03-2014 10:55:00 6.2 C 89 % 4.53 C
Sensor: Nr:Datum:Temp:Feuchte:Taupunkt:
Aussen-T/F 1201 10-03-2014 11:00:00 6.4 C 88 % 4.56 C
1202 10-03-2014 11:05:00 6.6 C 88 % 4.76 C
1203 10-03-2014 11:10:00 6.8 C 88 % 4.96 C
1204 10-03-2014 11:15:00 7.1 C 87 % 5.09 C
1205 10-03-2014 11:20:00 7.4 C 86 % 5.22 C
1206 10-03-2014 11:25:00 7.8 C 86 % 5.61 C
1207 10-03-2014 11:30:00 8.1 C 84 % 5.56 C
1208 10-03-2014 11:35:00 8.5 C 83 % 5.78 C
1209 10-03-2014 11:40:00 8.8 C 83 % 6.08 C
1210 10-03-2014 11:45:00 9.2 C 82 % 6.29 C
1211 10-03-2014 11:50:00 9.6 C 80 % 6.32 C
1212 10-03-2014 11:55:00 10.1 C 79 % 6.63 C
1213 10-03-2014 12:00:00 10.4 C 78 % 6.74 C
1214 10-03-2014 12:05:00 10.7 C 78 % 7.03 C
1215 10-03-2014 12:10:00 11.1 C 76 % 7.04 C
1216 10-03-2014 12:15:00 11.6 C 72 % 6.73 C
1217 10-03-2014 12:20:00 12.1 C 71 % 7.01 C
1218 10-03-2014 12:25:00 12.7 C 67 % 6.74 C
1219 10-03-2014 12:30:00 13.4 C 64 % 6.74 C
1220 10-03-2014 12:35:00 14 C 60 % 6.37 C
1221 10-03-2014 12:40:00 14.8 C 60 % 7.12 C
1222 10-03-2014 12:45:00 15.4 C 58 % 7.19 C
1223 10-03-2014 12:50:00 15.9 C 54 % 6.61 C
1224 10-03-2014 12:55:00 16.3 C 51 % 6.16 C
1225 10-03-2014 13:00:00 16.7 C 54 % 7.36 C
Sensor: Nr:Datum:Temp:Feuchte:Taupunkt:
Aussen-T/F 1226 10-03-2014 13:05:00 17 C 48 % 5.92 C
1227 10-03-2014 13:10:00 17.2 C 50 % 6.7 C
1228 10-03-2014 13:15:00 17.2 C 44 % 4.85 C
1229 10-03-2014 13:20:00 17.1 C 45 % 5.08 C
1230 10-03-2014 13:25:00 17 C 52 % 7.08 C
1231 10-03-2014 13:30:00 17.1 C 44 % 4.76 C
1232 10-03-2014 13:35:00 17.1 C 48 % 6.01 C
1233 10-03-2014 13:40:00 17 C 44 % 4.67 C
1234 10-03-2014 13:45:00 16.9 C 47 % 5.53 C
1235 10-03-2014 13:50:00 16.8 C 44 % 4.49 C
1236 10-03-2014 13:55:00 16.8 C 49 % 6.04 C
1237 10-03-2014 14:00:00 16.8 C 42 % 3.83 C
1238 10-03-2014 14:05:00 16.8 C 45 % 4.81 C
1239 10-03-2014 14:10:00 16.9 C 48 % 5.83 C
1240 10-03-2014 14:15:00 17.1 C 45 % 5.08 C
1241 10-03-2014 14:20:00 17.2 C 43 % 4.53 C
1242 10-03-2014 14:25:00 17.3 C 46 % 5.58 C
1243 10-03-2014 14:30:00 17.4 C 42 % 4.37 C
1244 10-03-2014 14:35:00 17.4 C 46 % 5.67 C
1245 10-03-2014 14:40:00 17.3 C 44 % 4.94 C
1246 10-03-2014 14:45:00 17.4 C 48 % 6.29 C
1247 10-03-2014 14:50:00 17.2 C 46 % 5.49 C
1248 10-03-2014 14:55:00 17 C 46 % 5.31 C
1249 10-03-2014 15:00:00 17.1 C 40 % 3.41 C
1250 10-03-2014 15:05:00 17.5 C 44 % 5.13 C
Sensor: Nr:Datum:Temp:Feuchte:Taupunkt:
Aussen-T/F 1251 10-03-2014 15:10:00 17.8 C 40 % 4.03 C
1252 10-03-2014 15:15:00 18 C 45 % 5.9 C
1253 10-03-2014 15:20:00 17.8 C 40 % 4.03 C
1254 10-03-2014 15:25:00 17.9 C 46 % 6.13 C
1255 10-03-2014 15:30:00 17.8 C 47 % 6.35 C
1256 10-03-2014 15:35:00 18.1 C 44 % 5.67 C
1257 10-03-2014 15:40:00 18.4 C 40 % 4.57 C
1258 10-03-2014 15:45:00 18.2 C 45 % 6.08 C
1259 10-03-2014 15:50:00 17.7 C 46 % 5.95 C
1260 10-03-2014 15:55:00 17.6 C 39 % 3.5 C
1261 10-03-2014 16:00:00 17.5 C 43 % 4.8 C
1262 10-03-2014 16:05:00 17.4 C 36 % 2.19 C
1263 10-03-2014 16:10:00 17.3 C 47 % 5.89 C
1264 10-03-2014 16:15:00 16.7 C 47 % 5.34 C
1265 10-03-2014 16:20:00 16.3 C 48 % 5.28 C
1266 10-03-2014 16:25:00 16 C 49 % 5.3 C
1267 10-03-2014 16:30:00 15.8 C 52 % 5.97 C
1268 10-03-2014 16:35:00 15.6 C 48 % 4.64 C
1269 10-03-2014 16:40:00 15.6 C 51 % 5.51 C
1270 10-03-2014 16:45:00 15.4 C 52 % 5.61 C
1271 10-03-2014 16:50:00 15.3 C 53 % 5.79 C
1272 10-03-2014 16:55:00 15.3 C 50 % 4.95 C
1273 10-03-2014 17:00:00 15.1 C 52 % 5.33 C
1274 10-03-2014 17:05:00 15.1 C 50 % 4.77 C
1275 10-03-2014 17:10:00 15.2 C 52 % 5.42 C
Sensor: Nr:Datum:Temp:Feuchte:Taupunkt:
Aussen-T/F 1276 10-03-2014 17:15:00 15.1 C 55 % 6.14 C
1277 10-03-2014 17:20:00 14.8 C 55 % 5.86 C
1278 10-03-2014 17:25:00 14.7 C 55 % 5.76 C
1279 10-03-2014 17:30:00 14.5 C 53 % 5.05 C
1280 10-03-2014 17:35:00 14.4 C 54 % 5.22 C
1281 10-03-2014 17:40:00 14.2 C 54 % 5.04 C
1282 10-03-2014 17:45:00 14.1 C 54 % 4.94 C
1283 10-03-2014 17:50:00 13.8 C 54 % 4.66 C
1284 10-03-2014 17:55:00 13.7 C 55 % 4.83 C
1285 10-03-2014 18:00:00 13.4 C 55 % 4.55 C
1286 10-03-2014 18:05:00 13.2 C 55 % 4.37 C
1287 10-03-2014 18:10:00 13 C 55 % 4.18 C
1288 10-03-2014 18:15:00 12.8 C 56 % 4.25 C
1289 10-03-2014 18:20:00 12.6 C 57 % 4.32 C
1290 10-03-2014 18:25:00 12.3 C 57 % 4.04 C
1291 10-03-2014 18:30:00 12.2 C 57 % 3.94 C
1292 10-03-2014 18:35:00 12.1 C 58 % 4.1 C
1293 10-03-2014 18:40:00 12 C 58 % 4 C
1294 10-03-2014 18:45:00 11.8 C 58 % 3.82 C
1295 10-03-2014 18:50:00 11.7 C 58 % 3.72 C
1296 10-03-2014 18:55:00 11.6 C 59 % 3.87 C
1297 10-03-2014 19:00:00 11.5 C 59 % 3.78 C
1298 10-03-2014 19:05:00 11.3 C 62 % 4.29 C
1299 10-03-2014 19:10:00 10.8 C 64 % 4.27 C
1300 10-03-2014 19:15:00 10.8 C 62 % 3.82 C
Sensor: Nr:Datum:Temp:Feuchte:Taupunkt:
Aussen-T/F 1301 10-03-2014 19:20:00 10.8 C 62 % 3.82 C
1302 10-03-2014 19:25:00 10.5 C 66 % 4.43 C
1303 10-03-2014 19:30:00 10.2 C 67 % 4.36 C
1304 10-03-2014 19:35:00 10.1 C 66 % 4.05 C
1305 10-03-2014 19:40:00 10.2 C 64 % 3.7 C
1306 10-03-2014 19:45:00 10 C 65 % 3.73 C
1307 10-03-2014 19:50:00 9.8 C 66 % 3.76 C
1308 10-03-2014 19:55:00 9.6 C 66 % 3.57 C
1309 10-03-2014 20:00:00 9.4 C 67 % 3.59 C
1310 10-03-2014 20:05:00 9.2 C 67 % 3.4 C
1311 10-03-2014 20:10:00 9.2 C 67 % 3.4 C
1312 10-03-2014 20:15:00 9.1 C 68 % 3.52 C
1313 10-03-2014 20:20:00 8.9 C 67 % 3.12 C
1314 10-03-2014 20:25:00 8.9 C 69 % 3.53 C
1315 10-03-2014 20:30:00 8.8 C 70 % 3.64 C
1316 10-03-2014 20:35:00 8.7 C 69 % 3.34 C
1317 10-03-2014 20:40:00 8.5 C 71 % 3.55 C
1318 10-03-2014 20:45:00 8.4 C 71 % 3.46 C
1319 10-03-2014 20:50:00 8.3 C 71 % 3.36 C
1320 10-03-2014 20:55:00 8.2 C 71 % 3.26 C
1321 10-03-2014 21:00:00 8.2 C 70 % 3.06 C
1322 10-03-2014 21:05:00 8.2 C 71 % 3.26 C
1323 10-03-2014 21:10:00 8 C 70 % 2.87 C
1324 10-03-2014 21:15:00 7.8 C 70 % 2.68 C
1325 10-03-2014 21:20:00 7.7 C 71 % 2.78 C
Sensor: Nr:Datum:Temp:Feuchte:Taupunkt:
Aussen-T/F 1326 10-03-2014 21:25:00 7.6 C 71 % 2.69 C
1327 10-03-2014 21:30:00 7.6 C 71 % 2.69 C
1328 10-03-2014 21:35:00 7.5 C 69 % 2.19 C
1329 10-03-2014 21:40:00 7.4 C 71 % 2.5 C
1330 10-03-2014 21:45:00 7.3 C 73 % 2.79 C
1331 10-03-2014 21:50:00 7.1 C 75 % 2.98 C
1332 10-03-2014 21:55:00 7 C 75 % 2.88 C
1333 10-03-2014 22:00:00 6.9 C 73 % 2.4 C
1334 10-03-2014 22:05:00 6.9 C 73 % 2.4 C
1335 10-03-2014 22:10:00 6.9 C 74 % 2.6 C
1336 10-03-2014 22:15:00 6.9 C 74 % 2.6 C
1337 10-03-2014 22:20:00 6.8 C 74 % 2.5 C
1338 10-03-2014 22:25:00 6.8 C 75 % 2.69 C
1339 10-03-2014 22:30:00 6.7 C 75 % 2.59 C
1340 10-03-2014 22:35:00 6.6 C 75 % 2.49 C
1341 10-03-2014 22:40:00 6.4 C 76 % 2.49 C
1342 10-03-2014 22:45:00 6.3 C 77 % 2.57 C
1343 10-03-2014 22:50:00 6.3 C 77 % 2.57 C
1344 10-03-2014 22:55:00 6.3 C 76 % 2.39 C
1345 10-03-2014 23:00:00 6.2 C 76 % 2.29 C
1346 10-03-2014 23:05:00 6.2 C 76 % 2.29 C
1347 10-03-2014 23:10:00 6.2 C 76 % 2.29 C
1348 10-03-2014 23:15:00 6.1 C 76 % 2.2 C
1349 10-03-2014 23:20:00 6 C 77 % 2.28 C
1350 10-03-2014 23:25:00 5.9 C 77 % 2.19 C
Sensor: Nr:Datum:Temp:Feuchte:Taupunkt:
Aussen-T/F 1351 10-03-2014 23:30:00 5.8 C 78 % 2.27 C
1352 10-03-2014 23:35:00 5.6 C 78 % 2.07 C
1353 10-03-2014 23:40:00 5.4 C 79 % 2.06 C
1354 10-03-2014 23:45:00 5.3 C 80 % 2.14 C
1355 10-03-2014 23:50:00 5.1 C 80 % 1.94 C
1356 10-03-2014 23:55:00 4.8 C 82 % 1.99 C
1357 11-03-2014 00:00:00 4.8 C 83 % 2.16 C
1358 11-03-2014 00:05:00 4.8 C 84 % 2.33 C
1359 11-03-2014 00:10:00 4.9 C 83 % 2.26 C
1360 11-03-2014 00:15:00 4.9 C 83 % 2.26 C
1361 11-03-2014 00:20:00 4.8 C 83 % 2.16 C
1362 11-03-2014 00:25:00 4.8 C 83 % 2.16 C
1363 11-03-2014 00:30:00 4.8 C 83 % 2.16 C
1364 11-03-2014 00:35:00 4.7 C 83 % 2.07 C
1365 11-03-2014 00:40:00 4.6 C 84 % 2.14 C
1366 11-03-2014 00:45:00 4.6 C 83 % 1.97 C
1367 11-03-2014 00:50:00 4.6 C 83 % 1.97 C
1368 11-03-2014 00:55:00 4.6 C 83 % 1.97 C
1369 11-03-2014 01:00:00 4.5 C 83 % 1.87 C
1370 11-03-2014 01:05:00 4.3 C 83 % 1.67 C
1371 11-03-2014 01:10:00 4.2 C 85 % 1.91 C
1372 11-03-2014 01:15:00 4.1 C 85 % 1.81 C
1373 11-03-2014 01:20:00 3.9 C 85 % 1.61 C
1374 11-03-2014 01:25:00 3.8 C 85 % 1.52 C
1375 11-03-2014 01:30:00 3.8 C 85 % 1.52 C
Sensor: Nr:Datum:Temp:Feuchte:Taupunkt:
Aussen-T/F 1376 11-03-2014 01:35:00 3.7 C 86 % 1.58 C
1377 11-03-2014 01:40:00 3.7 C 87 % 1.74 C
1378 11-03-2014 01:45:00 3.8 C 88 % 2 C
1379 11-03-2014 01:50:00 3.9 C 87 % 1.94 C
1380 11-03-2014 01:55:00 3.9 C 86 % 1.78 C
1381 11-03-2014 02:00:00 3.9 C 86 % 1.78 C
1382 11-03-2014 02:05:00 3.9 C 85 % 1.61 C
1383 11-03-2014 02:10:00 3.8 C 86 % 1.68 C
1384 11-03-2014 02:15:00 3.6 C 86 % 1.48 C
1385 11-03-2014 02:20:00 3.5 C 87 % 1.55 C
1386 11-03-2014 02:25:00 3.5 C 88 % 1.7 C
1387 11-03-2014 02:30:00 3.6 C 89 % 1.96 C
1388 11-03-2014 02:35:00 3.6 C 89 % 1.96 C
1389 11-03-2014 02:40:00 3.6 C 88 % 1.8 C
1390 11-03-2014 02:45:00 3.6 C 88 % 1.8 C
1391 11-03-2014 02:50:00 3.6 C 88 % 1.8 C
1392 11-03-2014 02:55:00 3.6 C 89 % 1.96 C
1393 11-03-2014 03:00:00 3.6 C 89 % 1.96 C
1394 11-03-2014 03:05:00 3.6 C 89 % 1.96 C
1395 11-03-2014 03:10:00 3.6 C 89 % 1.96 C
1396 11-03-2014 03:15:00 3.5 C 89 % 1.86 C
1397 11-03-2014 03:20:00 3.4 C 89 % 1.76 C
1398 11-03-2014 03:25:00 3.4 C 88 % 1.61 C
1399 11-03-2014 03:30:00 3.3 C 88 % 1.51 C
1400 11-03-2014 03:35:00 3.3 C 89 % 1.67 C
Sensor: Nr:Datum:Temp:Feuchte:Taupunkt:
Aussen-T/F 1401 11-03-2014 03:40:00 3.3 C 89 % 1.67 C
1402 11-03-2014 03:45:00 3.3 C 89 % 1.67 C
1403 11-03-2014 03:50:00 3.3 C 89 % 1.67 C
1404 11-03-2014 03:55:00 3.3 C 90 % 1.82 C
1405 11-03-2014 04:00:00 3.3 C 89 % 1.67 C
1406 11-03-2014 04:05:00 3.3 C 89 % 1.67 C
1407 11-03-2014 04:10:00 3.3 C 90 % 1.82 C
1408 11-03-2014 04:15:00 3.2 C 89 % 1.57 C
1409 11-03-2014 04:20:00 3.2 C 89 % 1.57 C
1410 11-03-2014 04:25:00 3.1 C 90 % 1.62 C
1411 11-03-2014 04:30:00 3.1 C 90 % 1.62 C
1412 11-03-2014 04:35:00 3.1 C 90 % 1.62 C
1413 11-03-2014 04:40:00 2.9 C 89 % 1.27 C
1414 11-03-2014 04:45:00 2.9 C 90 % 1.43 C
1415 11-03-2014 04:50:00 3 C 90 % 1.52 C
1416 11-03-2014 04:55:00 3.1 C 90 % 1.62 C
1417 11-03-2014 05:00:00 3.1 C 90 % 1.62 C
1418 11-03-2014 05:05:00 3.2 C 90 % 1.72 C
1419 11-03-2014 05:10:00 3.3 C 90 % 1.82 C
1420 11-03-2014 05:15:00 3.4 C 90 % 1.92 C
1421 11-03-2014 05:20:00 3.4 C 89 % 1.76 C
1422 11-03-2014 05:25:00 3.3 C 89 % 1.67 C
1423 11-03-2014 05:30:00 3.2 C 89 % 1.57 C
1424 11-03-2014 05:35:00 3.1 C 89 % 1.47 C
1425 11-03-2014 05:40:00 2.9 C 89 % 1.27 C
Sensor: Nr:Datum:Temp:Feuchte:Taupunkt:
Aussen-T/F 1426 11-03-2014 05:45:00 2.7 C 89 % 1.07 C
1427 11-03-2014 05:50:00 2.6 C 90 % 1.13 C
1428 11-03-2014 05:55:00 2.6 C 90 % 1.13 C
1429 11-03-2014 06:00:00 2.6 C 91 % 1.28 C
1430 11-03-2014 06:05:00 2.5 C 90 % 1.03 C
1431 11-03-2014 06:10:00 2.4 C 90 % 0.93 C
1432 11-03-2014 06:15:00 2.3 C 91 % 0.99 C
1433 11-03-2014 06:20:00 2.3 C 92 % 1.14 C
1434 11-03-2014 06:25:00 2.4 C 92 % 1.24 C
1435 11-03-2014 06:30:00 2.3 C 92 % 1.14 C
1436 11-03-2014 06:35:00 2.3 C 92 % 1.14 C
1437 11-03-2014 06:40:00 2.3 C 92 % 1.14 C
1438 11-03-2014 06:45:00 2.3 C 92 % 1.14 C
1439 11-03-2014 06:50:00 2.2 C 91 % 0.89 C
1440 11-03-2014 06:55:00 2.2 C 92 % 1.04 C
1441 11-03-2014 07:00:00 2.2 C 92 % 1.04 C
1442 11-03-2014 07:05:00 2.3 C 92 % 1.14 C
1443 11-03-2014 07:10:00 2.3 C 92 % 1.14 C
1444 11-03-2014 07:15:00 2.2 C 92 % 1.04 C
1445 11-03-2014 07:20:00 2.2 C 92 % 1.04 C
1446 11-03-2014 07:25:00 2.2 C 92 % 1.04 C
1447 11-03-2014 07:30:00 2.3 C 93 % 1.29 C
1448 11-03-2014 07:35:00 2.4 C 93 % 1.39 C
1449 11-03-2014 07:40:00 2.4 C 93 % 1.39 C
1450 11-03-2014 07:45:00 2.4 C 93 % 1.39 C
Sensor: Nr:Datum:Temp:Feuchte:Taupunkt:
Aussen-T/F 1451 11-03-2014 07:50:00 2.4 C 93 % 1.39 C
1452 11-03-2014 07:55:00 2.4 C 93 % 1.39 C
1453 11-03-2014 08:00:00 2.4 C 93 % 1.39 C
1454 11-03-2014 08:05:00 2.4 C 93 % 1.39 C
1455 11-03-2014 08:10:00 2.5 C 93 % 1.49 C
1456 11-03-2014 08:15:00 2.6 C 93 % 1.59 C
1457 11-03-2014 08:20:00 2.7 C 93 % 1.68 C
1458 11-03-2014 08:25:00 2.7 C 93 % 1.68 C
1459 11-03-2014 08:30:00 2.8 C 93 % 1.78 C
1460 11-03-2014 08:35:00 2.8 C 93 % 1.78 C
1461 11-03-2014 08:40:00 2.9 C 93 % 1.88 C
1462 11-03-2014 08:45:00 3 C 93 % 1.98 C
1463 11-03-2014 08:50:00 3.1 C 93 % 2.08 C
1464 11-03-2014 08:55:00 3.7 C 95 % 2.98 C
1465 11-03-2014 09:00:00 4.2 C 95 % 3.47 C
1466 11-03-2014 09:05:00 4.4 C 94 % 3.52 C
1467 11-03-2014 09:10:00 4.7 C 94 % 3.82 C
1468 11-03-2014 09:15:00 4.9 C 93 % 3.87 C
1469 11-03-2014 09:20:00 5.2 C 92 % 4.01 C
1470 11-03-2014 09:25:00 5.4 C 92 % 4.21 C
1471 11-03-2014 09:30:00 5.7 C 91 % 4.35 C
1472 11-03-2014 09:35:00 5.9 C 90 % 4.39 C
1473 11-03-2014 09:40:00 6.2 C 90 % 4.69 C
1474 11-03-2014 09:45:00 6.4 C 89 % 4.72 C
1475 11-03-2014 09:50:00 6.6 C 89 % 4.92 C
Sensor: Nr:Datum:Temp:Feuchte:Taupunkt:
Aussen-T/F 1476 11-03-2014 09:55:00 6.7 C 89 % 5.02 C
1477 11-03-2014 10:00:00 6.8 C 89 % 5.12 C
1478 11-03-2014 10:05:00 6.7 C 88 % 4.86 C
1479 11-03-2014 10:10:00 6.8 C 89 % 5.12 C
1480 11-03-2014 10:15:00 6.9 C 89 % 5.22 C
1481 11-03-2014 10:20:00 7.1 C 88 % 5.25 C
1482 11-03-2014 10:25:00 7.2 C 88 % 5.35 C
1483 11-03-2014 10:30:00 7.5 C 87 % 5.48 C
1484 11-03-2014 10:35:00 7.7 C 86 % 5.51 C
1485 11-03-2014 10:40:00 7.8 C 86 % 5.61 C
1486 11-03-2014 10:45:00 7.9 C 86 % 5.71 C
1487 11-03-2014 10:50:00 8.1 C 86 % 5.9 C
1488 11-03-2014 10:55:00 8.3 C 85 % 5.93 C
1489 11-03-2014 11:00:00 8.4 C 84 % 5.86 C
1490 11-03-2014 11:05:00 8.7 C 85 % 6.32 C
1491 11-03-2014 11:10:00 8.9 C 83 % 6.17 C
1492 11-03-2014 11:15:00 9.2 C 81 % 6.11 C
1493 11-03-2014 11:20:00 9.3 C 81 % 6.21 C
1494 11-03-2014 11:25:00 9.6 C 79 % 6.14 C
1495 11-03-2014 11:30:00 9.7 C 79 % 6.24 C
1496 11-03-2014 11:35:00 9.9 C 78 % 6.25 C
1497 11-03-2014 11:40:00 10.1 C 79 % 6.63 C
1498 11-03-2014 11:45:00 10.3 C 78 % 6.64 C
1499 11-03-2014 11:50:00 10.6 C 76 % 6.55 C
1500 11-03-2014 11:55:00 10.8 C 75 % 6.55 C
Sensor: Nr:Datum:Temp:Feuchte:Taupunkt:
Aussen-T/F 1501 11-03-2014 12:00:00 11 C 76 % 6.94 C
1502 11-03-2014 12:05:00 11.2 C 76 % 7.13 C
1503 11-03-2014 12:10:00 11.5 C 75 % 7.23 C
1504 11-03-2014 12:15:00 11.8 C 74 % 7.32 C
1505 11-03-2014 12:20:00 12.1 C 72 % 7.21 C
1506 11-03-2014 12:25:00 12.6 C 72 % 7.69 C
1507 11-03-2014 12:30:00 13 C 71 % 7.87 C
1508 11-03-2014 12:35:00 13.3 C 68 % 7.53 C
1509 11-03-2014 12:40:00 13.7 C 68 % 7.91 C
1510 11-03-2014 12:45:00 14.1 C 66 % 7.85 C
1511 11-03-2014 12:50:00 14.3 C 68 % 8.48 C
1512 11-03-2014 12:55:00 14.6 C 64 % 7.87 C
1513 11-03-2014 13:00:00 14.9 C 65 % 8.39 C
1514 11-03-2014 13:05:00 14.9 C 60 % 7.21 C
1515 11-03-2014 13:10:00 14.9 C 60 % 7.21 C
1516 11-03-2014 13:15:00 15.1 C 62 % 7.88 C
1517 11-03-2014 13:20:00 15.3 C 61 % 7.83 C
1518 11-03-2014 13:25:00 15.4 C 60 % 7.68 C
1519 11-03-2014 13:30:00 15.4 C 61 % 7.93 C
1520 11-03-2014 13:35:00 15.4 C 62 % 8.16 C
1521 11-03-2014 13:40:00 15.5 C 64 % 8.73 C
1522 11-03-2014 13:45:00 15.6 C 58 % 7.37 C
1523 11-03-2014 13:50:00 15.5 C 60 % 7.78 C
1524 11-03-2014 13:55:00 15.6 C 60 % 7.87 C
1525 11-03-2014 14:00:00 15.6 C 59 % 7.62 C
Sensor: Nr:Datum:Temp:Feuchte:Taupunkt:
Aussen-T/F 1526 11-03-2014 14:05:00 15.7 C 59 % 7.72 C
1527 11-03-2014 14:10:00 15.8 C 58 % 7.56 C
1528 11-03-2014 14:15:00 15.9 C 57 % 7.4 C
1529 11-03-2014 14:20:00 16 C 56 % 7.24 C
1530 11-03-2014 14:25:00 16.2 C 57 % 7.68 C
1531 11-03-2014 14:30:00 16.3 C 58 % 8.03 C
1532 11-03-2014 14:35:00 16.4 C 55 % 7.35 C
1533 11-03-2014 14:40:00 16.6 C 55 % 7.53 C
1534 11-03-2014 14:45:00 16.8 C 53 % 7.18 C
1535 11-03-2014 14:50:00 17.1 C 54 % 7.73 C
1536 11-03-2014 14:55:00 17.3 C 52 % 7.36 C
1537 11-03-2014 15:00:00 17.5 C 53 % 7.82 C
1538 11-03-2014 15:05:00 17.6 C 53 % 7.92 C
1539 11-03-2014 15:10:00 17.7 C 51 % 7.45 C
1540 11-03-2014 15:15:00 17.7 C 49 % 6.86 C
1541 11-03-2014 15:20:00 17.9 C 52 % 7.91 C
1542 11-03-2014 15:25:00 17.9 C 49 % 7.05 C
1543 11-03-2014 15:30:00 18 C 50 % 7.43 C
1544 11-03-2014 15:35:00 18.1 C 49 % 7.23 C
1545 11-03-2014 15:40:00 18.1 C 48 % 6.93 C
1546 11-03-2014 15:45:00 18.2 C 49 % 7.32 C
1547 11-03-2014 15:50:00 18.2 C 49 % 7.32 C
1548 11-03-2014 15:55:00 17.9 C 51 % 7.63 C
1549 11-03-2014 16:00:00 17.6 C 52 % 7.64 C
1550 11-03-2014 16:05:00 17.4 C 53 % 7.73 C
Sensor: Nr:Datum:Temp:Feuchte:Taupunkt:
Aussen-T/F 1551 11-03-2014 16:10:00 17.3 C 52 % 7.36 C
1552 11-03-2014 16:15:00 17.3 C 55 % 8.18 C
1553 11-03-2014 16:20:00 17.2 C 53 % 7.55 C
1554 11-03-2014 16:25:00 17.2 C 54 % 7.82 C
1555 11-03-2014 16:30:00 17.1 C 56 % 8.26 C
1556 11-03-2014 16:35:00 16.9 C 56 % 8.07 C
1557 11-03-2014 16:40:00 16.8 C 57 % 8.24 C
1558 11-03-2014 16:45:00 16.8 C 57 % 8.24 C
1559 11-03-2014 16:50:00 16.7 C 59 % 8.66 C
1560 11-03-2014 16:55:00 16.6 C 58 % 8.31 C
1561 11-03-2014 17:00:00 16.5 C 58 % 8.22 C
1562 11-03-2014 17:05:00 16.4 C 58 % 8.12 C
1563 11-03-2014 17:10:00 16.3 C 60 % 8.53 C
1564 11-03-2014 17:15:00 15.8 C 62 % 8.54 C
1565 11-03-2014 17:20:00 15.3 C 63 % 8.31 C
1566 11-03-2014 17:25:00 15.2 C 63 % 8.21 C
1567 11-03-2014 17:30:00 14.9 C 65 % 8.39 C
1568 11-03-2014 17:35:00 14.6 C 66 % 8.33 C
1569 11-03-2014 17:40:00 14 C 68 % 8.19 C
1570 11-03-2014 17:45:00 13.7 C 70 % 8.33 C
1571 11-03-2014 17:50:00 13.5 C 71 % 8.35 C
1572 11-03-2014 17:55:00 13.2 C 71 % 8.06 C
1573 11-03-2014 18:00:00 12.9 C 72 % 7.98 C
1574 11-03-2014 18:05:00 12.7 C 73 % 7.99 C
1575 11-03-2014 18:10:00 12.4 C 74 % 7.9 C
Sensor: Nr:Datum:Temp:Feuchte:Taupunkt:
Aussen-T/F 1576 11-03-2014 18:15:00 12.2 C 75 % 7.91 C
1577 11-03-2014 18:20:00 12 C 75 % 7.71 C
1578 11-03-2014 18:25:00 11.9 C 76 % 7.81 C
1579 11-03-2014 18:30:00 11.8 C 76 % 7.71 C
1580 11-03-2014 18:35:00 11.9 C 76 % 7.81 C
1581 11-03-2014 18:40:00 11.8 C 76 % 7.71 C
1582 11-03-2014 18:45:00 11.7 C 77 % 7.81 C
1583 11-03-2014 18:50:00 11.6 C 76 % 7.52 C
1584 11-03-2014 18:55:00 11.6 C 76 % 7.52 C
1585 11-03-2014 19:00:00 11.5 C 77 % 7.61 C
1586 11-03-2014 19:05:00 11.2 C 77 % 7.32 C
1587 11-03-2014 19:10:00 10.9 C 79 % 7.41 C
1588 11-03-2014 19:15:00 10.8 C 79 % 7.31 C
1589 11-03-2014 19:20:00 10.6 C 80 % 7.3 C
1590 11-03-2014 19:25:00 10.5 C 80 % 7.2 C
1591 11-03-2014 19:30:00 10.4 C 81 % 7.28 C
1592 11-03-2014 19:35:00 10.3 C 81 % 7.19 C
1593 11-03-2014 19:40:00 10.2 C 81 % 7.09 C
1594 11-03-2014 19:45:00 10.1 C 82 % 7.17 C
1595 11-03-2014 19:50:00 9.8 C 82 % 6.88 C
1596 11-03-2014 19:55:00 9.7 C 82 % 6.78 C
1597 11-03-2014 20:00:00 9.6 C 82 % 6.68 C
1598 11-03-2014 20:05:00 9.4 C 81 % 6.31 C
1599 11-03-2014 20:10:00 9.3 C 81 % 6.21 C
1600 11-03-2014 20:15:00 9.2 C 81 % 6.11 C
Sensor: Nr:Datum:Temp:Feuchte:Taupunkt:
Aussen-T/F 1601 11-03-2014 20:20:00 9.2 C 80 % 5.94 C
1602 11-03-2014 20:25:00 8.9 C 81 % 5.82 C
1603 11-03-2014 20:30:00 8.8 C 81 % 5.72 C
1604 11-03-2014 20:35:00 8.7 C 80 % 5.45 C
1605 11-03-2014 20:40:00 8.7 C 80 % 5.45 C
1606 11-03-2014 20:45:00 8.8 C 79 % 5.36 C
1607 11-03-2014 20:50:00 8.8 C 78 % 5.18 C
1608 11-03-2014 20:55:00 8.7 C 78 % 5.08 C
1609 11-03-2014 21:00:00 8.6 C 79 % 5.17 C
1610 11-03-2014 21:05:00 8.6 C 80 % 5.35 C
1611 11-03-2014 21:10:00 8.5 C 79 % 5.07 C
1612 11-03-2014 21:15:00 8.4 C 79 % 4.98 C
1613 11-03-2014 21:20:00 8.3 C 79 % 4.88 C
1614 11-03-2014 21:25:00 8.3 C 79 % 4.88 C
1615 11-03-2014 21:30:00 8.3 C 78 % 4.7 C
1616 11-03-2014 21:35:00 8.4 C 79 % 4.98 C
1617 11-03-2014 21:40:00 8.5 C 78 % 4.89 C
1618 11-03-2014 21:45:00 8.4 C 79 % 4.98 C
1619 11-03-2014 21:50:00 8.3 C 80 % 5.06 C
1620 11-03-2014 21:55:00 8.1 C 80 % 4.86 C
1621 11-03-2014 22:00:00 7.9 C 80 % 4.67 C
1622 11-03-2014 22:05:00 7.9 C 80 % 4.67 C
1623 11-03-2014 22:10:00 7.9 C 80 % 4.67 C
1624 11-03-2014 22:15:00 7.8 C 80 % 4.57 C
1625 11-03-2014 22:20:00 7.8 C 80 % 4.57 C
Sensor: Nr:Datum:Temp:Feuchte:Taupunkt:
Aussen-T/F 1626 11-03-2014 22:25:00 7.7 C 80 % 4.47 C
1627 11-03-2014 22:30:00 7.7 C 80 % 4.47 C
1628 11-03-2014 22:35:00 7.7 C 81 % 4.65 C
1629 11-03-2014 22:40:00 7.6 C 80 % 4.38 C
1630 11-03-2014 22:45:00 7.6 C 79 % 4.2 C
1631 11-03-2014 22:50:00 7.7 C 80 % 4.47 C
1632 11-03-2014 22:55:00 7.7 C 79 % 4.3 C
1633 11-03-2014 23:00:00 7.8 C 78 % 4.21 C
1634 11-03-2014 23:05:00 7.8 C 78 % 4.21 C
1635 11-03-2014 23:10:00 7.8 C 77 % 4.03 C
1636 11-03-2014 23:15:00 7.9 C 76 % 3.94 C
1637 11-03-2014 23:20:00 8.1 C 75 % 3.94 C
1638 11-03-2014 23:25:00 8.3 C 74 % 3.95 C
1639 11-03-2014 23:30:00 8.4 C 74 % 4.04 C
1640 11-03-2014 23:35:00 8.4 C 73 % 3.85 C
1641 11-03-2014 23:40:00 8.3 C 74 % 3.95 C
1642 11-03-2014 23:45:00 8.2 C 73 % 3.66 C
1643 11-03-2014 23:50:00 8.2 C 76 % 4.23 C
1644 11-03-2014 23:55:00 8 C 76 % 4.04 C
1645 12-03-2014 00:00:00 7.9 C 76 % 3.94 C
1646 12-03-2014 00:05:00 7.6 C 77 % 3.83 C
1647 12-03-2014 00:10:00 7.6 C 77 % 3.83 C
1648 12-03-2014 00:15:00 7.5 C 77 % 3.74 C
1649 12-03-2014 00:20:00 7.4 C 77 % 3.64 C
1650 12-03-2014 00:25:00 7.3 C 78 % 3.73 C
Sensor: Nr:Datum:Temp:Feuchte:Taupunkt:
Aussen-T/F 1651 12-03-2014 00:30:00 7.2 C 78 % 3.63 C
1652 12-03-2014 00:35:00 7.2 C 78 % 3.63 C
1653 12-03-2014 00:40:00 7.2 C 79 % 3.81 C
1654 12-03-2014 00:45:00 7.2 C 79 % 3.81 C
1655 12-03-2014 00:50:00 7.1 C 79 % 3.71 C
1656 12-03-2014 00:55:00 7.1 C 80 % 3.89 C
1657 12-03-2014 01:00:00 7.1 C 79 % 3.71 C
1658 12-03-2014 01:05:00 7 C 80 % 3.79 C
1659 12-03-2014 01:10:00 7 C 80 % 3.79 C
1660 12-03-2014 01:15:00 6.9 C 80 % 3.7 C
1661 12-03-2014 01:20:00 6.7 C 81 % 3.68 C
1662 12-03-2014 01:25:00 6.8 C 82 % 3.95 C
1663 12-03-2014 01:30:00 6.7 C 82 % 3.85 C
1664 12-03-2014 01:35:00 6.7 C 82 % 3.85 C
1665 12-03-2014 01:40:00 6.7 C 82 % 3.85 C
1666 12-03-2014 01:45:00 6.7 C 82 % 3.85 C
1667 12-03-2014 01:50:00 6.7 C 82 % 3.85 C
1668 12-03-2014 01:55:00 6.7 C 83 % 4.02 C
1669 12-03-2014 02:00:00 6.6 C 84 % 4.1 C
1670 12-03-2014 02:05:00 6.6 C 83 % 3.92 C
1671 12-03-2014 02:10:00 6.4 C 84 % 3.9 C
1672 12-03-2014 02:15:00 6.4 C 84 % 3.9 C
1673 12-03-2014 02:20:00 6.4 C 84 % 3.9 C
1674 12-03-2014 02:25:00 6.4 C 84 % 3.9 C
1675 12-03-2014 02:30:00 6.4 C 84 % 3.9 C
Sensor: Nr:Datum:Temp:Feuchte:Taupunkt:
Aussen-T/F 1676 12-03-2014 02:35:00 6.3 C 84 % 3.8 C
1677 12-03-2014 02:40:00 6.3 C 85 % 3.97 C
1678 12-03-2014 02:45:00 6.2 C 85 % 3.87 C
1679 12-03-2014 02:50:00 6.1 C 85 % 3.77 C
1680 12-03-2014 02:55:00 5.9 C 86 % 3.74 C
1681 12-03-2014 03:00:00 5.9 C 86 % 3.74 C
1682 12-03-2014 03:05:00 5.8 C 86 % 3.64 C
1683 12-03-2014 03:10:00 5.8 C 86 % 3.64 C
1684 12-03-2014 03:15:00 5.7 C 87 % 3.71 C
1685 12-03-2014 03:20:00 5.7 C 87 % 3.71 C
1686 12-03-2014 03:25:00 5.7 C 87 % 3.71 C
1687 12-03-2014 03:30:00 5.7 C 87 % 3.71 C
1688 12-03-2014 03:35:00 5.6 C 87 % 3.61 C
1689 12-03-2014 03:40:00 5.5 C 87 % 3.51 C
1690 12-03-2014 03:45:00 5.4 C 88 % 3.58 C
1691 12-03-2014 03:50:00 5.3 C 88 % 3.48 C
1692 12-03-2014 03:55:00 5.2 C 89 % 3.54 C
1693 12-03-2014 04:00:00 5 C 89 % 3.34 C
1694 12-03-2014 04:05:00 4.9 C 90 % 3.4 C
1695 12-03-2014 04:10:00 4.9 C 90 % 3.4 C
1696 12-03-2014 04:15:00 4.9 C 89 % 3.24 C
1697 12-03-2014 04:20:00 4.8 C 89 % 3.14 C
1698 12-03-2014 04:25:00 4.7 C 88 % 2.89 C
1699 12-03-2014 04:30:00 4.4 C 89 % 2.75 C
1700 12-03-2014 04:35:00 4.3 C 90 % 2.81 C
Sensor: Nr:Datum:Temp:Feuchte:Taupunkt:
Aussen-T/F 1701 12-03-2014 04:40:00 4.2 C 90 % 2.71 C
1702 12-03-2014 04:45:00 4.2 C 91 % 2.87 C
1703 12-03-2014 04:50:00 4.2 C 91 % 2.87 C
1704 12-03-2014 04:55:00 4.2 C 91 % 2.87 C
1705 12-03-2014 05:00:00 4.2 C 91 % 2.87 C
1706 12-03-2014 05:05:00 4.2 C 91 % 2.87 C
1707 12-03-2014 05:10:00 4.1 C 91 % 2.77 C
1708 12-03-2014 05:15:00 3.9 C 91 % 2.57 C
1709 12-03-2014 05:20:00 3.9 C 92 % 2.72 C
1710 12-03-2014 05:25:00 3.9 C 92 % 2.72 C
1711 12-03-2014 05:30:00 3.8 C 92 % 2.62 C
1712 12-03-2014 05:35:00 3.7 C 92 % 2.52 C
1713 12-03-2014 05:40:00 3.6 C 92 % 2.42 C
1714 12-03-2014 05:45:00 3.4 C 92 % 2.23 C
1715 12-03-2014 05:50:00 3.3 C 92 % 2.13 C
1716 12-03-2014 05:55:00 3.3 C 92 % 2.13 C
1717 12-03-2014 06:00:00 3.2 C 92 % 2.03 C
1718 12-03-2014 06:05:00 3.1 C 93 % 2.08 C
1719 12-03-2014 06:10:00 3.1 C 93 % 2.08 C
1720 12-03-2014 06:15:00 3.1 C 93 % 2.08 C
1721 12-03-2014 06:20:00 3.1 C 93 % 2.08 C
1722 12-03-2014 06:25:00 3 C 93 % 1.98 C
1723 12-03-2014 06:30:00 3 C 94 % 2.13 C
1724 12-03-2014 06:35:00 2.9 C 94 % 2.03 C
1725 12-03-2014 06:40:00 2.8 C 94 % 1.93 C
Sensor: Nr:Datum:Temp:Feuchte:Taupunkt:
Aussen-T/F 1726 12-03-2014 06:45:00 2.8 C 94 % 1.93 C
1727 12-03-2014 06:50:00 2.8 C 94 % 1.93 C
1728 12-03-2014 06:55:00 2.8 C 94 % 1.93 C
1729 12-03-2014 07:00:00 2.7 C 94 % 1.83 C
1730 12-03-2014 07:05:00 2.7 C 94 % 1.83 C
1731 12-03-2014 07:10:00 2.7 C 94 % 1.83 C
1732 12-03-2014 07:15:00 2.6 C 94 % 1.73 C
1733 12-03-2014 07:20:00 2.7 C 95 % 1.98 C
1734 12-03-2014 07:25:00 2.7 C 95 % 1.98 C
1735 12-03-2014 07:30:00 2.6 C 95 % 1.88 C
1736 12-03-2014 07:35:00 2.6 C 95 % 1.88 C
1737 12-03-2014 07:40:00 2.6 C 95 % 1.88 C
1738 12-03-2014 07:45:00 2.6 C 95 % 1.88 C
1739 12-03-2014 07:50:00 2.7 C 95 % 1.98 C
1740 12-03-2014 07:55:00 2.8 C 95 % 2.08 C
1741 12-03-2014 08:00:00 2.9 C 95 % 2.18 C
1742 12-03-2014 08:05:00 2.9 C 95 % 2.18 C
1743 12-03-2014 08:10:00 2.9 C 95 % 2.18 C
1744 12-03-2014 08:15:00 2.9 C 95 % 2.18 C
1745 12-03-2014 08:20:00 2.9 C 95 % 2.18 C
1746 12-03-2014 08:25:00 2.9 C 95 % 2.18 C
1747 12-03-2014 08:30:00 2.9 C 95 % 2.18 C
1748 12-03-2014 08:35:00 3 C 95 % 2.28 C
1749 12-03-2014 08:40:00 3.1 C 95 % 2.38 C
1750 12-03-2014 08:45:00 3.1 C 95 % 2.38 C
Sensor: Nr:Datum:Temp:Feuchte:Taupunkt:
Aussen-T/F 1751 12-03-2014 08:50:00 3.2 C 96 % 2.63 C
1752 12-03-2014 08:55:00 3.3 C 96 % 2.72 C
1753 12-03-2014 09:00:00 3.4 C 96 % 2.82 C
1754 12-03-2014 09:05:00 3.5 C 96 % 2.92 C
1755 12-03-2014 09:10:00 3.6 C 96 % 3.02 C
1756 12-03-2014 09:15:00 3.7 C 96 % 3.12 C
1757 12-03-2014 09:20:00 3.8 C 96 % 3.22 C
1758 12-03-2014 09:25:00 3.9 C 96 % 3.32 C
1759 12-03-2014 09:30:00 4.2 C 96 % 3.62 C
1760 12-03-2014 09:35:00 4.3 C 96 % 3.72 C
1761 12-03-2014 09:40:00 4.8 C 96 % 4.22 C
1762 12-03-2014 09:45:00 5.2 C 97 % 4.76 C
1763 12-03-2014 09:50:00 5.5 C 97 % 5.06 C
1764 12-03-2014 09:55:00 5.8 C 97 % 5.36 C
1765 12-03-2014 10:00:00 6 C 96 % 5.41 C
1766 12-03-2014 10:05:00 6.2 C 96 % 5.61 C
1767 12-03-2014 10:10:00 6.4 C 96 % 5.81 C
1768 12-03-2014 10:15:00 6.7 C 95 % 5.96 C
1769 12-03-2014 10:20:00 7 C 95 % 6.26 C
1770 12-03-2014 10:25:00 7.2 C 93 % 6.15 C
1771 12-03-2014 10:30:00 7.4 C 92 % 6.19 C
1772 12-03-2014 10:35:00 7.6 C 92 % 6.39 C
1773 12-03-2014 10:40:00 7.8 C 91 % 6.43 C
1774 12-03-2014 10:45:00 7.9 C 90 % 6.36 C
1775 12-03-2014 10:50:00 8.2 C 89 % 6.5 C
Sensor: Nr:Datum:Temp:Feuchte:Taupunkt:
Aussen-T/F 1776 12-03-2014 10:55:00 8.4 C 88 % 6.53 C
1777 12-03-2014 11:00:00 8.7 C 87 % 6.66 C
1778 12-03-2014 11:05:00 8.9 C 87 % 6.86 C
1779 12-03-2014 11:10:00 9.2 C 84 % 6.64 C
1780 12-03-2014 11:15:00 9.5 C 83 % 6.76 C
1781 12-03-2014 11:20:00 9.8 C 79 % 6.34 C
1782 12-03-2014 11:25:00 10.2 C 79 % 6.73 C
1783 12-03-2014 11:30:00 10.6 C 78 % 6.93 C
1784 12-03-2014 11:35:00 10.8 C 73 % 6.16 C
1785 12-03-2014 11:40:00 11.3 C 72 % 6.44 C
1786 12-03-2014 11:45:00 11.8 C 68 % 6.09 C
1787 12-03-2014 11:50:00 12.2 C 65 % 5.82 C
1788 12-03-2014 11:55:00 12.6 C 64 % 5.98 C
1789 12-03-2014 12:00:00 12.9 C 65 % 6.49 C
1790 12-03-2014 12:05:00 13.2 C 66 % 7 C
1791 12-03-2014 12:10:00 13.5 C 63 % 6.6 C
1792 12-03-2014 12:15:00 13.9 C 64 % 7.21 C
1793 12-03-2014 12:20:00 14.3 C 60 % 6.65 C
1794 12-03-2014 12:25:00 14.7 C 59 % 6.78 C
1795 12-03-2014 12:30:00 15.2 C 58 % 7 C
1796 12-03-2014 12:35:00 15.7 C 60 % 7.97 C
1797 12-03-2014 12:40:00 16 C 58 % 7.75 C
1798 12-03-2014 12:45:00 16.2 C 53 % 6.62 C
1799 12-03-2014 12:50:00 16.5 C 52 % 6.62 C
1800 12-03-2014 12:55:00 16.6 C 52 % 6.71 C
Sensor: Nr:Datum:Temp:Feuchte:Taupunkt:
Aussen-T/F 1801 12-03-2014 13:00:00 16.7 C 50 % 6.24 C
1802 12-03-2014 13:05:00 16.8 C 50 % 6.33 C
1803 12-03-2014 13:10:00 17 C 49 % 6.22 C
1804 12-03-2014 13:15:00 17.2 C 49 % 6.4 C
1805 12-03-2014 13:20:00 17.3 C 49 % 6.5 C
1806 12-03-2014 13:25:00 17.3 C 48 % 6.2 C
1807 12-03-2014 13:30:00 17.3 C 45 % 5.27 C
1808 12-03-2014 13:35:00 17.3 C 46 % 5.58 C
1809 12-03-2014 13:40:00 17.3 C 46 % 5.58 C
1810 12-03-2014 13:45:00 17.3 C 45 % 5.27 C
1811 12-03-2014 13:50:00 17.3 C 45 % 5.27 C
1812 12-03-2014 13:55:00 17.3 C 44 % 4.94 C
1813 12-03-2014 14:00:00 17.3 C 44 % 4.94 C
1814 12-03-2014 14:05:00 17.3 C 46 % 5.58 C
1815 12-03-2014 14:10:00 17.4 C 45 % 5.36 C
1816 12-03-2014 14:15:00 17.4 C 42 % 4.37 C
1817 12-03-2014 14:20:00 17.4 C 43 % 4.71 C
1818 12-03-2014 14:25:00 17.5 C 44 % 5.13 C
1819 12-03-2014 14:30:00 17.6 C 44 % 5.22 C
1820 12-03-2014 14:35:00 17.7 C 43 % 4.98 C
1821 12-03-2014 14:40:00 17.8 C 46 % 6.04 C
1822 12-03-2014 14:45:00 17.9 C 40 % 4.12 C
1823 12-03-2014 14:50:00 18.1 C 41 % 4.66 C
1824 12-03-2014 14:55:00 18.3 C 44 % 5.85 C
1825 12-03-2014 15:00:00 18.4 C 41 % 4.92 C
Sensor: Nr:Datum:Temp:Feuchte:Taupunkt:
Aussen-T/F 1826 12-03-2014 15:05:00 18.6 C 41 % 5.1 C
1827 12-03-2014 15:10:00 18.7 C 39 % 4.48 C
1828 12-03-2014 15:15:00 18.7 C 37 % 3.73 C
1829 12-03-2014 15:20:00 18.7 C 37 % 3.73 C
1830 12-03-2014 15:25:00 18.8 C 38 % 4.2 C
1831 12-03-2014 15:30:00 19 C 36 % 3.61 C
1832 12-03-2014 15:35:00 19.1 C 35 % 3.3 C
1833 12-03-2014 15:40:00 19.2 C 39 % 4.92 C
1834 12-03-2014 15:45:00 19.2 C 37 % 4.17 C
1835 12-03-2014 15:50:00 19.2 C 36 % 3.78 C
1836 12-03-2014 15:55:00 19.1 C 35 % 3.3 C
1837 12-03-2014 16:00:00 18.9 C 36 % 3.52 C
1838 12-03-2014 16:05:00 18.7 C 39 % 4.48 C
1839 12-03-2014 16:10:00 18.3 C 38 % 3.75 C
1840 12-03-2014 16:15:00 18.2 C 36 % 2.9 C
1841 12-03-2014 16:20:00 18.1 C 44 % 5.67 C
1842 12-03-2014 16:25:00 17.4 C 44 % 5.03 C
1843 12-03-2014 16:30:00 17.1 C 42 % 4.1 C
1844 12-03-2014 16:35:00 17 C 46 % 5.31 C
1845 12-03-2014 16:40:00 16.7 C 40 % 3.05 C
1846 12-03-2014 16:45:00 16.7 C 48 % 5.65 C
1847 12-03-2014 16:50:00 16.4 C 42 % 3.47 C
1848 12-03-2014 16:55:00 16.6 C 45 % 4.63 C
1849 12-03-2014 17:00:00 16.4 C 46 % 4.76 C
1850 12-03-2014 17:05:00 16.4 C 49 % 5.67 C
Sensor: Nr:Datum:Temp:Feuchte:Taupunkt:
Aussen-T/F 1851 12-03-2014 17:10:00 16.1 C 50 % 5.69 C
1852 12-03-2014 17:15:00 15.7 C 50 % 5.32 C
1853 12-03-2014 17:20:00 15.4 C 50 % 5.04 C
1854 12-03-2014 17:25:00 15.2 C 53 % 5.69 C
1855 12-03-2014 17:30:00 14.9 C 55 % 5.95 C
1856 12-03-2014 17:35:00 14.7 C 55 % 5.76 C
1857 12-03-2014 17:40:00 14.5 C 55 % 5.58 C
1858 12-03-2014 17:45:00 14.2 C 56 % 5.56 C
1859 12-03-2014 17:50:00 14.1 C 57 % 5.72 C
1860 12-03-2014 17:55:00 13.8 C 56 % 5.19 C
1861 12-03-2014 18:00:00 13.7 C 56 % 5.09 C
1862 12-03-2014 18:05:00 13.4 C 57 % 5.07 C
1863 12-03-2014 18:10:00 13.2 C 57 % 4.88 C
1864 12-03-2014 18:15:00 12.9 C 57 % 4.6 C
1865 12-03-2014 18:20:00 12.6 C 58 % 4.57 C
1866 12-03-2014 18:25:00 12.4 C 59 % 4.62 C
1867 12-03-2014 18:30:00 12.2 C 60 % 4.67 C
1868 12-03-2014 18:35:00 12 C 60 % 4.49 C
1869 12-03-2014 18:40:00 11.9 C 60 % 4.39 C
1870 12-03-2014 18:45:00 11.7 C 61 % 4.44 C
1871 12-03-2014 18:50:00 11.5 C 62 % 4.48 C
1872 12-03-2014 18:55:00 11.4 C 62 % 4.39 C
1873 12-03-2014 19:00:00 11.2 C 62 % 4.2 C
1874 12-03-2014 19:05:00 11.2 C 63 % 4.43 C
1875 12-03-2014 19:10:00 11.1 C 67 % 5.21 C
Sensor: Nr:Datum:Temp:Feuchte:Taupunkt:
Aussen-T/F 1876 12-03-2014 19:15:00 10.8 C 65 % 4.49 C
1877 12-03-2014 19:20:00 10.6 C 66 % 4.52 C
1878 12-03-2014 19:25:00 10.5 C 67 % 4.64 C
1879 12-03-2014 19:30:00 10.4 C 67 % 4.55 C
1880 12-03-2014 19:35:00 10.3 C 68 % 4.66 C
1881 12-03-2014 19:40:00 10.3 C 67 % 4.45 C
1882 12-03-2014 19:45:00 10.2 C 68 % 4.57 C
1883 12-03-2014 19:50:00 9.9 C 70 % 4.69 C
1884 12-03-2014 19:55:00 9.8 C 69 % 4.39 C
1885 12-03-2014 20:00:00 9.7 C 69 % 4.3 C
1886 12-03-2014 20:05:00 9.6 C 69 % 4.2 C
1887 12-03-2014 20:10:00 9.5 C 69 % 4.11 C
1888 12-03-2014 20:15:00 9.4 C 69 % 4.01 C
1889 12-03-2014 20:20:00 9.2 C 72 % 4.42 C
1890 12-03-2014 20:25:00 9 C 73 % 4.43 C
1891 12-03-2014 20:30:00 8.9 C 73 % 4.33 C
1892 12-03-2014 20:35:00 8.8 C 73 % 4.24 C
1893 12-03-2014 20:40:00 8.8 C 73 % 4.24 C
1894 12-03-2014 20:45:00 8.8 C 73 % 4.24 C
1895 12-03-2014 20:50:00 8.7 C 72 % 3.94 C
1896 12-03-2014 20:55:00 8.6 C 75 % 4.43 C
1897 12-03-2014 21:00:00 8.4 C 74 % 4.04 C
1898 12-03-2014 21:05:00 8.2 C 75 % 4.04 C
1899 12-03-2014 21:10:00 8 C 76 % 4.04 C
1900 12-03-2014 21:15:00 7.9 C 77 % 4.12 C
Sensor: Nr:Datum:Temp:Feuchte:Taupunkt:
Aussen-T/F 1901 12-03-2014 21:20:00 7.8 C 77 % 4.03 C
1902 12-03-2014 21:25:00 7.8 C 77 % 4.03 C
1903 12-03-2014 21:30:00 7.7 C 77 % 3.93 C
1904 12-03-2014 21:35:00 7.6 C 75 % 3.46 C
1905 12-03-2014 21:40:00 7.4 C 76 % 3.45 C
1906 12-03-2014 21:45:00 7.3 C 77 % 3.54 C
1907 12-03-2014 21:50:00 7.2 C 78 % 3.63 C
1908 12-03-2014 21:55:00 7.1 C 78 % 3.53 C
1909 12-03-2014 22:00:00 6.9 C 78 % 3.34 C
1910 12-03-2014 22:05:00 6.8 C 78 % 3.24 C
1911 12-03-2014 22:10:00 6.7 C 78 % 3.14 C
1912 12-03-2014 22:15:00 6.5 C 78 % 2.95 C
1913 12-03-2014 22:20:00 6.3 C 80 % 3.11 C
1914 12-03-2014 22:25:00 6.3 C 80 % 3.11 C
1915 12-03-2014 22:30:00 6.2 C 80 % 3.01 C
1916 12-03-2014 22:35:00 6.2 C 81 % 3.19 C
1917 12-03-2014 22:40:00 6.1 C 82 % 3.26 C
1918 12-03-2014 22:45:00 6.1 C 82 % 3.26 C
1919 12-03-2014 22:50:00 6 C 82 % 3.17 C
1920 12-03-2014 22:55:00 5.9 C 82 % 3.07 C
1921 12-03-2014 23:00:00 5.9 C 82 % 3.07 C
1922 12-03-2014 23:05:00 5.8 C 82 % 2.97 C
1923 12-03-2014 23:10:00 5.8 C 82 % 2.97 C
1924 12-03-2014 23:15:00 5.8 C 82 % 2.97 C
1925 12-03-2014 23:20:00 5.7 C 83 % 3.04 C
Sensor: Nr:Datum:Temp:Feuchte:Taupunkt:
Aussen-T/F 1926 12-03-2014 23:25:00 5.6 C 83 % 2.95 C
1927 12-03-2014 23:30:00 5.6 C 83 % 2.95 C
1928 12-03-2014 23:35:00 5.4 C 83 % 2.75 C
1929 12-03-2014 23:40:00 5.3 C 83 % 2.65 C
1930 12-03-2014 23:45:00 5.2 C 83 % 2.56 C
1931 12-03-2014 23:50:00 5.1 C 84 % 2.63 C
1932 12-03-2014 23:55:00 4.9 C 84 % 2.43 C
1933 13-03-2014 00:00:00 4.8 C 84 % 2.33 C
1934 13-03-2014 00:05:00 4.6 C 85 % 2.3 C
1935 13-03-2014 00:10:00 4.5 C 86 % 2.37 C
1936 13-03-2014 00:15:00 4.5 C 86 % 2.37 C
1937 13-03-2014 00:20:00 4.5 C 86 % 2.37 C
1938 13-03-2014 00:25:00 4.4 C 86 % 2.27 C
1939 13-03-2014 00:30:00 4.4 C 87 % 2.43 C
1940 13-03-2014 00:35:00 4.4 C 86 % 2.27 C
1941 13-03-2014 00:40:00 4.3 C 87 % 2.33 C
1942 13-03-2014 00:45:00 4.3 C 87 % 2.33 C
1943 13-03-2014 00:50:00 4.3 C 87 % 2.33 C
1944 13-03-2014 00:55:00 4.3 C 86 % 2.17 C
1945 13-03-2014 01:00:00 4.2 C 87 % 2.23 C
1946 13-03-2014 01:05:00 4.2 C 87 % 2.23 C
1947 13-03-2014 01:10:00 4.2 C 87 % 2.23 C
1948 13-03-2014 01:15:00 4.2 C 87 % 2.23 C
1949 13-03-2014 01:20:00 4.2 C 87 % 2.23 C
1950 13-03-2014 01:25:00 4.1 C 88 % 2.3 C
Sensor: Nr:Datum:Temp:Feuchte:Taupunkt:
Aussen-T/F 1951 13-03-2014 01:30:00 4.2 C 88 % 2.39 C
1952 13-03-2014 01:35:00 4.2 C 88 % 2.39 C
1953 13-03-2014 01:40:00 4.1 C 87 % 2.14 C
1954 13-03-2014 01:45:00 4.1 C 87 % 2.14 C
1955 13-03-2014 01:50:00 3.9 C 87 % 1.94 C
1956 13-03-2014 01:55:00 3.8 C 88 % 2 C
1957 13-03-2014 02:00:00 3.8 C 88 % 2 C
1958 13-03-2014 02:05:00 3.8 C 88 % 2 C
1959 13-03-2014 02:10:00 3.8 C 89 % 2.16 C
1960 13-03-2014 02:15:00 3.8 C 88 % 2 C
1961 13-03-2014 02:20:00 3.7 C 88 % 1.9 C
1962 13-03-2014 02:25:00 3.7 C 88 % 1.9 C
1963 13-03-2014 02:30:00 3.6 C 88 % 1.8 C
1964 13-03-2014 02:35:00 3.4 C 88 % 1.61 C
1965 13-03-2014 02:40:00 3.3 C 88 % 1.51 C
1966 13-03-2014 02:45:00 3.3 C 89 % 1.67 C
1967 13-03-2014 02:50:00 3.3 C 89 % 1.67 C
1968 13-03-2014 02:55:00 3.3 C 89 % 1.67 C
1969 13-03-2014 03:00:00 3.3 C 89 % 1.67 C
1970 13-03-2014 03:05:00 3.2 C 89 % 1.57 C
1971 13-03-2014 03:10:00 3.1 C 89 % 1.47 C
1972 13-03-2014 03:15:00 3.1 C 90 % 1.62 C
1973 13-03-2014 03:20:00 3.1 C 90 % 1.62 C
1974 13-03-2014 03:25:00 3.1 C 90 % 1.62 C
1975 13-03-2014 03:30:00 3 C 89 % 1.37 C
Sensor: Nr:Datum:Temp:Feuchte:Taupunkt:
Aussen-T/F 1976 13-03-2014 03:35:00 2.9 C 90 % 1.43 C
1977 13-03-2014 03:40:00 2.8 C 90 % 1.33 C
1978 13-03-2014 03:45:00 2.8 C 90 % 1.33 C
1979 13-03-2014 03:50:00 2.8 C 90 % 1.33 C
1980 13-03-2014 03:55:00 2.8 C 90 % 1.33 C
1981 13-03-2014 04:00:00 2.7 C 90 % 1.23 C
1982 13-03-2014 04:05:00 2.6 C 90 % 1.13 C
1983 13-03-2014 04:10:00 2.5 C 90 % 1.03 C
1984 13-03-2014 04:15:00 2.4 C 90 % 0.93 C
1985 13-03-2014 04:20:00 2.4 C 91 % 1.08 C
1986 13-03-2014 04:25:00 2.4 C 91 % 1.08 C
1987 13-03-2014 04:30:00 2.3 C 91 % 0.99 C
1988 13-03-2014 04:35:00 2.2 C 91 % 0.89 C
1989 13-03-2014 04:40:00 2.2 C 91 % 0.89 C
1990 13-03-2014 04:45:00 2.1 C 91 % 0.79 C
1991 13-03-2014 04:50:00 2.1 C 92 % 0.94 C
1992 13-03-2014 04:55:00 2 C 92 % 0.84 C
1993 13-03-2014 05:00:00 2 C 92 % 0.84 C
1994 13-03-2014 05:05:00 1.9 C 92 % 0.74 C
1995 13-03-2014 05:10:00 1.8 C 92 % 0.64 C
1996 13-03-2014 05:15:00 1.7 C 92 % 0.54 C
1997 13-03-2014 05:20:00 1.8 C 92 % 0.64 C
1998 13-03-2014 05:25:00 1.8 C 93 % 0.79 C
1999 13-03-2014 05:30:00 1.7 C 92 % 0.54 C
2000 13-03-2014 05:35:00 1.7 C 92 % 0.54 C
Sensor: Nr:Datum:Temp:Feuchte:Taupunkt:
Aussen-T/F 2001 13-03-2014 05:40:00 1.7 C 93 % 0.69 C
2002 13-03-2014 05:45:00 1.7 C 93 % 0.69 C
2003 13-03-2014 05:50:00 1.6 C 93 % 0.59 C
2004 13-03-2014 05:55:00 1.5 C 92 % 0.35 C
2005 13-03-2014 06:00:00 1.4 C 93 % 0.4 C
2006 13-03-2014 06:05:00 1.4 C 93 % 0.4 C
2007 13-03-2014 06:10:00 1.4 C 93 % 0.4 C
2008 13-03-2014 06:15:00 1.3 C 93 % 0.3 C
2009 13-03-2014 06:20:00 1.3 C 93 % 0.3 C
2010 13-03-2014 06:25:00 1.3 C 93 % 0.3 C
2011 13-03-2014 06:30:00 1.2 C 93 % 0.2 C
2012 13-03-2014 06:35:00 1.3 C 94 % 0.44 C
2013 13-03-2014 06:40:00 1.2 C 93 % 0.2 C
2014 13-03-2014 06:45:00 1.2 C 93 % 0.2 C
2015 13-03-2014 06:50:00 1.2 C 93 % 0.2 C
2016 13-03-2014 06:55:00 1.2 C 94 % 0.34 C
2017 13-03-2014 07:00:00 1.1 C 93 % 0.1 C
2018 13-03-2014 07:05:00 1 C 93 % 0 C
2019 13-03-2014 07:10:00 0.9 C 94 % 0.05 C
2020 13-03-2014 07:15:00 0.9 C 94 % 0.05 C
2021 13-03-2014 07:20:00 0.9 C 94 % 0.05 C
2022 13-03-2014 07:25:00 0.9 C 94 % 0.05 C
2023 13-03-2014 07:30:00 1 C 94 % 0.15 C
2024 13-03-2014 07:35:00 1 C 94 % 0.15 C
2025 13-03-2014 07:40:00 1.1 C 94 % 0.24 C
Sensor: Nr:Datum:Temp:Feuchte:Taupunkt:
Aussen-T/F 2026 13-03-2014 07:45:00 1.2 C 95 % 0.49 C
2027 13-03-2014 07:50:00 1.3 C 95 % 0.59 C
2028 13-03-2014 07:55:00 1.3 C 95 % 0.59 C
2029 13-03-2014 08:00:00 1.3 C 95 % 0.59 C
2030 13-03-2014 08:05:00 1.4 C 95 % 0.69 C
2031 13-03-2014 08:10:00 1.5 C 94 % 0.64 C
2032 13-03-2014 08:15:00 1.5 C 94 % 0.64 C
2033 13-03-2014 08:20:00 1.5 C 94 % 0.64 C
2034 13-03-2014 08:25:00 1.6 C 95 % 0.89 C
2035 13-03-2014 08:30:00 1.7 C 95 % 0.99 C
2036 13-03-2014 08:35:00 1.7 C 95 % 0.99 C
2037 13-03-2014 08:40:00 1.8 C 94 % 0.94 C
2038 13-03-2014 08:45:00 1.8 C 95 % 1.09 C
2039 13-03-2014 08:50:00 1.9 C 95 % 1.19 C
2040 13-03-2014 08:55:00 2 C 94 % 1.14 C
2041 13-03-2014 09:00:00 2.2 C 94 % 1.34 C
2042 13-03-2014 09:05:00 2.3 C 94 % 1.44 C
2043 13-03-2014 09:10:00 2.4 C 94 % 1.54 C
2044 13-03-2014 09:15:00 2.4 C 94 % 1.54 C
2045 13-03-2014 09:20:00 2.6 C 94 % 1.73 C
2046 13-03-2014 09:25:00 2.7 C 94 % 1.83 C
2047 13-03-2014 09:30:00 2.9 C 94 % 2.03 C
2048 13-03-2014 09:35:00 3.2 C 94 % 2.33 C
2049 13-03-2014 09:40:00 3.4 C 93 % 2.38 C
2050 13-03-2014 09:45:00 3.8 C 93 % 2.77 C
Sensor: Nr:Datum:Temp:Feuchte:Taupunkt:
Aussen-T/F 2051 13-03-2014 09:50:00 4 C 92 % 2.82 C
2052 13-03-2014 09:55:00 4.2 C 92 % 3.02 C
2053 13-03-2014 10:00:00 4.4 C 91 % 3.06 C
2054 13-03-2014 10:05:00 4.7 C 91 % 3.36 C
2055 13-03-2014 10:10:00 4.9 C 90 % 3.4 C
2056 13-03-2014 10:15:00 5.2 C 90 % 3.7 C
2057 13-03-2014 10:20:00 5.5 C 89 % 3.84 C
2058 13-03-2014 10:25:00 5.6 C 89 % 3.93 C
2059 13-03-2014 10:30:00 5.8 C 89 % 4.13 C
2060 13-03-2014 10:35:00 5.9 C 89 % 4.23 C
2061 13-03-2014 10:40:00 6.2 C 89 % 4.53 C
2062 13-03-2014 10:45:00 6.4 C 88 % 4.56 C
2063 13-03-2014 10:50:00 6.7 C 87 % 4.69 C
2064 13-03-2014 10:55:00 7 C 86 % 4.82 C
2065 13-03-2014 11:00:00 7.2 C 86 % 5.02 C
2066 13-03-2014 11:05:00 7.4 C 85 % 5.05 C
2067 13-03-2014 11:10:00 7.6 C 85 % 5.24 C
2068 13-03-2014 11:15:00 7.9 C 85 % 5.54 C
2069 13-03-2014 11:20:00 8.1 C 84 % 5.56 C
2070 13-03-2014 11:25:00 8.3 C 82 % 5.41 C
2071 13-03-2014 11:30:00 8.6 C 83 % 5.88 C
2072 13-03-2014 11:35:00 8.8 C 82 % 5.9 C
2073 13-03-2014 11:40:00 9.1 C 81 % 6.02 C
2074 13-03-2014 11:45:00 9.4 C 79 % 5.95 C
2075 13-03-2014 11:50:00 9.8 C 76 % 5.78 C
Sensor: Nr:Datum:Temp:Feuchte:Taupunkt:
Aussen-T/F 2076 13-03-2014 11:55:00 10.3 C 76 % 6.26 C
2077 13-03-2014 12:00:00 10.8 C 74 % 6.36 C
2078 13-03-2014 12:05:00 11.3 C 71 % 6.24 C
2079 13-03-2014 12:10:00 11.8 C 70 % 6.51 C
2080 13-03-2014 12:15:00 12.4 C 70 % 7.09 C
2081 13-03-2014 12:20:00 13.1 C 70 % 7.76 C
2082 13-03-2014 12:25:00 13.8 C 64 % 7.12 C
2083 13-03-2014 12:30:00 14.3 C 61 % 6.89 C
2084 13-03-2014 12:35:00 14.8 C 61 % 7.36 C
2085 13-03-2014 12:40:00 15.3 C 58 % 7.09 C
2086 13-03-2014 12:45:00 15.7 C 58 % 7.47 C
2087 13-03-2014 12:50:00 16.1 C 58 % 7.84 C
2088 13-03-2014 12:55:00 16.5 C 55 % 7.44 C
2089 13-03-2014 13:00:00 16.9 C 54 % 7.54 C
2090 13-03-2014 13:05:00 17.1 C 54 % 7.73 C
2091 13-03-2014 13:10:00 17.3 C 51 % 7.08 C
2092 13-03-2014 13:15:00 17.6 C 50 % 7.06 C
2093 13-03-2014 13:20:00 17.7 C 52 % 7.73 C
2094 13-03-2014 13:25:00 17.6 C 48 % 6.47 C
2095 13-03-2014 13:30:00 17.5 C 52 % 7.54 C
2096 13-03-2014 13:35:00 17.4 C 49 % 6.59 C
2097 13-03-2014 13:40:00 17.3 C 49 % 6.5 C
2098 13-03-2014 13:45:00 17.3 C 49 % 6.5 C
2099 13-03-2014 13:50:00 17.3 C 46 % 5.58 C
2100 13-03-2014 13:55:00 17.2 C 52 % 7.27 C
Sensor: Nr:Datum:Temp:Feuchte:Taupunkt:
Aussen-T/F 2101 13-03-2014 14:00:00 17.2 C 44 % 4.85 C
2102 13-03-2014 14:05:00 17.2 C 47 % 5.8 C
2103 13-03-2014 14:10:00 17.3 C 47 % 5.89 C
2104 13-03-2014 14:15:00 17.4 C 45 % 5.36 C
2105 13-03-2014 14:20:00 17.4 C 46 % 5.67 C
2106 13-03-2014 14:25:00 17.6 C 48 % 6.47 C
2107 13-03-2014 14:30:00 17.7 C 45 % 5.63 C
2108 13-03-2014 14:35:00 17.7 C 44 % 5.31 C
2109 13-03-2014 14:40:00 17.7 C 38 % 3.22 C
2110 13-03-2014 14:45:00 17.8 C 41 % 4.39 C
2111 13-03-2014 14:50:00 17.8 C 44 % 5.4 C
2112 13-03-2014 14:55:00 17.8 C 42 % 4.73 C
2113 13-03-2014 15:00:00 18.1 C 39 % 3.94 C
2114 13-03-2014 15:05:00 18.3 C 41 % 4.83 C
2115 13-03-2014 15:10:00 18.3 C 39 % 4.12 C
2116 13-03-2014 15:15:00 18.4 C 40 % 4.57 C
2117 13-03-2014 15:20:00 18.5 C 44 % 6.03 C
2118 13-03-2014 15:25:00 18.2 C 45 % 6.08 C
2119 13-03-2014 15:30:00 18.2 C 42 % 5.09 C
2120 13-03-2014 15:35:00 18.5 C 40 % 4.66 C
2121 13-03-2014 15:40:00 18.9 C 38 % 4.29 C
2122 13-03-2014 15:45:00 19.3 C 39 % 5.01 C
2123 13-03-2014 15:50:00 19.5 C 38 % 4.82 C
2124 13-03-2014 15:55:00 19.4 C 33 % 2.73 C
2125 13-03-2014 16:00:00 19.3 C 39 % 5.01 C
Sensor: Nr:Datum:Temp:Feuchte:Taupunkt:
Aussen-T/F 2126 13-03-2014 16:05:00 19.1 C 37 % 4.08 C
2127 13-03-2014 16:10:00 18.8 C 41 % 5.28 C
2128 13-03-2014 16:15:00 18.6 C 39 % 4.39 C
2129 13-03-2014 16:20:00 18.5 C 39 % 4.3 C
2130 13-03-2014 16:25:00 18.4 C 35 % 2.68 C
2131 13-03-2014 16:30:00 18.6 C 34 % 2.45 C
2132 13-03-2014 16:35:00 18.6 C 29 % 0.24 C
2133 13-03-2014 16:40:00 18.6 C 32 % 1.6 C
2134 13-03-2014 16:45:00 18.6 C 30 % 0.71 C
2135 13-03-2014 16:50:00 18.5 C 31 % 1.07 C
2136 13-03-2014 16:55:00 18.4 C 31 % 0.99 C
2137 13-03-2014 17:00:00 18.3 C 33 % 1.77 C
2138 13-03-2014 17:05:00 18.2 C 33 % 1.68 C
2139 13-03-2014 17:10:00 18.1 C 34 % 2.01 C
2140 13-03-2014 17:15:00 18.1 C 34 % 2.01 C
2141 13-03-2014 17:20:00 17.9 C 33 % 1.42 C
2142 13-03-2014 17:25:00 17.8 C 34 % 1.75 C
2143 13-03-2014 17:30:00 17.8 C 33 % 1.33 C
2144 13-03-2014 17:35:00 17.8 C 35 % 2.15 C
2145 13-03-2014 17:40:00 17.9 C 34 % 1.83 C
2146 13-03-2014 17:45:00 17.8 C 37 % 2.93 C
2147 13-03-2014 17:50:00 17.3 C 37 % 2.49 C
2148 13-03-2014 17:55:00 16.5 C 42 % 3.56 C
2149 13-03-2014 18:00:00 15.4 C 48 % 4.46 C
2150 13-03-2014 18:05:00 14.6 C 50 % 4.31 C
Sensor: Nr:Datum:Temp:Feuchte:Taupunkt:
Aussen-T/F 2151 13-03-2014 18:10:00 13.9 C 51 % 3.94 C
2152 13-03-2014 18:15:00 13.6 C 52 % 3.94 C
2153 13-03-2014 18:20:00 13.1 C 54 % 4.01 C
2154 13-03-2014 18:25:00 12.8 C 56 % 4.25 C
2155 13-03-2014 18:30:00 12.4 C 56 % 3.88 C
2156 13-03-2014 18:35:00 12.2 C 56 % 3.69 C
2157 13-03-2014 18:40:00 12 C 58 % 4 C
2158 13-03-2014 18:45:00 11.9 C 57 % 3.66 C
2159 13-03-2014 18:50:00 11.8 C 57 % 3.57 C
2160 13-03-2014 18:55:00 11.5 C 58 % 3.54 C
2161 13-03-2014 19:00:00 11.4 C 58 % 3.44 C
2162 13-03-2014 19:05:00 11.2 C 59 % 3.5 C
2163 13-03-2014 19:10:00 11.2 C 58 % 3.25 C
2164 13-03-2014 19:15:00 11.1 C 58 % 3.16 C
2165 13-03-2014 19:20:00 10.9 C 59 % 3.21 C
2166 13-03-2014 19:25:00 10.7 C 59 % 3.03 C
2167 13-03-2014 19:30:00 10.7 C 59 % 3.03 C
2168 13-03-2014 19:35:00 10.5 C 60 % 3.08 C
2169 13-03-2014 19:40:00 10.3 C 62 % 3.35 C
2170 13-03-2014 19:45:00 10.1 C 63 % 3.39 C
2171 13-03-2014 19:50:00 9.9 C 64 % 3.42 C
2172 13-03-2014 19:55:00 9.7 C 64 % 3.23 C
2173 13-03-2014 20:00:00 9.4 C 65 % 3.16 C
2174 13-03-2014 20:05:00 9.3 C 66 % 3.28 C
2175 13-03-2014 20:10:00 9.2 C 67 % 3.4 C
Sensor: Nr:Datum:Temp:Feuchte:Taupunkt:
Aussen-T/F 2176 13-03-2014 20:15:00 9.1 C 67 % 3.31 C
2177 13-03-2014 20:20:00 8.9 C 67 % 3.12 C
2178 13-03-2014 20:25:00 8.8 C 68 % 3.23 C
2179 13-03-2014 20:30:00 8.8 C 68 % 3.23 C
2180 13-03-2014 20:35:00 8.7 C 68 % 3.13 C
2181 13-03-2014 20:40:00 8.6 C 70 % 3.45 C
2182 13-03-2014 20:45:00 8.3 C 70 % 3.16 C
2183 13-03-2014 20:50:00 8.2 C 72 % 3.46 C
2184 13-03-2014 20:55:00 8.2 C 70 % 3.06 C
2185 13-03-2014 21:00:00 8.1 C 69 % 2.77 C
2186 13-03-2014 21:05:00 7.9 C 71 % 2.98 C
2187 13-03-2014 21:10:00 7.8 C 71 % 2.88 C
2188 13-03-2014 21:15:00 7.7 C 72 % 2.98 C
2189 13-03-2014 21:20:00 7.6 C 74 % 3.27 C
2190 13-03-2014 21:25:00 7.5 C 73 % 2.98 C
2191 13-03-2014 21:30:00 7.3 C 71 % 2.4 C
2192 13-03-2014 21:35:00 7.3 C 73 % 2.79 C
2193 13-03-2014 21:40:00 7.2 C 73 % 2.69 C
2194 13-03-2014 21:45:00 7.1 C 76 % 3.16 C
2195 13-03-2014 21:50:00 6.9 C 75 % 2.78 C
2196 13-03-2014 21:55:00 6.9 C 74 % 2.6 C
2197 13-03-2014 22:00:00 6.7 C 74 % 2.4 C
2198 13-03-2014 22:05:00 6.6 C 76 % 2.68 C
2199 13-03-2014 22:10:00 6.5 C 75 % 2.4 C
2200 13-03-2014 22:15:00 6.4 C 75 % 2.3 C
Sensor: Nr:Datum:Temp:Feuchte:Taupunkt:
Aussen-T/F 2201 13-03-2014 22:20:00 6.3 C 77 % 2.57 C
2202 13-03-2014 22:25:00 6.2 C 76 % 2.29 C
2203 13-03-2014 22:30:00 6.2 C 77 % 2.48 C
2204 13-03-2014 22:35:00 5.9 C 77 % 2.19 C
2205 13-03-2014 22:40:00 5.8 C 79 % 2.45 C
2206 13-03-2014 22:45:00 5.8 C 80 % 2.62 C
2207 13-03-2014 22:50:00 5.8 C 81 % 2.8 C
2208 13-03-2014 22:55:00 5.8 C 80 % 2.62 C
2209 13-03-2014 23:00:00 5.8 C 79 % 2.45 C
2210 13-03-2014 23:05:00 5.8 C 79 % 2.45 C
2211 13-03-2014 23:10:00 5.8 C 78 % 2.27 C
2212 13-03-2014 23:15:00 5.8 C 78 % 2.27 C
2213 13-03-2014 23:20:00 5.8 C 78 % 2.27 C
2214 13-03-2014 23:25:00 5.7 C 79 % 2.35 C
2215 13-03-2014 23:30:00 5.6 C 78 % 2.07 C
2216 13-03-2014 23:35:00 5.6 C 79 % 2.25 C
2217 13-03-2014 23:40:00 5.6 C 79 % 2.25 C
2218 13-03-2014 23:45:00 5.4 C 80 % 2.23 C
2219 13-03-2014 23:50:00 5.4 C 79 % 2.06 C
2220 13-03-2014 23:55:00 5.4 C 79 % 2.06 C
2221 14-03-2014 00:00:00 5.3 C 80 % 2.14 C
2222 14-03-2014 00:05:00 5.3 C 80 % 2.14 C
2223 14-03-2014 00:10:00 5.2 C 80 % 2.04 C
2224 14-03-2014 00:15:00 5.2 C 80 % 2.04 C
2225 14-03-2014 00:20:00 5.2 C 80 % 2.04 C
Sensor: Nr:Datum:Temp:Feuchte:Taupunkt:
Aussen-T/F 2226 14-03-2014 00:25:00 5.1 C 80 % 1.94 C
2227 14-03-2014 00:30:00 5.1 C 81 % 2.12 C
2228 14-03-2014 00:35:00 4.9 C 81 % 1.92 C
2229 14-03-2014 00:40:00 4.8 C 81 % 1.82 C
2230 14-03-2014 00:45:00 4.7 C 82 % 1.9 C
2231 14-03-2014 00:50:00 4.7 C 82 % 1.9 C
2232 14-03-2014 00:55:00 4.7 C 82 % 1.9 C
2233 14-03-2014 01:00:00 4.5 C 82 % 1.7 C
2234 14-03-2014 01:05:00 4.4 C 82 % 1.6 C
2235 14-03-2014 01:10:00 4.3 C 83 % 1.67 C
2236 14-03-2014 01:15:00 4.3 C 83 % 1.67 C
2237 14-03-2014 01:20:00 4.3 C 83 % 1.67 C
2238 14-03-2014 01:25:00 4.3 C 83 % 1.67 C
2239 14-03-2014 01:30:00 4.2 C 83 % 1.58 C
2240 14-03-2014 01:35:00 4.2 C 85 % 1.91 C
2241 14-03-2014 01:40:00 4.2 C 84 % 1.74 C
2242 14-03-2014 01:45:00 4.2 C 84 % 1.74 C
2243 14-03-2014 01:50:00 4.1 C 84 % 1.65 C
2244 14-03-2014 01:55:00 4.1 C 84 % 1.65 C
2245 14-03-2014 02:00:00 3.9 C 84 % 1.45 C
2246 14-03-2014 02:05:00 4 C 84 % 1.55 C
2247 14-03-2014 02:10:00 3.9 C 84 % 1.45 C
2248 14-03-2014 02:15:00 3.8 C 84 % 1.35 C
2249 14-03-2014 02:20:00 3.7 C 84 % 1.25 C
2250 14-03-2014 02:25:00 3.5 C 85 % 1.22 C
Sensor: Nr:Datum:Temp:Feuchte:Taupunkt:
Aussen-T/F 2251 14-03-2014 02:30:00 3.4 C 86 % 1.29 C
2252 14-03-2014 02:35:00 3.4 C 86 % 1.29 C
2253 14-03-2014 02:40:00 3.3 C 86 % 1.19 C
2254 14-03-2014 02:45:00 3.2 C 86 % 1.09 C
2255 14-03-2014 02:50:00 2.9 C 86 % 0.8 C
2256 14-03-2014 02:55:00 2.9 C 87 % 0.96 C
2257 14-03-2014 03:00:00 2.8 C 88 % 1.02 C
2258 14-03-2014 03:05:00 2.8 C 88 % 1.02 C
2259 14-03-2014 03:10:00 2.8 C 88 % 1.02 C
2260 14-03-2014 03:15:00 2.8 C 88 % 1.02 C
2261 14-03-2014 03:20:00 2.7 C 88 % 0.92 C
2262 14-03-2014 03:25:00 2.7 C 88 % 0.92 C
2263 14-03-2014 03:30:00 2.7 C 88 % 0.92 C
2264 14-03-2014 03:35:00 2.6 C 88 % 0.82 C
2265 14-03-2014 03:40:00 2.6 C 88 % 0.82 C
2266 14-03-2014 03:45:00 2.4 C 88 % 0.62 C
2267 14-03-2014 03:50:00 2.4 C 89 % 0.78 C
2268 14-03-2014 03:55:00 2.4 C 89 % 0.78 C
2269 14-03-2014 04:00:00 2.3 C 89 % 0.68 C
2270 14-03-2014 04:05:00 2.2 C 89 % 0.58 C
2271 14-03-2014 04:10:00 2.2 C 89 % 0.58 C
2272 14-03-2014 04:15:00 2.1 C 90 % 0.64 C
2273 14-03-2014 04:20:00 2.1 C 90 % 0.64 C
2274 14-03-2014 04:25:00 2.1 C 90 % 0.64 C
2275 14-03-2014 04:30:00 2 C 90 % 0.54 C
Sensor: Nr:Datum:Temp:Feuchte:Taupunkt:
Aussen-T/F 2276 14-03-2014 04:35:00 1.9 C 90 % 0.44 C
2277 14-03-2014 04:40:00 1.9 C 90 % 0.44 C
2278 14-03-2014 04:45:00 1.8 C 90 % 0.34 C
2279 14-03-2014 04:50:00 1.8 C 90 % 0.34 C
2280 14-03-2014 04:55:00 1.7 C 91 % 0.39 C
2281 14-03-2014 05:00:00 1.7 C 91 % 0.39 C
2282 14-03-2014 05:05:00 1.7 C 91 % 0.39 C
2283 14-03-2014 05:10:00 1.6 C 91 % 0.29 C
2284 14-03-2014 05:15:00 1.6 C 91 % 0.29 C
2285 14-03-2014 05:20:00 1.6 C 91 % 0.29 C
2286 14-03-2014 05:25:00 1.7 C 92 % 0.54 C
2287 14-03-2014 05:30:00 1.7 C 92 % 0.54 C
2288 14-03-2014 05:35:00 1.7 C 91 % 0.39 C
2289 14-03-2014 05:40:00 1.6 C 91 % 0.29 C
2290 14-03-2014 05:45:00 1.6 C 92 % 0.44 C
2291 14-03-2014 05:50:00 1.7 C 92 % 0.54 C
2292 14-03-2014 05:55:00 1.7 C 92 % 0.54 C
2293 14-03-2014 06:00:00 1.7 C 91 % 0.39 C
2294 14-03-2014 06:05:00 1.6 C 91 % 0.29 C
2295 14-03-2014 06:10:00 1.4 C 91 % 0.1 C
2296 14-03-2014 06:15:00 1.4 C 91 % 0.1 C
2297 14-03-2014 06:20:00 1.3 C 92 % 0.15 C
2298 14-03-2014 06:25:00 1.2 C 92 % 0.05 C
2299 14-03-2014 06:30:00 1.2 C 92 % 0.05 C
2300 14-03-2014 06:35:00 1.2 C 92 % 0.05 C
Sensor: Nr:Datum:Temp:Feuchte:Taupunkt:
Aussen-T/F 2301 14-03-2014 06:40:00 1.1 C 92 % -0.05 C
2302 14-03-2014 06:45:00 0.9 C 92 % -0.25 C
2303 14-03-2014 06:50:00 1 C 93 % 0 C
2304 14-03-2014 06:55:00 1.1 C 93 % 0.1 C
2305 14-03-2014 07:00:00 1.1 C 93 % 0.1 C
2306 14-03-2014 07:05:00 1.2 C 93 % 0.2 C
2307 14-03-2014 07:10:00 1.2 C 93 % 0.2 C
2308 14-03-2014 07:15:00 1.2 C 93 % 0.2 C
2309 14-03-2014 07:20:00 1.1 C 92 % -0.05 C
2310 14-03-2014 07:25:00 1 C 93 % 0 C
2311 14-03-2014 07:30:00 0.9 C 93 % -0.1 C
2312 14-03-2014 07:35:00 0.9 C 93 % -0.1 C
2313 14-03-2014 07:40:00 0.9 C 93 % -0.1 C
2314 14-03-2014 07:45:00 1 C 93 % 0 C
2315 14-03-2014 07:50:00 1.1 C 93 % 0.1 C
2316 14-03-2014 07:55:00 1.1 C 93 % 0.1 C
2317 14-03-2014 08:00:00 1.2 C 93 % 0.2 C
2318 14-03-2014 08:05:00 1.2 C 93 % 0.2 C
2319 14-03-2014 08:10:00 1.2 C 94 % 0.34 C
2320 14-03-2014 08:15:00 1.3 C 94 % 0.44 C
2321 14-03-2014 08:20:00 1.3 C 94 % 0.44 C
2322 14-03-2014 08:25:00 1.4 C 94 % 0.54 C
2323 14-03-2014 08:30:00 1.5 C 94 % 0.64 C
2324 14-03-2014 08:35:00 1.6 C 94 % 0.74 C
2325 14-03-2014 08:40:00 1.7 C 94 % 0.84 C
Sensor: Nr:Datum:Temp:Feuchte:Taupunkt:
Aussen-T/F 2326 14-03-2014 08:45:00 1.7 C 94 % 0.84 C
2327 14-03-2014 08:50:00 1.8 C 94 % 0.94 C
2328 14-03-2014 08:55:00 1.8 C 94 % 0.94 C
2329 14-03-2014 09:00:00 2 C 94 % 1.14 C
2330 14-03-2014 09:05:00 2.1 C 94 % 1.24 C
2331 14-03-2014 09:10:00 2.3 C 94 % 1.44 C
2332 14-03-2014 09:15:00 2.4 C 94 % 1.54 C
2333 14-03-2014 09:20:00 2.7 C 94 % 1.83 C
2334 14-03-2014 09:25:00 2.8 C 94 % 1.93 C
2335 14-03-2014 09:30:00 3.1 C 94 % 2.23 C
2336 14-03-2014 09:35:00 3.3 C 93 % 2.28 C
2337 14-03-2014 09:40:00 3.6 C 92 % 2.42 C
2338 14-03-2014 09:45:00 3.8 C 91 % 2.47 C
2339 14-03-2014 09:50:00 4.1 C 91 % 2.77 C
2340 14-03-2014 09:55:00 4.3 C 90 % 2.81 C
2341 14-03-2014 10:00:00 4.6 C 90 % 3.1 C
2342 14-03-2014 10:05:00 4.8 C 88 % 2.99 C
2343 14-03-2014 10:10:00 5.2 C 88 % 3.38 C
2344 14-03-2014 10:15:00 5.5 C 88 % 3.67 C
2345 14-03-2014 10:20:00 5.7 C 87 % 3.71 C
2346 14-03-2014 10:25:00 5.9 C 87 % 3.91 C
2347 14-03-2014 10:30:00 6.2 C 85 % 3.87 C
2348 14-03-2014 10:35:00 6.5 C 85 % 4.17 C
2349 14-03-2014 10:40:00 6.7 C 85 % 4.36 C
2350 14-03-2014 10:45:00 6.9 C 84 % 4.39 C
Sensor: Nr:Datum:Temp:Feuchte:Taupunkt:
Aussen-T/F 2351 14-03-2014 10:50:00 7.2 C 84 % 4.68 C
2352 14-03-2014 10:55:00 7.4 C 81 % 4.36 C
2353 14-03-2014 11:00:00 7.7 C 83 % 5 C
2354 14-03-2014 11:05:00 7.8 C 82 % 4.92 C
2355 14-03-2014 11:10:00 8.1 C 79 % 4.68 C
2356 14-03-2014 11:15:00 8.2 C 79 % 4.78 C
2357 14-03-2014 11:20:00 8.4 C 78 % 4.79 C
2358 14-03-2014 11:25:00 8.7 C 77 % 4.9 C
2359 14-03-2014 11:30:00 9.1 C 77 % 5.29 C
2360 14-03-2014 11:35:00 9.4 C 76 % 5.39 C
2361 14-03-2014 11:40:00 9.7 C 76 % 5.68 C
2362 14-03-2014 11:45:00 10.1 C 78 % 6.44 C
2363 14-03-2014 11:50:00 10.4 C 75 % 6.17 C
2364 14-03-2014 11:55:00 10.8 C 72 % 5.96 C
2365 14-03-2014 12:00:00 11.1 C 73 % 6.45 C
2366 14-03-2014 12:05:00 11.4 C 72 % 6.54 C
2367 14-03-2014 12:10:00 11.8 C 71 % 6.72 C
2368 14-03-2014 12:15:00 12.3 C 71 % 7.2 C
2369 14-03-2014 12:20:00 12.8 C 69 % 7.26 C
2370 14-03-2014 12:25:00 13.3 C 67 % 7.31 C
2371 14-03-2014 12:30:00 13.8 C 64 % 7.12 C
2372 14-03-2014 12:35:00 14.2 C 61 % 6.8 C
2373 14-03-2014 12:40:00 14.6 C 64 % 7.87 C
2374 14-03-2014 12:45:00 14.8 C 60 % 7.12 C
2375 14-03-2014 12:50:00 15.3 C 61 % 7.83 C
Sensor: Nr:Datum:Temp:Feuchte:Taupunkt:
Aussen-T/F 2376 14-03-2014 12:55:00 15.5 C 60 % 7.78 C
2377 14-03-2014 13:00:00 15.7 C 56 % 6.96 C
2378 14-03-2014 13:05:00 15.7 C 55 % 6.69 C
2379 14-03-2014 13:10:00 15.7 C 56 % 6.96 C
2380 14-03-2014 13:15:00 15.7 C 55 % 6.69 C
2381 14-03-2014 13:20:00 15.7 C 56 % 6.96 C
2382 14-03-2014 13:25:00 15.8 C 55 % 6.79 C
2383 14-03-2014 13:30:00 15.9 C 55 % 6.88 C
2384 14-03-2014 13:35:00 16 C 57 % 7.49 C
2385 14-03-2014 13:40:00 15.9 C 56 % 7.14 C
2386 14-03-2014 13:45:00 15.9 C 54 % 6.61 C
2387 14-03-2014 13:50:00 15.9 C 53 % 6.34 C
2388 14-03-2014 13:55:00 15.9 C 53 % 6.34 C
2389 14-03-2014 14:00:00 15.8 C 55 % 6.79 C
2390 14-03-2014 14:05:00 15.9 C 54 % 6.61 C
2391 14-03-2014 14:10:00 16 C 51 % 5.88 C
2392 14-03-2014 14:15:00 16.2 C 48 % 5.19 C
2393 14-03-2014 14:20:00 16.2 C 45 % 4.27 C
2394 14-03-2014 14:25:00 16.2 C 48 % 5.19 C
2395 14-03-2014 14:30:00 16.3 C 51 % 6.16 C
2396 14-03-2014 14:35:00 16.3 C 48 % 5.28 C
2397 14-03-2014 14:40:00 16.4 C 47 % 5.07 C
2398 14-03-2014 14:45:00 16.6 C 47 % 5.25 C
2399 14-03-2014 14:50:00 16.7 C 47 % 5.34 C
2400 14-03-2014 14:55:00 16.8 C 46 % 5.13 C
Sensor: Nr:Datum:Temp:Feuchte:Taupunkt:
Aussen-T/F 2401 14-03-2014 15:00:00 16.9 C 50 % 6.42 C
2402 14-03-2014 15:05:00 16.9 C 47 % 5.53 C
2403 14-03-2014 15:10:00 17.1 C 47 % 5.71 C
2404 14-03-2014 15:15:00 17.1 C 45 % 5.08 C
2405 14-03-2014 15:20:00 17.1 C 47 % 5.71 C
2406 14-03-2014 15:25:00 17.2 C 44 % 4.85 C
2407 14-03-2014 15:30:00 17.4 C 43 % 4.71 C
2408 14-03-2014 15:35:00 17.6 C 44 % 5.22 C
2409 14-03-2014 15:40:00 17.8 C 42 % 4.73 C
2410 14-03-2014 15:45:00 17.9 C 44 % 5.49 C
2411 14-03-2014 15:50:00 18.2 C 40 % 4.39 C
2412 14-03-2014 15:55:00 18.1 C 41 % 4.66 C
2413 14-03-2014 16:00:00 17.9 C 39 % 3.76 C
2414 14-03-2014 16:05:00 17.7 C 41 % 4.3 C
2415 14-03-2014 16:10:00 17.4 C 41 % 4.03 C
2416 14-03-2014 16:15:00 17.3 C 42 % 4.28 C
2417 14-03-2014 16:20:00 17.3 C 41 % 3.94 C
2418 14-03-2014 16:25:00 17.2 C 43 % 4.53 C
2419 14-03-2014 16:30:00 17.1 C 47 % 5.71 C
2420 14-03-2014 16:35:00 16.9 C 46 % 5.22 C
2421 14-03-2014 16:40:00 16.8 C 47 % 5.44 C
2422 14-03-2014 16:45:00 16.6 C 47 % 5.25 C
2423 14-03-2014 16:50:00 16.4 C 49 % 5.67 C
2424 14-03-2014 16:55:00 16.2 C 49 % 5.49 C
2425 14-03-2014 17:00:00 16 C 54 % 6.71 C
Sensor: Nr:Datum:Temp:Feuchte:Taupunkt:
Aussen-T/F 2426 14-03-2014 17:05:00 15.7 C 56 % 6.96 C
2427 14-03-2014 17:10:00 15.2 C 59 % 7.25 C
2428 14-03-2014 17:15:00 14.9 C 59 % 6.97 C
2429 14-03-2014 17:20:00 14.7 C 61 % 7.27 C
2430 14-03-2014 17:25:00 14.4 C 61 % 6.98 C
2431 14-03-2014 17:30:00 14.3 C 62 % 7.13 C
2432 14-03-2014 17:35:00 14.1 C 62 % 6.94 C
2433 14-03-2014 17:40:00 13.9 C 62 % 6.75 C
2434 14-03-2014 17:45:00 13.8 C 63 % 6.89 C
2435 14-03-2014 17:50:00 13.6 C 64 % 6.93 C
2436 14-03-2014 17:55:00 13.4 C 65 % 6.96 C
2437 14-03-2014 18:00:00 13.2 C 66 % 7 C
2438 14-03-2014 18:05:00 12.9 C 66 % 6.71 C
2439 14-03-2014 18:10:00 12.8 C 66 % 6.61 C
2440 14-03-2014 18:15:00 12.7 C 67 % 6.74 C
2441 14-03-2014 18:20:00 12.5 C 67 % 6.55 C
2442 14-03-2014 18:25:00 12.3 C 67 % 6.36 C
2443 14-03-2014 18:30:00 12.1 C 68 % 6.38 C
2444 14-03-2014 18:35:00 11.8 C 69 % 6.31 C
2445 14-03-2014 18:40:00 11.6 C 69 % 6.11 C
2446 14-03-2014 18:45:00 11.5 C 70 % 6.23 C
2447 14-03-2014 18:50:00 11.3 C 70 % 6.03 C
2448 14-03-2014 18:55:00 11.2 C 71 % 6.14 C
2449 14-03-2014 19:00:00 11.2 C 71 % 6.14 C
2450 14-03-2014 19:05:00 11.1 C 72 % 6.25 C
Sensor: Nr:Datum:Temp:Feuchte:Taupunkt:
Aussen-T/F 2451 14-03-2014 19:10:00 10.8 C 73 % 6.16 C
2452 14-03-2014 19:15:00 10.7 C 73 % 6.07 C
2453 14-03-2014 19:20:00 10.4 C 74 % 5.97 C
2454 14-03-2014 19:25:00 10.3 C 73 % 5.68 C
2455 14-03-2014 19:30:00 10.2 C 75 % 5.97 C
2456 14-03-2014 19:35:00 9.9 C 76 % 5.87 C
2457 14-03-2014 19:40:00 9.8 C 76 % 5.78 C
2458 14-03-2014 19:45:00 9.7 C 77 % 5.87 C
2459 14-03-2014 19:50:00 9.6 C 76 % 5.58 C
2460 14-03-2014 19:55:00 9.7 C 77 % 5.87 C
2461 14-03-2014 20:00:00 9.8 C 77 % 5.97 C
2462 14-03-2014 20:05:00 9.8 C 77 % 5.97 C
2463 14-03-2014 20:10:00 9.7 C 78 % 6.06 C
2464 14-03-2014 20:15:00 9.4 C 79 % 5.95 C
2465 14-03-2014 20:20:00 9.4 C 78 % 5.76 C
2466 14-03-2014 20:25:00 9.4 C 79 % 5.95 C
2467 14-03-2014 20:30:00 9.5 C 79 % 6.05 C
2468 14-03-2014 20:35:00 9.6 C 78 % 5.96 C
2469 14-03-2014 20:40:00 9.6 C 79 % 6.14 C
2470 14-03-2014 20:45:00 9.5 C 80 % 6.23 C
2471 14-03-2014 20:50:00 9.3 C 80 % 6.03 C
2472 14-03-2014 20:55:00 9.1 C 80 % 5.84 C
2473 14-03-2014 21:00:00 9 C 81 % 5.92 C
2474 14-03-2014 21:05:00 8.9 C 81 % 5.82 C
2475 14-03-2014 21:10:00 8.8 C 82 % 5.9 C
Sensor: Nr:Datum:Temp:Feuchte:Taupunkt:
Aussen-T/F 2476 14-03-2014 21:15:00 8.8 C 80 % 5.55 C
2477 14-03-2014 21:20:00 8.6 C 80 % 5.35 C
2478 14-03-2014 21:25:00 8.3 C 82 % 5.41 C
2479 14-03-2014 21:30:00 8.2 C 83 % 5.49 C
2480 14-03-2014 21:35:00 8.2 C 82 % 5.32 C
2481 14-03-2014 21:40:00 8 C 82 % 5.12 C
2482 14-03-2014 21:45:00 7.9 C 83 % 5.2 C
2483 14-03-2014 21:50:00 7.7 C 84 % 5.17 C
2484 14-03-2014 21:55:00 7.6 C 85 % 5.24 C
2485 14-03-2014 22:00:00 7.5 C 85 % 5.15 C
2486 14-03-2014 22:05:00 7.4 C 85 % 5.05 C
2487 14-03-2014 22:10:00 7.2 C 84 % 4.68 C
2488 14-03-2014 22:15:00 7 C 85 % 4.66 C
2489 14-03-2014 22:20:00 6.8 C 86 % 4.63 C
2490 14-03-2014 22:25:00 6.8 C 87 % 4.79 C
2491 14-03-2014 22:30:00 6.7 C 87 % 4.69 C
2492 14-03-2014 22:35:00 6.6 C 87 % 4.6 C
2493 14-03-2014 22:40:00 6.6 C 88 % 4.76 C
2494 14-03-2014 22:45:00 6.8 C 87 % 4.79 C
2495 14-03-2014 22:50:00 7.2 C 85 % 4.85 C
2496 14-03-2014 22:55:00 7.4 C 84 % 4.88 C
2497 14-03-2014 23:00:00 7.5 C 83 % 4.81 C
2498 14-03-2014 23:05:00 7.5 C 83 % 4.81 C
2499 14-03-2014 23:10:00 7.5 C 83 % 4.81 C
2500 14-03-2014 23:15:00 7.3 C 83 % 4.61 C
Sensor: Nr:Datum:Temp:Feuchte:Taupunkt:
Aussen-T/F 2501 14-03-2014 23:20:00 7.2 C 84 % 4.68 C
2502 14-03-2014 23:25:00 7.2 C 83 % 4.51 C
2503 14-03-2014 23:30:00 7.2 C 83 % 4.51 C
2504 14-03-2014 23:35:00 7.2 C 83 % 4.51 C
2505 14-03-2014 23:40:00 7.2 C 83 % 4.51 C
2506 14-03-2014 23:45:00 7.2 C 83 % 4.51 C
2507 14-03-2014 23:50:00 7.2 C 83 % 4.51 C
2508 14-03-2014 23:55:00 7.1 C 84 % 4.58 C
2509 15-03-2014 00:00:00 6.9 C 84 % 4.39 C
2510 15-03-2014 00:05:00 6.9 C 84 % 4.39 C
2511 15-03-2014 00:10:00 7 C 83 % 4.32 C
2512 15-03-2014 00:15:00 6.9 C 83 % 4.22 C
2513 15-03-2014 00:20:00 6.9 C 83 % 4.22 C
2514 15-03-2014 00:25:00 6.8 C 83 % 4.12 C
2515 15-03-2014 00:30:00 6.8 C 83 % 4.12 C
2516 15-03-2014 00:35:00 7 C 83 % 4.32 C
2517 15-03-2014 00:40:00 6.9 C 83 % 4.22 C
2518 15-03-2014 00:45:00 6.6 C 83 % 3.92 C
2519 15-03-2014 00:50:00 6.4 C 84 % 3.9 C
2520 15-03-2014 00:55:00 6.6 C 84 % 4.1 C
2521 15-03-2014 01:00:00 6.7 C 83 % 4.02 C
2522 15-03-2014 01:05:00 6.8 C 83 % 4.12 C
2523 15-03-2014 01:10:00 6.9 C 82 % 4.05 C
2524 15-03-2014 01:15:00 7 C 82 % 4.14 C
2525 15-03-2014 01:20:00 7.1 C 82 % 4.24 C
Sensor: Nr:Datum:Temp:Feuchte:Taupunkt:
Aussen-T/F 2526 15-03-2014 01:25:00 7.2 C 82 % 4.34 C
2527 15-03-2014 01:30:00 7.2 C 82 % 4.34 C
2528 15-03-2014 01:35:00 7.2 C 82 % 4.34 C
2529 15-03-2014 01:40:00 7.5 C 80 % 4.28 C
2530 15-03-2014 01:45:00 7.6 C 80 % 4.38 C
2531 15-03-2014 01:50:00 7.5 C 80 % 4.28 C
2532 15-03-2014 01:55:00 7.4 C 80 % 4.18 C
2533 15-03-2014 02:00:00 7.5 C 80 % 4.28 C
2534 15-03-2014 02:05:00 7.6 C 80 % 4.38 C
2535 15-03-2014 02:10:00 7.4 C 80 % 4.18 C
2536 15-03-2014 02:15:00 7.2 C 81 % 4.16 C
2537 15-03-2014 02:20:00 7.1 C 81 % 4.07 C
2538 15-03-2014 02:25:00 7 C 82 % 4.14 C
2539 15-03-2014 02:30:00 7.1 C 81 % 4.07 C
2540 15-03-2014 02:35:00 7.1 C 81 % 4.07 C
2541 15-03-2014 02:40:00 7.1 C 81 % 4.07 C
2542 15-03-2014 02:45:00 7.1 C 81 % 4.07 C
2543 15-03-2014 02:50:00 7.3 C 80 % 4.09 C
2544 15-03-2014 02:55:00 7.3 C 79 % 3.91 C
2545 15-03-2014 03:00:00 7.3 C 79 % 3.91 C
2546 15-03-2014 03:05:00 7.2 C 79 % 3.81 C
2547 15-03-2014 03:10:00 7.1 C 80 % 3.89 C
2548 15-03-2014 03:15:00 7 C 80 % 3.79 C
2549 15-03-2014 03:20:00 7 C 80 % 3.79 C
2550 15-03-2014 03:25:00 7.1 C 80 % 3.89 C
Sensor: Nr:Datum:Temp:Feuchte:Taupunkt:
Aussen-T/F 2551 15-03-2014 03:30:00 7.1 C 80 % 3.89 C
2552 15-03-2014 03:35:00 7.1 C 79 % 3.71 C
2553 15-03-2014 03:40:00 7.2 C 79 % 3.81 C
2554 15-03-2014 03:45:00 7.3 C 79 % 3.91 C
2555 15-03-2014 03:50:00 7.3 C 79 % 3.91 C
2556 15-03-2014 03:55:00 7.4 C 78 % 3.82 C
2557 15-03-2014 04:00:00 7.5 C 78 % 3.92 C
2558 15-03-2014 04:05:00 7.6 C 78 % 4.02 C
2559 15-03-2014 04:10:00 7.4 C 78 % 3.82 C
2560 15-03-2014 04:15:00 7.5 C 78 % 3.92 C
2561 15-03-2014 04:20:00 7.6 C 78 % 4.02 C
2562 15-03-2014 04:25:00 7.8 C 77 % 4.03 C
2563 15-03-2014 04:30:00 7.7 C 78 % 4.11 C
2564 15-03-2014 04:35:00 7.5 C 78 % 3.92 C
2565 15-03-2014 04:40:00 7.6 C 78 % 4.02 C
2566 15-03-2014 04:45:00 7.8 C 77 % 4.03 C
2567 15-03-2014 04:50:00 8 C 77 % 4.22 C
2568 15-03-2014 04:55:00 8.1 C 76 % 4.13 C
2569 15-03-2014 05:00:00 8.2 C 76 % 4.23 C
2570 15-03-2014 05:05:00 8.2 C 76 % 4.23 C
2571 15-03-2014 05:10:00 8.2 C 77 % 4.42 C
2572 15-03-2014 05:15:00 8.1 C 77 % 4.32 C
2573 15-03-2014 05:20:00 8.2 C 77 % 4.42 C
2574 15-03-2014 05:25:00 8.2 C 77 % 4.42 C
2575 15-03-2014 05:30:00 8.3 C 76 % 4.33 C
Sensor: Nr:Datum:Temp:Feuchte:Taupunkt:
Aussen-T/F 2576 15-03-2014 05:35:00 8.3 C 78 % 4.7 C
2577 15-03-2014 05:40:00 8.7 C 79 % 5.27 C
2578 15-03-2014 05:45:00 9 C 78 % 5.38 C
2579 15-03-2014 05:50:00 9.2 C 77 % 5.38 C
2580 15-03-2014 05:55:00 9.2 C 77 % 5.38 C
2581 15-03-2014 06:00:00 9.1 C 78 % 5.47 C
2582 15-03-2014 06:05:00 8.9 C 79 % 5.46 C
2583 15-03-2014 06:10:00 9.1 C 79 % 5.66 C
2584 15-03-2014 06:15:00 9.1 C 78 % 5.47 C
2585 15-03-2014 06:20:00 9.2 C 79 % 5.75 C
2586 15-03-2014 06:25:00 9.2 C 78 % 5.57 C
2587 15-03-2014 06:30:00 9.2 C 79 % 5.75 C
2588 15-03-2014 06:35:00 9.2 C 79 % 5.75 C
2589 15-03-2014 06:40:00 9.2 C 79 % 5.75 C
2590 15-03-2014 06:45:00 9.3 C 79 % 5.85 C
2591 15-03-2014 06:50:00 9.4 C 79 % 5.95 C
2592 15-03-2014 06:55:00 9.5 C 79 % 6.05 C
2593 15-03-2014 07:00:00 9.5 C 79 % 6.05 C
2594 15-03-2014 07:05:00 9.5 C 79 % 6.05 C
2595 15-03-2014 07:10:00 9.6 C 78 % 5.96 C
2596 15-03-2014 07:15:00 9.6 C 78 % 5.96 C
2597 15-03-2014 07:20:00 9.6 C 78 % 5.96 C
2598 15-03-2014 07:25:00 9.6 C 78 % 5.96 C
2599 15-03-2014 07:30:00 9.6 C 78 % 5.96 C
2600 15-03-2014 07:35:00 9.6 C 78 % 5.96 C
Sensor: Nr:Datum:Temp:Feuchte:Taupunkt:
Aussen-T/F 2601 15-03-2014 07:40:00 9.6 C 78 % 5.96 C
2602 15-03-2014 07:45:00 9.6 C 78 % 5.96 C
2603 15-03-2014 07:50:00 9.6 C 78 % 5.96 C
2604 15-03-2014 07:55:00 9.6 C 79 % 6.14 C
2605 15-03-2014 08:00:00 9.6 C 79 % 6.14 C
2606 15-03-2014 08:05:00 9.6 C 80 % 6.32 C
2607 15-03-2014 08:10:00 9.5 C 80 % 6.23 C
2608 15-03-2014 08:15:00 9.4 C 81 % 6.31 C
2609 15-03-2014 08:20:00 9.4 C 82 % 6.49 C
2610 15-03-2014 08:25:00 9.3 C 83 % 6.57 C
2611 15-03-2014 08:30:00 9.2 C 84 % 6.64 C
2612 15-03-2014 08:35:00 9.1 C 84 % 6.54 C
2613 15-03-2014 08:40:00 9.1 C 85 % 6.72 C
2614 15-03-2014 08:45:00 8.9 C 86 % 6.69 C
2615 15-03-2014 08:50:00 8.8 C 87 % 6.76 C
2616 15-03-2014 08:55:00 8.7 C 88 % 6.83 C
2617 15-03-2014 09:00:00 8.6 C 89 % 6.89 C
2618 15-03-2014 09:05:00 8.4 C 90 % 6.86 C
2619 15-03-2014 09:10:00 8.3 C 90 % 6.76 C
2620 15-03-2014 09:15:00 8.3 C 91 % 6.92 C
2621 15-03-2014 09:20:00 8.3 C 91 % 6.92 C
2622 15-03-2014 09:25:00 8.3 C 91 % 6.92 C
2623 15-03-2014 09:30:00 8.3 C 91 % 6.92 C
2624 15-03-2014 09:35:00 8.4 C 91 % 7.02 C
2625 15-03-2014 09:40:00 8.4 C 91 % 7.02 C
Sensor: Nr:Datum:Temp:Feuchte:Taupunkt:
Aussen-T/F 2626 15-03-2014 09:45:00 8.4 C 91 % 7.02 C
2627 15-03-2014 09:50:00 8.4 C 91 % 7.02 C
2628 15-03-2014 09:55:00 8.4 C 91 % 7.02 C
2629 15-03-2014 10:00:00 8.4 C 91 % 7.02 C
2630 15-03-2014 10:05:00 8.4 C 90 % 6.86 C
2631 15-03-2014 10:10:00 8.4 C 90 % 6.86 C
2632 15-03-2014 10:15:00 8.4 C 90 % 6.86 C
2633 15-03-2014 10:20:00 8.5 C 90 % 6.96 C
2634 15-03-2014 10:25:00 8.6 C 90 % 7.06 C
2635 15-03-2014 10:30:00 8.6 C 89 % 6.89 C
2636 15-03-2014 10:35:00 8.7 C 88 % 6.83 C
2637 15-03-2014 10:40:00 8.7 C 89 % 6.99 C
2638 15-03-2014 10:45:00 8.6 C 89 % 6.89 C
2639 15-03-2014 10:50:00 8.5 C 89 % 6.79 C
2640 15-03-2014 10:55:00 8.5 C 89 % 6.79 C
2641 15-03-2014 11:00:00 8.5 C 87 % 6.46 C
2642 15-03-2014 11:05:00 8.5 C 88 % 6.63 C
2643 15-03-2014 11:10:00 8.4 C 88 % 6.53 C
2644 15-03-2014 11:15:00 8.3 C 90 % 6.76 C
2645 15-03-2014 11:20:00 8.1 C 90 % 6.56 C
2646 15-03-2014 11:25:00 7.9 C 90 % 6.36 C
2647 15-03-2014 11:30:00 7.7 C 89 % 6 C
2648 15-03-2014 11:35:00 7.7 C 91 % 6.33 C
2649 15-03-2014 11:40:00 7.6 C 90 % 6.07 C
2650 15-03-2014 11:45:00 7.6 C 90 % 6.07 C
Sensor: Nr:Datum:Temp:Feuchte:Taupunkt:
Aussen-T/F 2651 15-03-2014 11:50:00 7.7 C 92 % 6.48 C
2652 15-03-2014 11:55:00 7.7 C 90 % 6.17 C
2653 15-03-2014 12:00:00 7.8 C 89 % 6.1 C
2654 15-03-2014 12:05:00 7.8 C 88 % 5.94 C
2655 15-03-2014 12:10:00 7.9 C 87 % 5.87 C
2656 15-03-2014 12:15:00 8 C 86 % 5.81 C
2657 15-03-2014 12:20:00 8.1 C 86 % 5.9 C
2658 15-03-2014 12:25:00 8.3 C 87 % 6.27 C
2659 15-03-2014 12:30:00 8.6 C 86 % 6.39 C
2660 15-03-2014 12:35:00 8.9 C 86 % 6.69 C
2661 15-03-2014 12:40:00 9 C 85 % 6.62 C
2662 15-03-2014 12:45:00 9.1 C 86 % 6.89 C
2663 15-03-2014 12:50:00 9.3 C 86 % 7.08 C
2664 15-03-2014 12:55:00 9.4 C 85 % 7.01 C
2665 15-03-2014 13:00:00 9.4 C 81 % 6.31 C
2666 15-03-2014 13:05:00 9.4 C 80 % 6.13 C
2667 15-03-2014 13:10:00 9.4 C 79 % 5.95 C
2668 15-03-2014 13:15:00 9.4 C 77 % 5.58 C
2669 15-03-2014 13:20:00 9.6 C 76 % 5.58 C
2670 15-03-2014 13:25:00 9.7 C 78 % 6.06 C
2671 15-03-2014 13:30:00 10 C 79 % 6.53 C
2672 15-03-2014 13:35:00 10.3 C 77 % 6.45 C
2673 15-03-2014 13:40:00 10.5 C 75 % 6.26 C
2674 15-03-2014 13:45:00 10.4 C 72 % 5.58 C
2675 15-03-2014 13:50:00 10.3 C 73 % 5.68 C
Sensor: Nr:Datum:Temp:Feuchte:Taupunkt:
Aussen-T/F 2676 15-03-2014 13:55:00 10.2 C 72 % 5.39 C
2677 15-03-2014 14:00:00 10.1 C 71 % 5.09 C
2678 15-03-2014 14:05:00 10 C 73 % 5.39 C
2679 15-03-2014 14:10:00 10.1 C 72 % 5.29 C
2680 15-03-2014 14:15:00 10.2 C 70 % 4.98 C
2681 15-03-2014 14:20:00 10.2 C 71 % 5.18 C
2682 15-03-2014 14:25:00 10.2 C 70 % 4.98 C
2683 15-03-2014 14:30:00 10.3 C 70 % 5.08 C
2684 15-03-2014 14:35:00 10.5 C 66 % 4.43 C
2685 15-03-2014 14:40:00 10.7 C 64 % 4.18 C
2686 15-03-2014 14:45:00 10.7 C 62 % 3.73 C
2687 15-03-2014 14:50:00 10.7 C 62 % 3.73 C
2688 15-03-2014 14:55:00 10.7 C 62 % 3.73 C
2689 15-03-2014 15:00:00 10.7 C 63 % 3.95 C
2690 15-03-2014 15:05:00 10.8 C 61 % 3.59 C
2691 15-03-2014 15:10:00 10.8 C 62 % 3.82 C
2692 15-03-2014 15:15:00 10.8 C 60 % 3.36 C
2693 15-03-2014 15:20:00 10.8 C 63 % 4.05 C
2694 15-03-2014 15:25:00 10.8 C 61 % 3.59 C
2695 15-03-2014 15:30:00 10.9 C 62 % 3.92 C
2696 15-03-2014 15:35:00 10.8 C 63 % 4.05 C
2697 15-03-2014 15:40:00 10.8 C 63 % 4.05 C
2698 15-03-2014 15:45:00 10.8 C 62 % 3.82 C
2699 15-03-2014 15:50:00 10.8 C 62 % 3.82 C
2700 15-03-2014 15:55:00 10.8 C 62 % 3.82 C
Sensor: Nr:Datum:Temp:Feuchte:Taupunkt:
Aussen-T/F 2701 15-03-2014 16:00:00 10.8 C 62 % 3.82 C
2702 15-03-2014 16:05:00 10.7 C 61 % 3.5 C
2703 15-03-2014 16:10:00 10.7 C 62 % 3.73 C
2704 15-03-2014 16:15:00 10.7 C 60 % 3.26 C
2705 15-03-2014 16:20:00 10.7 C 60 % 3.26 C
2706 15-03-2014 16:25:00 10.7 C 60 % 3.26 C
2707 15-03-2014 16:30:00 10.6 C 61 % 3.4 C
2708 15-03-2014 16:35:00 10.6 C 60 % 3.17 C
2709 15-03-2014 16:40:00 10.6 C 61 % 3.4 C
2710 15-03-2014 16:45:00 10.6 C 61 % 3.4 C
2711 15-03-2014 16:50:00 10.6 C 61 % 3.4 C
2712 15-03-2014 16:55:00 10.6 C 61 % 3.4 C
2713 15-03-2014 17:00:00 10.6 C 62 % 3.63 C
2714 15-03-2014 17:05:00 10.5 C 62 % 3.54 C
2715 15-03-2014 17:10:00 10.5 C 63 % 3.77 C
2716 15-03-2014 17:15:00 10.5 C 63 % 3.77 C
2717 15-03-2014 17:20:00 10.6 C 63 % 3.86 C
2718 15-03-2014 17:25:00 10.5 C 63 % 3.77 C
2719 15-03-2014 17:30:00 10.4 C 64 % 3.89 C
2720 15-03-2014 17:35:00 10.4 C 64 % 3.89 C
2721 15-03-2014 17:40:00 10.4 C 64 % 3.89 C
2722 15-03-2014 17:45:00 10.4 C 64 % 3.89 C
2723 15-03-2014 17:50:00 10.4 C 64 % 3.89 C
2724 15-03-2014 17:55:00 10.4 C 65 % 4.11 C
2725 15-03-2014 18:00:00 10.4 C 65 % 4.11 C
Sensor: Nr:Datum:Temp:Feuchte:Taupunkt:
Aussen-T/F 2726 15-03-2014 18:05:00 10.3 C 66 % 4.24 C
2727 15-03-2014 18:10:00 10.2 C 66 % 4.14 C
2728 15-03-2014 18:15:00 10.2 C 67 % 4.36 C
2729 15-03-2014 18:20:00 10.2 C 66 % 4.14 C
2730 15-03-2014 18:25:00 10.2 C 67 % 4.36 C
2731 15-03-2014 18:30:00 10.1 C 67 % 4.26 C
2732 15-03-2014 18:35:00 10.1 C 68 % 4.47 C
2733 15-03-2014 18:40:00 10 C 69 % 4.58 C
2734 15-03-2014 18:45:00 9.9 C 69 % 4.49 C
2735 15-03-2014 18:50:00 9.8 C 70 % 4.6 C
2736 15-03-2014 18:55:00 9.8 C 72 % 5 C
2737 15-03-2014 19:00:00 9.7 C 72 % 4.9 C
2738 15-03-2014 19:05:00 9.7 C 72 % 4.9 C
2739 15-03-2014 19:10:00 9.7 C 73 % 5.1 C
2740 15-03-2014 19:15:00 9.6 C 74 % 5.2 C
2741 15-03-2014 19:20:00 9.5 C 75 % 5.3 C
2742 15-03-2014 19:25:00 9.5 C 75 % 5.3 C
2743 15-03-2014 19:30:00 9.5 C 75 % 5.3 C
2744 15-03-2014 19:35:00 9.5 C 76 % 5.49 C
2745 15-03-2014 19:40:00 9.4 C 75 % 5.2 C
2746 15-03-2014 19:45:00 9.4 C 75 % 5.2 C
2747 15-03-2014 19:50:00 9.5 C 76 % 5.49 C
2748 15-03-2014 19:55:00 9.5 C 75 % 5.3 C
2749 15-03-2014 20:00:00 9.5 C 76 % 5.49 C
2750 15-03-2014 20:05:00 9.5 C 75 % 5.3 C
Sensor: Nr:Datum:Temp:Feuchte:Taupunkt:
Aussen-T/F 2751 15-03-2014 20:10:00 9.5 C 75 % 5.3 C
2752 15-03-2014 20:15:00 9.6 C 75 % 5.39 C
2753 15-03-2014 20:20:00 9.5 C 75 % 5.3 C
2754 15-03-2014 20:25:00 9.6 C 75 % 5.39 C
2755 15-03-2014 20:30:00 9.6 C 75 % 5.39 C
2756 15-03-2014 20:35:00 9.5 C 75 % 5.3 C
2757 15-03-2014 20:40:00 9.5 C 76 % 5.49 C
2758 15-03-2014 20:45:00 9.4 C 76 % 5.39 C
2759 15-03-2014 20:50:00 9.5 C 76 % 5.49 C
2760 15-03-2014 20:55:00 9.5 C 76 % 5.49 C
2761 15-03-2014 21:00:00 9.6 C 75 % 5.39 C
2762 15-03-2014 21:05:00 9.6 C 75 % 5.39 C
2763 15-03-2014 21:10:00 9.6 C 75 % 5.39 C
2764 15-03-2014 21:15:00 9.5 C 75 % 5.3 C
2765 15-03-2014 21:20:00 9.5 C 75 % 5.3 C
2766 15-03-2014 21:25:00 9.5 C 76 % 5.49 C
2767 15-03-2014 21:30:00 9.4 C 77 % 5.58 C
2768 15-03-2014 21:35:00 9.4 C 77 % 5.58 C
2769 15-03-2014 21:40:00 9.3 C 77 % 5.48 C
2770 15-03-2014 21:45:00 9.3 C 78 % 5.67 C
2771 15-03-2014 21:50:00 9.3 C 78 % 5.67 C
2772 15-03-2014 21:55:00 9.3 C 78 % 5.67 C
2773 15-03-2014 22:00:00 9.3 C 77 % 5.48 C
2774 15-03-2014 22:05:00 9.3 C 77 % 5.48 C
2775 15-03-2014 22:10:00 9.4 C 76 % 5.39 C
Sensor: Nr:Datum:Temp:Feuchte:Taupunkt:
Aussen-T/F 2776 15-03-2014 22:15:00 9.4 C 77 % 5.58 C
2777 15-03-2014 22:20:00 9.3 C 77 % 5.48 C
2778 15-03-2014 22:25:00 9.3 C 78 % 5.67 C
2779 15-03-2014 22:30:00 9.3 C 78 % 5.67 C
2780 15-03-2014 22:35:00 9.3 C 78 % 5.67 C
2781 15-03-2014 22:40:00 9.3 C 78 % 5.67 C
2782 15-03-2014 22:45:00 9.2 C 78 % 5.57 C
2783 15-03-2014 22:50:00 9.3 C 78 % 5.67 C
2784 15-03-2014 22:55:00 9.3 C 78 % 5.67 C
2785 15-03-2014 23:00:00 9.3 C 78 % 5.67 C
2786 15-03-2014 23:05:00 9.3 C 78 % 5.67 C
2787 15-03-2014 23:10:00 9.3 C 78 % 5.67 C
2788 15-03-2014 23:15:00 9.3 C 77 % 5.48 C
2789 15-03-2014 23:20:00 9.3 C 77 % 5.48 C
2790 15-03-2014 23:25:00 9.3 C 77 % 5.48 C
2791 15-03-2014 23:30:00 9.4 C 78 % 5.76 C
2792 15-03-2014 23:35:00 9.4 C 78 % 5.76 C
2793 15-03-2014 23:40:00 9.3 C 77 % 5.48 C
2794 15-03-2014 23:45:00 9.4 C 78 % 5.76 C
2795 15-03-2014 23:50:00 9.3 C 77 % 5.48 C
2796 15-03-2014 23:55:00 9.4 C 77 % 5.58 C
2797 16-03-2014 00:00:00 9.4 C 77 % 5.58 C
2798 16-03-2014 00:05:00 9.5 C 77 % 5.68 C
2799 16-03-2014 00:10:00 9.5 C 77 % 5.68 C
2800 16-03-2014 00:15:00 9.5 C 77 % 5.68 C
Sensor: Nr:Datum:Temp:Feuchte:Taupunkt:
Aussen-T/F 2801 16-03-2014 00:20:00 9.5 C 77 % 5.68 C
2802 16-03-2014 00:25:00 9.6 C 77 % 5.77 C
2803 16-03-2014 00:30:00 9.6 C 77 % 5.77 C
2804 16-03-2014 00:35:00 9.6 C 77 % 5.77 C
2805 16-03-2014 00:40:00 9.7 C 76 % 5.68 C
2806 16-03-2014 00:45:00 9.7 C 76 % 5.68 C
2807 16-03-2014 00:50:00 9.7 C 76 % 5.68 C
2808 16-03-2014 00:55:00 9.7 C 76 % 5.68 C
2809 16-03-2014 01:00:00 9.8 C 76 % 5.78 C
2810 16-03-2014 01:05:00 9.8 C 76 % 5.78 C
2811 16-03-2014 01:10:00 9.8 C 76 % 5.78 C
2812 16-03-2014 01:15:00 9.8 C 76 % 5.78 C
2813 16-03-2014 01:20:00 9.8 C 76 % 5.78 C
2814 16-03-2014 01:25:00 9.9 C 76 % 5.87 C
2815 16-03-2014 01:30:00 9.9 C 76 % 5.87 C
2816 16-03-2014 01:35:00 9.9 C 76 % 5.87 C
2817 16-03-2014 01:40:00 9.9 C 77 % 6.06 C
2818 16-03-2014 01:45:00 9.8 C 77 % 5.97 C
2819 16-03-2014 01:50:00 9.8 C 78 % 6.15 C
2820 16-03-2014 01:55:00 9.8 C 78 % 6.15 C
2821 16-03-2014 02:00:00 9.7 C 78 % 6.06 C
2822 16-03-2014 02:05:00 9.7 C 78 % 6.06 C
2823 16-03-2014 02:10:00 9.7 C 79 % 6.24 C
2824 16-03-2014 02:15:00 9.7 C 79 % 6.24 C
2825 16-03-2014 02:20:00 9.7 C 79 % 6.24 C
Sensor: Nr:Datum:Temp:Feuchte:Taupunkt:
Aussen-T/F 2826 16-03-2014 02:25:00 9.7 C 79 % 6.24 C
2827 16-03-2014 02:30:00 9.7 C 79 % 6.24 C
2828 16-03-2014 02:35:00 9.7 C 79 % 6.24 C
2829 16-03-2014 02:40:00 9.7 C 79 % 6.24 C
2830 16-03-2014 02:45:00 9.7 C 79 % 6.24 C
2831 16-03-2014 02:50:00 9.8 C 79 % 6.34 C
2832 16-03-2014 02:55:00 9.7 C 79 % 6.24 C
2833 16-03-2014 03:00:00 9.8 C 79 % 6.34 C
2834 16-03-2014 03:05:00 9.8 C 79 % 6.34 C
2835 16-03-2014 03:10:00 9.8 C 79 % 6.34 C
2836 16-03-2014 03:15:00 9.8 C 79 % 6.34 C
2837 16-03-2014 03:20:00 9.8 C 79 % 6.34 C
2838 16-03-2014 03:25:00 9.8 C 79 % 6.34 C
2839 16-03-2014 03:30:00 9.9 C 79 % 6.43 C
2840 16-03-2014 03:35:00 9.8 C 79 % 6.34 C
2841 16-03-2014 03:40:00 9.9 C 79 % 6.43 C
2842 16-03-2014 03:45:00 9.9 C 79 % 6.43 C
2843 16-03-2014 03:50:00 10.1 C 79 % 6.63 C
2844 16-03-2014 03:55:00 10.1 C 78 % 6.44 C
2845 16-03-2014 04:00:00 10.1 C 79 % 6.63 C
2846 16-03-2014 04:05:00 10.1 C 79 % 6.63 C
2847 16-03-2014 04:10:00 10 C 79 % 6.53 C
2848 16-03-2014 04:15:00 10 C 79 % 6.53 C
2849 16-03-2014 04:20:00 10 C 79 % 6.53 C
2850 16-03-2014 04:25:00 10 C 79 % 6.53 C
Sensor: Nr:Datum:Temp:Feuchte:Taupunkt:
Aussen-T/F 2851 16-03-2014 04:30:00 10.1 C 80 % 6.81 C
2852 16-03-2014 04:35:00 10.1 C 80 % 6.81 C
2853 16-03-2014 04:40:00 10.1 C 80 % 6.81 C
2854 16-03-2014 04:45:00 10.2 C 80 % 6.91 C
2855 16-03-2014 04:50:00 10.3 C 80 % 7.01 C
2856 16-03-2014 04:55:00 10.3 C 79 % 6.82 C
2857 16-03-2014 05:00:00 10.4 C 80 % 7.1 C
2858 16-03-2014 05:05:00 10.5 C 79 % 7.02 C
2859 16-03-2014 05:10:00 10.6 C 79 % 7.11 C
2860 16-03-2014 05:15:00 10.5 C 79 % 7.02 C
2861 16-03-2014 05:20:00 10.6 C 79 % 7.11 C
2862 16-03-2014 05:25:00 10.6 C 79 % 7.11 C
2863 16-03-2014 05:30:00 10.6 C 79 % 7.11 C
2864 16-03-2014 05:35:00 10.5 C 79 % 7.02 C
2865 16-03-2014 05:40:00 10.4 C 79 % 6.92 C
2866 16-03-2014 05:45:00 10.4 C 79 % 6.92 C
2867 16-03-2014 05:50:00 10.3 C 79 % 6.82 C
2868 16-03-2014 05:55:00 10.3 C 79 % 6.82 C
2869 16-03-2014 06:00:00 10.3 C 80 % 7.01 C
2870 16-03-2014 06:05:00 10.2 C 80 % 6.91 C
2871 16-03-2014 06:10:00 10.2 C 80 % 6.91 C
2872 16-03-2014 06:15:00 10.2 C 81 % 7.09 C
2873 16-03-2014 06:20:00 10.2 C 81 % 7.09 C
2874 16-03-2014 06:25:00 10.3 C 81 % 7.19 C
2875 16-03-2014 06:30:00 10.3 C 81 % 7.19 C
Sensor: Nr:Datum:Temp:Feuchte:Taupunkt:
Aussen-T/F 2876 16-03-2014 06:35:00 10.4 C 81 % 7.28 C
2877 16-03-2014 06:40:00 10.4 C 80 % 7.1 C
2878 16-03-2014 06:45:00 10.5 C 80 % 7.2 C
2879 16-03-2014 06:50:00 10.5 C 80 % 7.2 C
2880 16-03-2014 06:55:00 10.5 C 80 % 7.2 C
2881 16-03-2014 07:00:00 10.6 C 80 % 7.3 C
2882 16-03-2014 07:05:00 10.6 C 80 % 7.3 C
2883 16-03-2014 07:10:00 10.7 C 80 % 7.4 C
2884 16-03-2014 07:15:00 10.7 C 80 % 7.4 C
2885 16-03-2014 07:20:00 10.7 C 80 % 7.4 C
2886 16-03-2014 07:25:00 10.7 C 80 % 7.4 C
2887 16-03-2014 07:30:00 10.7 C 80 % 7.4 C
2888 16-03-2014 07:35:00 10.7 C 80 % 7.4 C
2889 16-03-2014 07:40:00 10.7 C 80 % 7.4 C
2890 16-03-2014 07:45:00 10.7 C 80 % 7.4 C
2891 16-03-2014 07:50:00 10.7 C 80 % 7.4 C
2892 16-03-2014 07:55:00 10.7 C 80 % 7.4 C
2893 16-03-2014 08:00:00 10.7 C 80 % 7.4 C
2894 16-03-2014 08:05:00 10.7 C 80 % 7.4 C
2895 16-03-2014 08:10:00 10.6 C 80 % 7.3 C
2896 16-03-2014 08:15:00 10.6 C 80 % 7.3 C
2897 16-03-2014 08:20:00 10.6 C 80 % 7.3 C
2898 16-03-2014 08:25:00 10.6 C 80 % 7.3 C
2899 16-03-2014 08:30:00 10.6 C 80 % 7.3 C
2900 16-03-2014 08:35:00 10.7 C 80 % 7.4 C
Sensor: Nr:Datum:Temp:Feuchte:Taupunkt:
Aussen-T/F 2901 16-03-2014 08:40:00 10.7 C 80 % 7.4 C
2902 16-03-2014 08:45:00 10.7 C 80 % 7.4 C
2903 16-03-2014 08:50:00 10.7 C 80 % 7.4 C
2904 16-03-2014 08:55:00 10.8 C 80 % 7.49 C
2905 16-03-2014 09:00:00 10.8 C 80 % 7.49 C
2906 16-03-2014 09:05:00 10.8 C 80 % 7.49 C
2907 16-03-2014 09:10:00 10.9 C 80 % 7.59 C
2908 16-03-2014 09:15:00 10.9 C 80 % 7.59 C
2909 16-03-2014 09:20:00 11 C 79 % 7.5 C
2910 16-03-2014 09:25:00 11 C 79 % 7.5 C
2911 16-03-2014 09:30:00 11.1 C 79 % 7.6 C
2912 16-03-2014 09:35:00 11.1 C 79 % 7.6 C
2913 16-03-2014 09:40:00 11.1 C 79 % 7.6 C
2914 16-03-2014 09:45:00 11.1 C 79 % 7.6 C
2915 16-03-2014 09:50:00 11.1 C 79 % 7.6 C
2916 16-03-2014 09:55:00 11.1 C 79 % 7.6 C
2917 16-03-2014 10:00:00 11.1 C 79 % 7.6 C
2918 16-03-2014 10:05:00 11.1 C 79 % 7.6 C
2919 16-03-2014 10:10:00 11.1 C 79 % 7.6 C
2920 16-03-2014 10:15:00 11.2 C 79 % 7.7 C
2921 16-03-2014 10:20:00 11.2 C 79 % 7.7 C
2922 16-03-2014 10:25:00 11.3 C 78 % 7.61 C
2923 16-03-2014 10:30:00 11.3 C 78 % 7.61 C
2924 16-03-2014 10:35:00 11.4 C 78 % 7.71 C
2925 16-03-2014 10:40:00 11.5 C 78 % 7.8 C
Sensor: Nr:Datum:Temp:Feuchte:Taupunkt:
Aussen-T/F 2926 16-03-2014 10:45:00 11.7 C 78 % 8 C
2927 16-03-2014 10:50:00 11.8 C 77 % 7.9 C
2928 16-03-2014 10:55:00 11.9 C 77 % 8 C
2929 16-03-2014 11:00:00 12.1 C 77 % 8.2 C
2930 16-03-2014 11:05:00 12.3 C 76 % 8.2 C
2931 16-03-2014 11:10:00 12.5 C 76 % 8.39 C
2932 16-03-2014 11:15:00 12.7 C 76 % 8.58 C
2933 16-03-2014 11:20:00 12.8 C 75 % 8.48 C
2934 16-03-2014 11:25:00 12.9 C 74 % 8.38 C
2935 16-03-2014 11:30:00 13.1 C 74 % 8.58 C
2936 16-03-2014 11:35:00 13.2 C 74 % 8.67 C
2937 16-03-2014 11:40:00 13.3 C 73 % 8.57 C
2938 16-03-2014 11:45:00 13.4 C 73 % 8.66 C
2939 16-03-2014 11:50:00 13.5 C 73 % 8.76 C
2940 16-03-2014 11:55:00 13.7 C 73 % 8.95 C
2941 16-03-2014 12:00:00 13.9 C 73 % 9.15 C
2942 16-03-2014 12:05:00 14.1 C 72 % 9.13 C
2943 16-03-2014 12:10:00 14.2 C 71 % 9.02 C
2944 16-03-2014 12:15:00 14.3 C 71 % 9.12 C
2945 16-03-2014 12:20:00 14.5 C 71 % 9.31 C
2946 16-03-2014 12:25:00 14.7 C 70 % 9.29 C
2947 16-03-2014 12:30:00 14.9 C 69 % 9.27 C
2948 16-03-2014 12:35:00 15 C 69 % 9.36 C
2949 16-03-2014 12:40:00 15.1 C 69 % 9.46 C
2950 16-03-2014 12:45:00 15.3 C 68 % 9.43 C
Sensor: Nr:Datum:Temp:Feuchte:Taupunkt:
Aussen-T/F 2951 16-03-2014 12:50:00 15.4 C 67 % 9.31 C
2952 16-03-2014 12:55:00 15.5 C 68 % 9.63 C
2953 16-03-2014 13:00:00 15.3 C 68 % 9.43 C
2954 16-03-2014 13:05:00 15.1 C 69 % 9.46 C
2955 16-03-2014 13:10:00 15 C 70 % 9.58 C
2956 16-03-2014 13:15:00 14.9 C 71 % 9.69 C
2957 16-03-2014 13:20:00 14.9 C 70 % 9.48 C
2958 16-03-2014 13:25:00 14.9 C 71 % 9.69 C
2959 16-03-2014 13:30:00 14.9 C 71 % 9.69 C
2960 16-03-2014 13:35:00 14.9 C 71 % 9.69 C
2961 16-03-2014 13:40:00 14.9 C 70 % 9.48 C
2962 16-03-2014 13:45:00 15.1 C 68 % 9.24 C
2963 16-03-2014 13:50:00 15.3 C 67 % 9.21 C
2964 16-03-2014 13:55:00 15.3 C 67 % 9.21 C
2965 16-03-2014 14:00:00 15.3 C 67 % 9.21 C
2966 16-03-2014 14:05:00 15.3 C 67 % 9.21 C
2967 16-03-2014 14:10:00 15.3 C 67 % 9.21 C
2968 16-03-2014 14:15:00 15.1 C 68 % 9.24 C
2969 16-03-2014 14:20:00 14.9 C 68 % 9.05 C
2970 16-03-2014 14:25:00 14.9 C 68 % 9.05 C
2971 16-03-2014 14:30:00 14.9 C 68 % 9.05 C
2972 16-03-2014 14:35:00 15 C 69 % 9.36 C
2973 16-03-2014 14:40:00 15.1 C 69 % 9.46 C
2974 16-03-2014 14:45:00 15.1 C 69 % 9.46 C
2975 16-03-2014 14:50:00 15.2 C 69 % 9.56 C
Sensor: Nr:Datum:Temp:Feuchte:Taupunkt:
Aussen-T/F 2976 16-03-2014 14:55:00 15.4 C 68 % 9.53 C
2977 16-03-2014 15:00:00 15.4 C 67 % 9.31 C
2978 16-03-2014 15:05:00 15.4 C 68 % 9.53 C
2979 16-03-2014 15:10:00 15.4 C 67 % 9.31 C
2980 16-03-2014 15:15:00 15.3 C 67 % 9.21 C
2981 16-03-2014 15:20:00 15.4 C 67 % 9.31 C
2982 16-03-2014 15:25:00 15.2 C 67 % 9.12 C
2983 16-03-2014 15:30:00 15.3 C 67 % 9.21 C
2984 16-03-2014 15:35:00 15.5 C 67 % 9.41 C
2985 16-03-2014 15:40:00 15.8 C 66 % 9.47 C
2986 16-03-2014 15:45:00 15.9 C 65 % 9.34 C
2987 16-03-2014 15:50:00 15.7 C 66 % 9.37 C
2988 16-03-2014 15:55:00 15.7 C 65 % 9.15 C
2989 16-03-2014 16:00:00 15.5 C 66 % 9.18 C
2990 16-03-2014 16:05:00 15.2 C 66 % 8.9 C
2991 16-03-2014 16:10:00 14.9 C 67 % 8.83 C
2992 16-03-2014 16:15:00 14.7 C 68 % 8.86 C
2993 16-03-2014 16:20:00 14.6 C 68 % 8.77 C
2994 16-03-2014 16:25:00 14.4 C 69 % 8.79 C
2995 16-03-2014 16:30:00 14.4 C 69 % 8.79 C
2996 16-03-2014 16:35:00 14.4 C 69 % 8.79 C
2997 16-03-2014 16:40:00 14.4 C 69 % 8.79 C
2998 16-03-2014 16:45:00 14.5 C 70 % 9.1 C
2999 16-03-2014 16:50:00 14.6 C 69 % 8.98 C
3000 16-03-2014 16:55:00 14.7 C 69 % 9.08 C
Sensor: Nr:Datum:Temp:Feuchte:Taupunkt:
Aussen-T/F 3001 16-03-2014 17:00:00 14.7 C 70 % 9.29 C
3002 16-03-2014 17:05:00 14.8 C 69 % 9.17 C
3003 16-03-2014 17:10:00 14.7 C 69 % 9.08 C
3004 16-03-2014 17:15:00 14.6 C 69 % 8.98 C
3005 16-03-2014 17:20:00 14.6 C 69 % 8.98 C
3006 16-03-2014 17:25:00 14.6 C 69 % 8.98 C
3007 16-03-2014 17:30:00 14.7 C 69 % 9.08 C
3008 16-03-2014 17:35:00 14.8 C 69 % 9.17 C
3009 16-03-2014 17:40:00 14.8 C 69 % 9.17 C
3010 16-03-2014 17:45:00 14.8 C 69 % 9.17 C
3011 16-03-2014 17:50:00 14.8 C 69 % 9.17 C
3012 16-03-2014 17:55:00 14.8 C 68 % 8.96 C
3013 16-03-2014 18:00:00 14.8 C 69 % 9.17 C
3014 16-03-2014 18:05:00 14.7 C 69 % 9.08 C
3015 16-03-2014 18:10:00 14.6 C 68 % 8.77 C
3016 16-03-2014 18:15:00 14.5 C 68 % 8.67 C
3017 16-03-2014 18:20:00 14.1 C 70 % 8.72 C
3018 16-03-2014 18:25:00 13.6 C 71 % 8.45 C
3019 16-03-2014 18:30:00 12.9 C 74 % 8.38 C
3020 16-03-2014 18:35:00 12.4 C 76 % 8.29 C
3021 16-03-2014 18:40:00 11.9 C 77 % 8 C
3022 16-03-2014 18:45:00 11.6 C 78 % 7.9 C
3023 16-03-2014 18:50:00 11.3 C 79 % 7.8 C
3024 16-03-2014 18:55:00 11.1 C 80 % 7.79 C
3025 16-03-2014 19:00:00 10.8 C 81 % 7.67 C
Sensor: Nr:Datum:Temp:Feuchte:Taupunkt:
Aussen-T/F 3026 16-03-2014 19:05:00 10.7 C 81 % 7.58 C
3027 16-03-2014 19:10:00 10.7 C 81 % 7.58 C
3028 16-03-2014 19:15:00 10.6 C 82 % 7.66 C
3029 16-03-2014 19:20:00 10.3 C 82 % 7.37 C
3030 16-03-2014 19:25:00 10.2 C 83 % 7.45 C
3031 16-03-2014 19:30:00 10.2 C 83 % 7.45 C
3032 16-03-2014 19:35:00 10.1 C 84 % 7.52 C
3033 16-03-2014 19:40:00 10 C 84 % 7.43 C
3034 16-03-2014 19:45:00 9.9 C 84 % 7.33 C
3035 16-03-2014 19:50:00 9.8 C 85 % 7.4 C
3036 16-03-2014 19:55:00 9.7 C 85 % 7.3 C
3037 16-03-2014 20:00:00 9.7 C 85 % 7.3 C
3038 16-03-2014 20:05:00 9.7 C 85 % 7.3 C
3039 16-03-2014 20:10:00 9.6 C 86 % 7.38 C
3040 16-03-2014 20:15:00 9.6 C 86 % 7.38 C
3041 16-03-2014 20:20:00 9.6 C 86 % 7.38 C
3042 16-03-2014 20:25:00 9.7 C 86 % 7.47 C
3043 16-03-2014 20:30:00 9.8 C 85 % 7.4 C
3044 16-03-2014 20:35:00 9.7 C 85 % 7.3 C
3045 16-03-2014 20:40:00 9.5 C 85 % 7.11 C
3046 16-03-2014 20:45:00 9.3 C 86 % 7.08 C
3047 16-03-2014 20:50:00 9.2 C 87 % 7.15 C
3048 16-03-2014 20:55:00 9.2 C 87 % 7.15 C
3049 16-03-2014 21:00:00 9.3 C 87 % 7.25 C
3050 16-03-2014 21:05:00 9.4 C 86 % 7.18 C
Sensor: Nr:Datum:Temp:Feuchte:Taupunkt:
Aussen-T/F 3051 16-03-2014 21:10:00 9.5 C 86 % 7.28 C
3052 16-03-2014 21:15:00 9.5 C 86 % 7.28 C
3053 16-03-2014 21:20:00 9.5 C 85 % 7.11 C
3054 16-03-2014 21:25:00 9.6 C 85 % 7.21 C
3055 16-03-2014 21:30:00 9.5 C 85 % 7.11 C
3056 16-03-2014 21:35:00 9.5 C 85 % 7.11 C
3057 16-03-2014 21:40:00 9.4 C 86 % 7.18 C
3058 16-03-2014 21:45:00 9.3 C 86 % 7.08 C
3059 16-03-2014 21:50:00 9.2 C 86 % 6.98 C
3060 16-03-2014 21:55:00 9.2 C 86 % 6.98 C
3061 16-03-2014 22:00:00 9.2 C 87 % 7.15 C
3062 16-03-2014 22:05:00 9.1 C 86 % 6.89 C
3063 16-03-2014 22:10:00 9 C 86 % 6.79 C
3064 16-03-2014 22:15:00 9.1 C 87 % 7.05 C
3065 16-03-2014 22:20:00 9.6 C 86 % 7.38 C
3066 16-03-2014 22:25:00 10.1 C 84 % 7.52 C
3067 16-03-2014 22:30:00 10.3 C 83 % 7.54 C
3068 16-03-2014 22:35:00 10.4 C 81 % 7.28 C
3069 16-03-2014 22:40:00 10.1 C 82 % 7.17 C
3070 16-03-2014 22:45:00 9.6 C 83 % 6.86 C
3071 16-03-2014 22:50:00 9.3 C 84 % 6.74 C
3072 16-03-2014 22:55:00 8.9 C 85 % 6.52 C
3073 16-03-2014 23:00:00 8.6 C 85 % 6.23 C
3074 16-03-2014 23:05:00 8.3 C 87 % 6.27 C
3075 16-03-2014 23:10:00 8.2 C 88 % 6.33 C
Sensor: Nr:Datum:Temp:Feuchte:Taupunkt:
Aussen-T/F 3076 16-03-2014 23:15:00 8.1 C 88 % 6.24 C
3077 16-03-2014 23:20:00 7.9 C 89 % 6.2 C
3078 16-03-2014 23:25:00 7.8 C 89 % 6.1 C
3079 16-03-2014 23:30:00 7.7 C 89 % 6 C
3080 16-03-2014 23:35:00 7.6 C 89 % 5.91 C
3081 16-03-2014 23:40:00 7.4 C 89 % 5.71 C
3082 16-03-2014 23:45:00 7.3 C 90 % 5.77 C
3083 16-03-2014 23:50:00 7.3 C 91 % 5.93 C
3084 16-03-2014 23:55:00 7.3 C 91 % 5.93 C
3085 17-03-2014 00:00:00 7.3 C 91 % 5.93 C
3086 17-03-2014 00:05:00 7.3 C 90 % 5.77 C
3087 17-03-2014 00:10:00 7.3 C 90 % 5.77 C
3088 17-03-2014 00:15:00 7.2 C 90 % 5.67 C
3089 17-03-2014 00:20:00 7.1 C 90 % 5.57 C
3090 17-03-2014 00:25:00 6.9 C 90 % 5.38 C
3091 17-03-2014 00:30:00 6.9 C 91 % 5.54 C
3092 17-03-2014 00:35:00 6.9 C 92 % 5.69 C
3093 17-03-2014 00:40:00 7 C 92 % 5.79 C
3094 17-03-2014 00:45:00 7 C 91 % 5.63 C
3095 17-03-2014 00:50:00 7.1 C 92 % 5.89 C
3096 17-03-2014 00:55:00 7.1 C 92 % 5.89 C
3097 17-03-2014 01:00:00 7.1 C 91 % 5.73 C
3098 17-03-2014 01:05:00 7.1 C 91 % 5.73 C
3099 17-03-2014 01:10:00 7.1 C 91 % 5.73 C
3100 17-03-2014 01:15:00 7.1 C 91 % 5.73 C
Sensor: Nr:Datum:Temp:Feuchte:Taupunkt:
Aussen-T/F 3101 17-03-2014 01:20:00 7.1 C 92 % 5.89 C
3102 17-03-2014 01:25:00 7.2 C 92 % 5.99 C
3103 17-03-2014 01:30:00 7.1 C 91 % 5.73 C
3104 17-03-2014 01:35:00 7.1 C 91 % 5.73 C
3105 17-03-2014 01:40:00 7.2 C 92 % 5.99 C
3106 17-03-2014 01:45:00 7.2 C 91 % 5.83 C
3107 17-03-2014 01:50:00 7.1 C 91 % 5.73 C
3108 17-03-2014 01:55:00 7.2 C 91 % 5.83 C
3109 17-03-2014 02:00:00 7.1 C 91 % 5.73 C
3110 17-03-2014 02:05:00 7.1 C 91 % 5.73 C
3111 17-03-2014 02:10:00 7.1 C 91 % 5.73 C
3112 17-03-2014 02:15:00 7.1 C 91 % 5.73 C
3113 17-03-2014 02:20:00 7 C 91 % 5.63 C
3114 17-03-2014 02:25:00 7 C 92 % 5.79 C
3115 17-03-2014 02:30:00 6.9 C 92 % 5.69 C
3116 17-03-2014 02:35:00 6.9 C 92 % 5.69 C
3117 17-03-2014 02:40:00 7.1 C 92 % 5.89 C
3118 17-03-2014 02:45:00 7.2 C 92 % 5.99 C
3119 17-03-2014 02:50:00 7.2 C 92 % 5.99 C
3120 17-03-2014 02:55:00 7.3 C 92 % 6.09 C
3121 17-03-2014 03:00:00 7.3 C 91 % 5.93 C
3122 17-03-2014 03:05:00 7.3 C 92 % 6.09 C
3123 17-03-2014 03:10:00 7.3 C 92 % 6.09 C
3124 17-03-2014 03:15:00 7.4 C 91 % 6.03 C
3125 17-03-2014 03:20:00 7.4 C 91 % 6.03 C
Sensor: Nr:Datum:Temp:Feuchte:Taupunkt:
Aussen-T/F 3126 17-03-2014 03:25:00 7.4 C 91 % 6.03 C
3127 17-03-2014 03:30:00 7.5 C 91 % 6.13 C
3128 17-03-2014 03:35:00 7.6 C 91 % 6.23 C
3129 17-03-2014 03:40:00 7.7 C 91 % 6.33 C
3130 17-03-2014 03:45:00 7.6 C 90 % 6.07 C
3131 17-03-2014 03:50:00 7.6 C 91 % 6.23 C
3132 17-03-2014 03:55:00 7.6 C 91 % 6.23 C
3133 17-03-2014 04:00:00 7.5 C 90 % 5.97 C
3134 17-03-2014 04:05:00 7.4 C 91 % 6.03 C
3135 17-03-2014 04:10:00 7.5 C 91 % 6.13 C
3136 17-03-2014 04:15:00 7.5 C 91 % 6.13 C
3137 17-03-2014 04:20:00 7.6 C 91 % 6.23 C
3138 17-03-2014 04:25:00 7.8 C 91 % 6.43 C
3139 17-03-2014 04:30:00 8.2 C 91 % 6.82 C
3140 17-03-2014 04:35:00 8.3 C 89 % 6.6 C
3141 17-03-2014 04:40:00 8.4 C 89 % 6.7 C
3142 17-03-2014 04:45:00 8.4 C 88 % 6.53 C
3143 17-03-2014 04:50:00 8.2 C 88 % 6.33 C
3144 17-03-2014 04:55:00 8.1 C 89 % 6.4 C
3145 17-03-2014 05:00:00 8.2 C 89 % 6.5 C
3146 17-03-2014 05:05:00 8.2 C 89 % 6.5 C
3147 17-03-2014 05:10:00 8.2 C 89 % 6.5 C
3148 17-03-2014 05:15:00 8.2 C 89 % 6.5 C
3149 17-03-2014 05:20:00 8.2 C 89 % 6.5 C
3150 17-03-2014 05:25:00 8.2 C 89 % 6.5 C
Sensor: Nr:Datum:Temp:Feuchte:Taupunkt:
Aussen-T/F 3151 17-03-2014 05:30:00 8.2 C 89 % 6.5 C
3152 17-03-2014 05:35:00 8.2 C 89 % 6.5 C
3153 17-03-2014 05:40:00 8.3 C 89 % 6.6 C
3154 17-03-2014 05:45:00 8.3 C 89 % 6.6 C
3155 17-03-2014 05:50:00 8.3 C 89 % 6.6 C
3156 17-03-2014 05:55:00 8.3 C 89 % 6.6 C
3157 17-03-2014 06:00:00 8.3 C 89 % 6.6 C
3158 17-03-2014 06:05:00 8.3 C 89 % 6.6 C
3159 17-03-2014 06:10:00 8.3 C 89 % 6.6 C
3160 17-03-2014 06:15:00 8.3 C 89 % 6.6 C
3161 17-03-2014 06:20:00 8.3 C 89 % 6.6 C
3162 17-03-2014 06:25:00 8.2 C 89 % 6.5 C
3163 17-03-2014 06:30:00 8.3 C 89 % 6.6 C
3164 17-03-2014 06:35:00 8.3 C 89 % 6.6 C
3165 17-03-2014 06:40:00 8.3 C 89 % 6.6 C
3166 17-03-2014 06:45:00 8.3 C 89 % 6.6 C
3167 17-03-2014 06:50:00 8.4 C 89 % 6.7 C
3168 17-03-2014 06:55:00 8.5 C 89 % 6.79 C
3169 17-03-2014 07:00:00 8.6 C 88 % 6.73 C
3170 17-03-2014 07:05:00 8.6 C 88 % 6.73 C
3171 17-03-2014 07:10:00 8.6 C 88 % 6.73 C
3172 17-03-2014 07:15:00 8.6 C 88 % 6.73 C
3173 17-03-2014 07:20:00 8.7 C 88 % 6.83 C
3174 17-03-2014 07:25:00 8.8 C 88 % 6.93 C
3175 17-03-2014 07:30:00 8.8 C 88 % 6.93 C
Sensor: Nr:Datum:Temp:Feuchte:Taupunkt:
Aussen-T/F 3176 17-03-2014 07:35:00 8.8 C 88 % 6.93 C
3177 17-03-2014 07:40:00 8.8 C 88 % 6.93 C
3178 17-03-2014 07:45:00 8.8 C 88 % 6.93 C
3179 17-03-2014 07:50:00 8.8 C 88 % 6.93 C
3180 17-03-2014 07:55:00 8.9 C 88 % 7.02 C
3181 17-03-2014 08:00:00 8.9 C 88 % 7.02 C
3182 17-03-2014 08:05:00 9 C 88 % 7.12 C
3183 17-03-2014 08:10:00 9.1 C 87 % 7.05 C
3184 17-03-2014 08:15:00 9.2 C 87 % 7.15 C
3185 17-03-2014 08:20:00 9.2 C 87 % 7.15 C
3186 17-03-2014 08:25:00 9.2 C 87 % 7.15 C
3187 17-03-2014 08:30:00 9.3 C 87 % 7.25 C
3188 17-03-2014 08:35:00 9.3 C 87 % 7.25 C
3189 17-03-2014 08:40:00 9.3 C 87 % 7.25 C
3190 17-03-2014 08:45:00 9.3 C 87 % 7.25 C
3191 17-03-2014 08:50:00 9.4 C 86 % 7.18 C
3192 17-03-2014 08:55:00 9.5 C 86 % 7.28 C
3193 17-03-2014 09:00:00 9.5 C 86 % 7.28 C
3194 17-03-2014 09:05:00 9.6 C 86 % 7.38 C
3195 17-03-2014 09:10:00 9.7 C 86 % 7.47 C
3196 17-03-2014 09:15:00 9.7 C 86 % 7.47 C
3197 17-03-2014 09:20:00 9.8 C 85 % 7.4 C
3198 17-03-2014 09:25:00 9.9 C 85 % 7.5 C
3199 17-03-2014 09:30:00 10 C 85 % 7.6 C
3200 17-03-2014 09:35:00 10.1 C 85 % 7.7 C
Sensor: Nr:Datum:Temp:Feuchte:Taupunkt:
Aussen-T/F 3201 17-03-2014 09:40:00 10.3 C 84 % 7.72 C
3202 17-03-2014 09:45:00 10.3 C 84 % 7.72 C
3203 17-03-2014 09:50:00 10.5 C 84 % 7.91 C
3204 17-03-2014 09:55:00 10.6 C 83 % 7.84 C
3205 17-03-2014 10:00:00 10.7 C 82 % 7.76 C
3206 17-03-2014 10:05:00 10.8 C 82 % 7.85 C
3207 17-03-2014 10:10:00 10.9 C 82 % 7.95 C
3208 17-03-2014 10:15:00 11 C 82 % 8.05 C
3209 17-03-2014 10:20:00 11.1 C 82 % 8.15 C
3210 17-03-2014 10:25:00 11.1 C 81 % 7.97 C
3211 17-03-2014 10:30:00 11.2 C 81 % 8.06 C
3212 17-03-2014 10:35:00 11.2 C 81 % 8.06 C
3213 17-03-2014 10:40:00 11.3 C 80 % 7.98 C
3214 17-03-2014 10:45:00 11.4 C 80 % 8.08 C
3215 17-03-2014 10:50:00 11.4 C 80 % 8.08 C
3216 17-03-2014 10:55:00 11.4 C 79 % 7.89 C
3217 17-03-2014 11:00:00 11.5 C 80 % 8.17 C
3218 17-03-2014 11:05:00 11.6 C 79 % 8.09 C
3219 17-03-2014 11:10:00 11.6 C 79 % 8.09 C
3220 17-03-2014 11:15:00 11.6 C 79 % 8.09 C
3221 17-03-2014 11:20:00 11.7 C 79 % 8.18 C
3222 17-03-2014 11:25:00 11.8 C 78 % 8.09 C
3223 17-03-2014 11:30:00 11.9 C 78 % 8.19 C
3224 17-03-2014 11:35:00 12.1 C 77 % 8.2 C
3225 17-03-2014 11:40:00 12.1 C 77 % 8.2 C
Sensor: Nr:Datum:Temp:Feuchte:Taupunkt:
Aussen-T/F 3226 17-03-2014 11:45:00 12.2 C 77 % 8.29 C
3227 17-03-2014 11:50:00 12.3 C 77 % 8.39 C
3228 17-03-2014 11:55:00 12.4 C 76 % 8.29 C
3229 17-03-2014 12:00:00 12.5 C 76 % 8.39 C
3230 17-03-2014 12:05:00 12.6 C 76 % 8.49 C
3231 17-03-2014 12:10:00 12.6 C 76 % 8.49 C
3232 17-03-2014 12:15:00 12.7 C 76 % 8.58 C
3233 17-03-2014 12:20:00 12.7 C 75 % 8.39 C
3234 17-03-2014 12:25:00 12.7 C 75 % 8.39 C
3235 17-03-2014 12:30:00 12.7 C 75 % 8.39 C
3236 17-03-2014 12:35:00 12.7 C 75 % 8.39 C
3237 17-03-2014 12:40:00 12.7 C 75 % 8.39 C
3238 17-03-2014 12:45:00 12.7 C 75 % 8.39 C
3239 17-03-2014 12:50:00 12.7 C 75 % 8.39 C
3240 17-03-2014 12:55:00 12.7 C 75 % 8.39 C
3241 17-03-2014 13:00:00 12.7 C 75 % 8.39 C
3242 17-03-2014 13:05:00 12.8 C 75 % 8.48 C
3243 17-03-2014 13:10:00 12.8 C 75 % 8.48 C
3244 17-03-2014 13:15:00 12.8 C 75 % 8.48 C
3245 17-03-2014 13:20:00 12.8 C 76 % 8.68 C
3246 17-03-2014 13:25:00 12.9 C 76 % 8.78 C
3247 17-03-2014 13:30:00 13.1 C 75 % 8.77 C
3248 17-03-2014 13:35:00 13.2 C 76 % 9.07 C
3249 17-03-2014 13:40:00 13.3 C 75 % 8.97 C
3250 17-03-2014 13:45:00 13.3 C 74 % 8.77 C
Sensor: Nr:Datum:Temp:Feuchte:Taupunkt:
Aussen-T/F 3251 17-03-2014 13:50:00 13.4 C 74 % 8.87 C
3252 17-03-2014 13:55:00 13.5 C 74 % 8.96 C
3253 17-03-2014 14:00:00 13.6 C 73 % 8.86 C
3254 17-03-2014 14:05:00 13.7 C 72 % 8.75 C
3255 17-03-2014 14:10:00 13.8 C 73 % 9.05 C
3256 17-03-2014 14:15:00 13.8 C 71 % 8.64 C
3257 17-03-2014 14:20:00 13.8 C 70 % 8.43 C
3258 17-03-2014 14:25:00 13.8 C 71 % 8.64 C
3259 17-03-2014 14:30:00 13.8 C 71 % 8.64 C
3260 17-03-2014 14:35:00 13.8 C 71 % 8.64 C
3261 17-03-2014 14:40:00 13.9 C 71 % 8.73 C
3262 17-03-2014 14:45:00 14.1 C 69 % 8.5 C
3263 17-03-2014 14:50:00 13.9 C 69 % 8.31 C
3264 17-03-2014 14:55:00 14.1 C 69 % 8.5 C
3265 17-03-2014 15:00:00 14.1 C 69 % 8.5 C
3266 17-03-2014 15:05:00 14.2 C 69 % 8.6 C
3267 17-03-2014 15:10:00 14.1 C 68 % 8.29 C
3268 17-03-2014 15:15:00 13.9 C 69 % 8.31 C
3269 17-03-2014 15:20:00 13.8 C 69 % 8.22 C
3270 17-03-2014 15:25:00 13.8 C 68 % 8 C
3271 17-03-2014 15:30:00 13.6 C 69 % 8.03 C
3272 17-03-2014 15:35:00 13.6 C 70 % 8.24 C
3273 17-03-2014 15:40:00 13.5 C 69 % 7.93 C
3274 17-03-2014 15:45:00 13.4 C 69 % 7.84 C
3275 17-03-2014 15:50:00 13.4 C 69 % 7.84 C
Sensor: Nr:Datum:Temp:Feuchte:Taupunkt:
Aussen-T/F 3276 17-03-2014 15:55:00 13.3 C 70 % 7.95 C
3277 17-03-2014 16:00:00 13.3 C 70 % 7.95 C
3278 17-03-2014 16:05:00 13.2 C 69 % 7.64 C
3279 17-03-2014 16:10:00 13.2 C 69 % 7.64 C
3280 17-03-2014 16:15:00 13.1 C 69 % 7.55 C
3281 17-03-2014 16:20:00 13.1 C 69 % 7.55 C
3282 17-03-2014 16:25:00 13.1 C 69 % 7.55 C
3283 17-03-2014 16:30:00 13.1 C 70 % 7.76 C
3284 17-03-2014 16:35:00 13.1 C 69 % 7.55 C
3285 17-03-2014 16:40:00 13.1 C 70 % 7.76 C
3286 17-03-2014 16:45:00 13.1 C 69 % 7.55 C
3287 17-03-2014 16:50:00 13.1 C 69 % 7.55 C
3288 17-03-2014 16:55:00 13.1 C 69 % 7.55 C
3289 17-03-2014 17:00:00 13.1 C 69 % 7.55 C
3290 17-03-2014 17:05:00 13 C 69 % 7.45 C
3291 17-03-2014 17:10:00 13 C 69 % 7.45 C
3292 17-03-2014 17:15:00 12.9 C 70 % 7.57 C
3293 17-03-2014 17:20:00 12.9 C 69 % 7.36 C
3294 17-03-2014 17:25:00 12.9 C 70 % 7.57 C
3295 17-03-2014 17:30:00 12.8 C 69 % 7.26 C
3296 17-03-2014 17:35:00 12.8 C 70 % 7.47 C
3297 17-03-2014 17:40:00 12.8 C 70 % 7.47 C
3298 17-03-2014 17:45:00 12.8 C 70 % 7.47 C
3299 17-03-2014 17:50:00 12.8 C 70 % 7.47 C
3300 17-03-2014 17:55:00 12.7 C 70 % 7.38 C
Sensor: Nr:Datum:Temp:Feuchte:Taupunkt:
Aussen-T/F 3301 17-03-2014 18:00:00 12.7 C 70 % 7.38 C
3302 17-03-2014 18:05:00 12.6 C 71 % 7.49 C
3303 17-03-2014 18:10:00 12.5 C 71 % 7.39 C
3304 17-03-2014 18:15:00 12.4 C 71 % 7.3 C
3305 17-03-2014 18:20:00 12.3 C 71 % 7.2 C
3306 17-03-2014 18:25:00 12.3 C 72 % 7.4 C
3307 17-03-2014 18:30:00 12.3 C 72 % 7.4 C
3308 17-03-2014 18:35:00 12.2 C 72 % 7.31 C
3309 17-03-2014 18:40:00 12.1 C 72 % 7.21 C
3310 17-03-2014 18:45:00 12.1 C 72 % 7.21 C
3311 17-03-2014 18:50:00 12 C 73 % 7.32 C
3312 17-03-2014 18:55:00 11.9 C 73 % 7.22 C
3313 17-03-2014 19:00:00 11.9 C 73 % 7.22 C
3314 17-03-2014 19:05:00 11.8 C 74 % 7.32 C
3315 17-03-2014 19:10:00 11.7 C 74 % 7.23 C
3316 17-03-2014 19:15:00 11.6 C 74 % 7.13 C
3317 17-03-2014 19:20:00 11.5 C 74 % 7.03 C
3318 17-03-2014 19:25:00 11.2 C 76 % 7.13 C
3319 17-03-2014 19:30:00 11 C 77 % 7.13 C
3320 17-03-2014 19:35:00 10.8 C 77 % 6.94 C
3321 17-03-2014 19:40:00 10.8 C 78 % 7.12 C
3322 17-03-2014 19:45:00 10.8 C 77 % 6.94 C
3323 17-03-2014 19:50:00 10.8 C 77 % 6.94 C
3324 17-03-2014 19:55:00 10.8 C 79 % 7.31 C
3325 17-03-2014 20:00:00 10.7 C 79 % 7.21 C
Sensor: Nr:Datum:Temp:Feuchte:Taupunkt:
Aussen-T/F 3326 17-03-2014 20:05:00 10.6 C 79 % 7.11 C
3327 17-03-2014 20:10:00 10.5 C 79 % 7.02 C
3328 17-03-2014 20:15:00 10.3 C 80 % 7.01 C
3329 17-03-2014 20:20:00 10.2 C 80 % 6.91 C
3330 17-03-2014 20:25:00 10.2 C 81 % 7.09 C
3331 17-03-2014 20:30:00 10.2 C 81 % 7.09 C
3332 17-03-2014 20:35:00 10.2 C 81 % 7.09 C
3333 17-03-2014 20:40:00 10.3 C 80 % 7.01 C
3334 17-03-2014 20:45:00 10.4 C 79 % 6.92 C
3335 17-03-2014 20:50:00 10.3 C 80 % 7.01 C
3336 17-03-2014 20:55:00 10.2 C 81 % 7.09 C
3337 17-03-2014 21:00:00 10.1 C 81 % 6.99 C
3338 17-03-2014 21:05:00 10 C 82 % 7.07 C
3339 17-03-2014 21:10:00 9.9 C 83 % 7.15 C
3340 17-03-2014 21:15:00 9.8 C 83 % 7.05 C
3341 17-03-2014 21:20:00 9.8 C 84 % 7.23 C
3342 17-03-2014 21:25:00 9.9 C 84 % 7.33 C
3343 17-03-2014 21:30:00 9.8 C 84 % 7.23 C
3344 17-03-2014 21:35:00 9.8 C 83 % 7.05 C
3345 17-03-2014 21:40:00 9.8 C 83 % 7.05 C
3346 17-03-2014 21:45:00 9.8 C 82 % 6.88 C
3347 17-03-2014 21:50:00 9.8 C 82 % 6.88 C
3348 17-03-2014 21:55:00 9.8 C 83 % 7.05 C
3349 17-03-2014 22:00:00 9.7 C 84 % 7.13 C
3350 17-03-2014 22:05:00 9.7 C 84 % 7.13 C
Sensor: Nr:Datum:Temp:Feuchte:Taupunkt:
Aussen-T/F 3351 17-03-2014 22:10:00 9.7 C 83 % 6.96 C
3352 17-03-2014 22:15:00 9.8 C 83 % 7.05 C
3353 17-03-2014 22:20:00 9.8 C 83 % 7.05 C
3354 17-03-2014 22:25:00 9.8 C 83 % 7.05 C
3355 17-03-2014 22:30:00 9.8 C 83 % 7.05 C
3356 17-03-2014 22:35:00 9.8 C 83 % 7.05 C
3357 17-03-2014 22:40:00 9.8 C 83 % 7.05 C
3358 17-03-2014 22:45:00 9.8 C 83 % 7.05 C
3359 17-03-2014 22:50:00 9.7 C 83 % 6.96 C
3360 17-03-2014 22:55:00 9.7 C 83 % 6.96 C
3361 17-03-2014 23:00:00 9.7 C 83 % 6.96 C
3362 17-03-2014 23:05:00 9.7 C 83 % 6.96 C
3363 17-03-2014 23:10:00 9.8 C 83 % 7.05 C
3364 17-03-2014 23:15:00 9.8 C 83 % 7.05 C
3365 17-03-2014 23:20:00 9.8 C 83 % 7.05 C
3366 17-03-2014 23:25:00 9.8 C 83 % 7.05 C
3367 17-03-2014 23:30:00 9.7 C 83 % 6.96 C
3368 17-03-2014 23:35:00 9.7 C 83 % 6.96 C
3369 17-03-2014 23:40:00 9.7 C 83 % 6.96 C
3370 17-03-2014 23:45:00 9.7 C 83 % 6.96 C
3371 17-03-2014 23:50:00 9.6 C 83 % 6.86 C
3372 17-03-2014 23:55:00 9.5 C 83 % 6.76 C
3373 18-03-2014 00:00:00 9.3 C 84 % 6.74 C
3374 18-03-2014 00:05:00 9.1 C 84 % 6.54 C
3375 18-03-2014 00:10:00 8.8 C 85 % 6.42 C
Sensor: Nr:Datum:Temp:Feuchte:Taupunkt:
Aussen-T/F 3376 18-03-2014 00:15:00 8.7 C 86 % 6.49 C
3377 18-03-2014 00:20:00 8.6 C 85 % 6.23 C
3378 18-03-2014 00:25:00 8.3 C 86 % 6.1 C
3379 18-03-2014 00:30:00 8.1 C 86 % 5.9 C
3380 18-03-2014 00:35:00 8 C 87 % 5.97 C
3381 18-03-2014 00:40:00 7.9 C 87 % 5.87 C
3382 18-03-2014 00:45:00 7.9 C 88 % 6.04 C
3383 18-03-2014 00:50:00 7.9 C 89 % 6.2 C
3384 18-03-2014 00:55:00 7.9 C 89 % 6.2 C
3385 18-03-2014 01:00:00 8.1 C 89 % 6.4 C
3386 18-03-2014 01:05:00 8.1 C 89 % 6.4 C
3387 18-03-2014 01:10:00 8.2 C 89 % 6.5 C
3388 18-03-2014 01:15:00 8.2 C 88 % 6.33 C
3389 18-03-2014 01:20:00 8.3 C 88 % 6.43 C
3390 18-03-2014 01:25:00 8.3 C 88 % 6.43 C
3391 18-03-2014 01:30:00 8.4 C 88 % 6.53 C
3392 18-03-2014 01:35:00 8.4 C 88 % 6.53 C
3393 18-03-2014 01:40:00 8.4 C 88 % 6.53 C
3394 18-03-2014 01:45:00 8.4 C 88 % 6.53 C
3395 18-03-2014 01:50:00 8.4 C 88 % 6.53 C
3396 18-03-2014 01:55:00 8.4 C 88 % 6.53 C
3397 18-03-2014 02:00:00 8.5 C 88 % 6.63 C
3398 18-03-2014 02:05:00 8.5 C 88 % 6.63 C
3399 18-03-2014 02:10:00 8.5 C 88 % 6.63 C
3400 18-03-2014 02:15:00 8.6 C 87 % 6.56 C
Sensor: Nr:Datum:Temp:Feuchte:Taupunkt:
Aussen-T/F 3401 18-03-2014 02:20:00 8.7 C 87 % 6.66 C
3402 18-03-2014 02:25:00 8.8 C 87 % 6.76 C
3403 18-03-2014 02:30:00 8.8 C 86 % 6.59 C
3404 18-03-2014 02:35:00 8.8 C 86 % 6.59 C
3405 18-03-2014 02:40:00 8.8 C 86 % 6.59 C
3406 18-03-2014 02:45:00 8.8 C 86 % 6.59 C
3407 18-03-2014 02:50:00 8.8 C 86 % 6.59 C
3408 18-03-2014 02:55:00 8.7 C 87 % 6.66 C
3409 18-03-2014 03:00:00 8.6 C 87 % 6.56 C
3410 18-03-2014 03:05:00 8.6 C 87 % 6.56 C
3411 18-03-2014 03:10:00 8.6 C 87 % 6.56 C
3412 18-03-2014 03:15:00 8.6 C 87 % 6.56 C
3413 18-03-2014 03:20:00 8.6 C 87 % 6.56 C
3414 18-03-2014 03:25:00 8.6 C 87 % 6.56 C
3415 18-03-2014 03:30:00 8.6 C 87 % 6.56 C
3416 18-03-2014 03:35:00 8.7 C 87 % 6.66 C
3417 18-03-2014 03:40:00 8.6 C 87 % 6.56 C
3418 18-03-2014 03:45:00 8.5 C 86 % 6.3 C
3419 18-03-2014 03:50:00 8.3 C 87 % 6.27 C
3420 18-03-2014 03:55:00 8.2 C 87 % 6.17 C
3421 18-03-2014 04:00:00 8 C 87 % 5.97 C
3422 18-03-2014 04:05:00 7.8 C 88 % 5.94 C
3423 18-03-2014 04:10:00 7.7 C 88 % 5.84 C
3424 18-03-2014 04:15:00 7.7 C 88 % 5.84 C
3425 18-03-2014 04:20:00 7.7 C 89 % 6 C
Sensor: Nr:Datum:Temp:Feuchte:Taupunkt:
Aussen-T/F 3426 18-03-2014 04:25:00 7.7 C 89 % 6 C
3427 18-03-2014 04:30:00 7.7 C 89 % 6 C
3428 18-03-2014 04:35:00 7.7 C 90 % 6.17 C
3429 18-03-2014 04:40:00 7.7 C 90 % 6.17 C
3430 18-03-2014 04:45:00 7.7 C 90 % 6.17 C
3431 18-03-2014 04:50:00 7.7 C 89 % 6 C
3432 18-03-2014 04:55:00 7.7 C 89 % 6 C
3433 18-03-2014 05:00:00 7.6 C 89 % 5.91 C
3434 18-03-2014 05:05:00 7.6 C 89 % 5.91 C
3435 18-03-2014 05:10:00 7.6 C 90 % 6.07 C
3436 18-03-2014 05:15:00 7.7 C 90 % 6.17 C
3437 18-03-2014 05:20:00 7.7 C 89 % 6 C
3438 18-03-2014 05:25:00 7.7 C 89 % 6 C
3439 18-03-2014 05:30:00 7.6 C 89 % 5.91 C
3440 18-03-2014 05:35:00 7.5 C 89 % 5.81 C
3441 18-03-2014 05:40:00 7.4 C 90 % 5.87 C
3442 18-03-2014 05:45:00 7.3 C 90 % 5.77 C
3443 18-03-2014 05:50:00 7.3 C 90 % 5.77 C
3444 18-03-2014 05:55:00 7.4 C 90 % 5.87 C
3445 18-03-2014 06:00:00 7.4 C 90 % 5.87 C
3446 18-03-2014 06:05:00 7.4 C 90 % 5.87 C
3447 18-03-2014 06:10:00 7.5 C 90 % 5.97 C
3448 18-03-2014 06:15:00 7.6 C 90 % 6.07 C
3449 18-03-2014 06:20:00 7.6 C 90 % 6.07 C
3450 18-03-2014 06:25:00 7.7 C 90 % 6.17 C
Sensor: Nr:Datum:Temp:Feuchte:Taupunkt:
Aussen-T/F 3451 18-03-2014 06:30:00 7.8 C 90 % 6.27 C
3452 18-03-2014 06:35:00 7.8 C 90 % 6.27 C
3453 18-03-2014 06:40:00 7.8 C 90 % 6.27 C
3454 18-03-2014 06:45:00 7.8 C 90 % 6.27 C
3455 18-03-2014 06:50:00 7.8 C 90 % 6.27 C
3456 18-03-2014 06:55:00 7.7 C 90 % 6.17 C
3457 18-03-2014 07:00:00 7.7 C 90 % 6.17 C
3458 18-03-2014 07:05:00 7.7 C 90 % 6.17 C
3459 18-03-2014 07:10:00 7.7 C 91 % 6.33 C
3460 18-03-2014 07:15:00 7.8 C 91 % 6.43 C
3461 18-03-2014 07:20:00 7.9 C 91 % 6.52 C
3462 18-03-2014 07:25:00 7.9 C 91 % 6.52 C
3463 18-03-2014 07:30:00 8 C 91 % 6.62 C
3464 18-03-2014 07:35:00 8.1 C 91 % 6.72 C
3465 18-03-2014 07:40:00 8.2 C 90 % 6.66 C
3466 18-03-2014 07:45:00 8.2 C 90 % 6.66 C
3467 18-03-2014 07:50:00 8.3 C 90 % 6.76 C
3468 18-03-2014 07:55:00 8.3 C 90 % 6.76 C
3469 18-03-2014 08:00:00 8.4 C 89 % 6.7 C
3470 18-03-2014 08:05:00 8.4 C 89 % 6.7 C
3471 18-03-2014 08:10:00 8.5 C 89 % 6.79 C
3472 18-03-2014 08:15:00 8.5 C 89 % 6.79 C
3473 18-03-2014 08:20:00 8.6 C 89 % 6.89 C
3474 18-03-2014 08:25:00 8.6 C 90 % 7.06 C
3475 18-03-2014 08:30:00 8.6 C 89 % 6.89 C
Sensor: Nr:Datum:Temp:Feuchte:Taupunkt:
Aussen-T/F 3476 18-03-2014 08:35:00 8.6 C 89 % 6.89 C
3477 18-03-2014 08:40:00 8.6 C 89 % 6.89 C
3478 18-03-2014 08:45:00 8.6 C 89 % 6.89 C
3479 18-03-2014 08:50:00 8.4 C 89 % 6.7 C
3480 18-03-2014 08:55:00 8.4 C 90 % 6.86 C
3481 18-03-2014 09:00:00 8.4 C 90 % 6.86 C
3482 18-03-2014 09:05:00 8.4 C 90 % 6.86 C
3483 18-03-2014 09:10:00 8.4 C 90 % 6.86 C
3484 18-03-2014 09:15:00 8.4 C 90 % 6.86 C
3485 18-03-2014 09:20:00 8.5 C 90 % 6.96 C
3486 18-03-2014 09:25:00 8.6 C 90 % 7.06 C
3487 18-03-2014 09:30:00 8.6 C 90 % 7.06 C
3488 18-03-2014 09:35:00 8.7 C 90 % 7.15 C
3489 18-03-2014 09:40:00 8.7 C 89 % 6.99 C
3490 18-03-2014 09:45:00 8.7 C 89 % 6.99 C
3491 18-03-2014 09:50:00 8.8 C 89 % 7.09 C
3492 18-03-2014 09:55:00 8.8 C 88 % 6.93 C
3493 18-03-2014 10:00:00 8.8 C 89 % 7.09 C
3494 18-03-2014 10:05:00 8.8 C 89 % 7.09 C
3495 18-03-2014 10:10:00 8.8 C 88 % 6.93 C
3496 18-03-2014 10:15:00 8.8 C 88 % 6.93 C
3497 18-03-2014 10:20:00 8.8 C 88 % 6.93 C
3498 18-03-2014 10:25:00 8.7 C 88 % 6.83 C
3499 18-03-2014 10:30:00 8.7 C 88 % 6.83 C
3500 18-03-2014 10:35:00 8.7 C 87 % 6.66 C
Sensor: Nr:Datum:Temp:Feuchte:Taupunkt:
Aussen-T/F 3501 18-03-2014 10:40:00 8.6 C 88 % 6.73 C
3502 18-03-2014 10:45:00 8.6 C 88 % 6.73 C
3503 18-03-2014 10:50:00 8.6 C 88 % 6.73 C
3504 18-03-2014 10:55:00 8.6 C 88 % 6.73 C
3505 18-03-2014 11:00:00 8.6 C 89 % 6.89 C
3506 18-03-2014 11:05:00 8.6 C 89 % 6.89 C
3507 18-03-2014 11:10:00 8.6 C 90 % 7.06 C
3508 18-03-2014 11:15:00 8.6 C 90 % 7.06 C
3509 18-03-2014 11:20:00 8.5 C 90 % 6.96 C
3510 18-03-2014 11:25:00 8.5 C 91 % 7.12 C
3511 18-03-2014 11:30:00 8.5 C 91 % 7.12 C
3512 18-03-2014 11:35:00 8.5 C 91 % 7.12 C
3513 18-03-2014 11:40:00 8.5 C 91 % 7.12 C
3514 18-03-2014 11:45:00 8.6 C 91 % 7.22 C
3515 18-03-2014 11:50:00 8.6 C 91 % 7.22 C
3516 18-03-2014 11:55:00 8.7 C 91 % 7.32 C
3517 18-03-2014 12:00:00 8.7 C 91 % 7.32 C
3518 18-03-2014 12:05:00 8.8 C 91 % 7.41 C
3519 18-03-2014 12:10:00 8.9 C 91 % 7.51 C
3520 18-03-2014 12:15:00 8.9 C 90 % 7.35 C
3521 18-03-2014 12:20:00 9.1 C 90 % 7.55 C
3522 18-03-2014 12:25:00 9.1 C 90 % 7.55 C
3523 18-03-2014 12:30:00 9.1 C 89 % 7.39 C
3524 18-03-2014 12:35:00 9.1 C 89 % 7.39 C
3525 18-03-2014 12:40:00 9.2 C 89 % 7.48 C
Sensor: Nr:Datum:Temp:Feuchte:Taupunkt:
Aussen-T/F 3526 18-03-2014 12:45:00 9.2 C 88 % 7.32 C
3527 18-03-2014 12:50:00 9.2 C 89 % 7.48 C
3528 18-03-2014 12:55:00 9.2 C 88 % 7.32 C
3529 18-03-2014 13:00:00 9.2 C 88 % 7.32 C
3530 18-03-2014 13:05:00 9.2 C 88 % 7.32 C
3531 18-03-2014 13:10:00 9.3 C 88 % 7.42 C
3532 18-03-2014 13:15:00 9.3 C 87 % 7.25 C
3533 18-03-2014 13:20:00 9.3 C 87 % 7.25 C
3534 18-03-2014 13:25:00 9.4 C 87 % 7.35 C
3535 18-03-2014 13:30:00 9.5 C 87 % 7.45 C
3536 18-03-2014 13:35:00 9.6 C 87 % 7.55 C
3537 18-03-2014 13:40:00 9.6 C 87 % 7.55 C
3538 18-03-2014 13:45:00 9.7 C 86 % 7.47 C
3539 18-03-2014 13:50:00 9.7 C 86 % 7.47 C
3540 18-03-2014 13:55:00 9.7 C 85 % 7.3 C
3541 18-03-2014 14:00:00 9.8 C 86 % 7.57 C
3542 18-03-2014 14:05:00 9.9 C 86 % 7.67 C
3543 18-03-2014 14:10:00 10.1 C 85 % 7.7 C
3544 18-03-2014 14:15:00 10.2 C 84 % 7.62 C
3545 18-03-2014 14:20:00 10.3 C 83 % 7.54 C
3546 18-03-2014 14:25:00 10.4 C 83 % 7.64 C
3547 18-03-2014 14:30:00 10.6 C 82 % 7.66 C
3548 18-03-2014 14:35:00 10.7 C 82 % 7.76 C
3549 18-03-2014 14:40:00 10.7 C 82 % 7.76 C
3550 18-03-2014 14:45:00 10.8 C 81 % 7.67 C
Sensor: Nr:Datum:Temp:Feuchte:Taupunkt:
Aussen-T/F 3551 18-03-2014 14:50:00 10.8 C 80 % 7.49 C
3552 18-03-2014 14:55:00 10.8 C 80 % 7.49 C
3553 18-03-2014 15:00:00 10.9 C 81 % 7.77 C
3554 18-03-2014 15:05:00 10.9 C 80 % 7.59 C
3555 18-03-2014 15:10:00 10.9 C 80 % 7.59 C
3556 18-03-2014 15:15:00 11 C 81 % 7.87 C
3557 18-03-2014 15:20:00 11.1 C 80 % 7.79 C
3558 18-03-2014 15:25:00 11.2 C 79 % 7.7 C
3559 18-03-2014 15:30:00 11.3 C 79 % 7.8 C
3560 18-03-2014 15:35:00 11.5 C 78 % 7.8 C
3561 18-03-2014 15:40:00 11.5 C 78 % 7.8 C
3562 18-03-2014 15:45:00 11.5 C 78 % 7.8 C
3563 18-03-2014 15:50:00 11.5 C 78 % 7.8 C
3564 18-03-2014 15:55:00 11.6 C 78 % 7.9 C
3565 18-03-2014 16:00:00 11.5 C 77 % 7.61 C
3566 18-03-2014 16:05:00 11.4 C 77 % 7.52 C
3567 18-03-2014 16:10:00 11.4 C 77 % 7.52 C
3568 18-03-2014 16:15:00 11.3 C 76 % 7.23 C
3569 18-03-2014 16:20:00 11.3 C 76 % 7.23 C
3570 18-03-2014 16:25:00 11.2 C 77 % 7.32 C
3571 18-03-2014 16:30:00 11.3 C 77 % 7.42 C
3572 18-03-2014 16:35:00 11.3 C 76 % 7.23 C
3573 18-03-2014 16:40:00 11.4 C 76 % 7.33 C
3574 18-03-2014 16:45:00 11.6 C 76 % 7.52 C
3575 18-03-2014 16:50:00 11.5 C 76 % 7.42 C
Sensor: Nr:Datum:Temp:Feuchte:Taupunkt:
Aussen-T/F 3576 18-03-2014 16:55:00 11.4 C 76 % 7.33 C
3577 18-03-2014 17:00:00 11.4 C 76 % 7.33 C
3578 18-03-2014 17:05:00 11.4 C 76 % 7.33 C
3579 18-03-2014 17:10:00 11.4 C 76 % 7.33 C
3580 18-03-2014 17:15:00 11.3 C 76 % 7.23 C
3581 18-03-2014 17:20:00 11.3 C 76 % 7.23 C
3582 18-03-2014 17:25:00 11.3 C 76 % 7.23 C
3583 18-03-2014 17:30:00 11.3 C 75 % 7.04 C
3584 18-03-2014 17:35:00 11.4 C 76 % 7.33 C
3585 18-03-2014 17:40:00 11.5 C 76 % 7.42 C
3586 18-03-2014 17:45:00 11.6 C 75 % 7.33 C
3587 18-03-2014 17:50:00 11.7 C 75 % 7.42 C
3588 18-03-2014 17:55:00 11.7 C 75 % 7.42 C
3589 18-03-2014 18:00:00 11.7 C 74 % 7.23 C
3590 18-03-2014 18:05:00 11.7 C 74 % 7.23 C
3591 18-03-2014 18:10:00 11.6 C 75 % 7.33 C
3592 18-03-2014 18:15:00 11.5 C 76 % 7.42 C
3593 18-03-2014 18:20:00 11.4 C 75 % 7.13 C
3594 18-03-2014 18:25:00 11.3 C 75 % 7.04 C
3595 18-03-2014 18:30:00 11.3 C 76 % 7.23 C
3596 18-03-2014 18:35:00 11.3 C 76 % 7.23 C
3597 18-03-2014 18:40:00 11.3 C 76 % 7.23 C
3598 18-03-2014 18:45:00 11.2 C 76 % 7.13 C
3599 18-03-2014 18:50:00 11.2 C 76 % 7.13 C
3600 18-03-2014 18:55:00 11.1 C 76 % 7.04 C
Sensor: Nr:Datum:Temp:Feuchte:Taupunkt:
Aussen-T/F 3601 18-03-2014 19:00:00 11.2 C 76 % 7.13 C
3602 18-03-2014 19:05:00 11.2 C 76 % 7.13 C
3603 18-03-2014 19:10:00 11.2 C 76 % 7.13 C
3604 18-03-2014 19:15:00 11.2 C 73 % 6.55 C
3605 18-03-2014 19:20:00 11.3 C 73 % 6.64 C
3606 18-03-2014 19:25:00 11.3 C 72 % 6.44 C
3607 18-03-2014 19:30:00 11.3 C 72 % 6.44 C
3608 18-03-2014 19:35:00 11.3 C 71 % 6.24 C
3609 18-03-2014 19:40:00 11.3 C 71 % 6.24 C
3610 18-03-2014 19:45:00 11.3 C 70 % 6.03 C
3611 18-03-2014 19:50:00 11.3 C 71 % 6.24 C
3612 18-03-2014 19:55:00 11.3 C 72 % 6.44 C
3613 18-03-2014 20:00:00 11.2 C 72 % 6.35 C
3614 18-03-2014 20:05:00 11.2 C 72 % 6.35 C
3615 18-03-2014 20:10:00 11.1 C 72 % 6.25 C
3616 18-03-2014 20:15:00 11 C 71 % 5.95 C
3617 18-03-2014 20:20:00 10.9 C 73 % 6.26 C
3618 18-03-2014 20:25:00 10.8 C 72 % 5.96 C
3619 18-03-2014 20:30:00 10.7 C 71 % 5.66 C
3620 18-03-2014 20:35:00 10.7 C 71 % 5.66 C
3621 18-03-2014 20:40:00 10.7 C 71 % 5.66 C
3622 18-03-2014 20:45:00 10.6 C 70 % 5.36 C
3623 18-03-2014 20:50:00 10.6 C 70 % 5.36 C
3624 18-03-2014 20:55:00 10.6 C 69 % 5.16 C
3625 18-03-2014 21:00:00 10.6 C 70 % 5.36 C
Sensor: Nr:Datum:Temp:Feuchte:Taupunkt:
Aussen-T/F 3626 18-03-2014 21:05:00 10.6 C 70 % 5.36 C
3627 18-03-2014 21:10:00 10.5 C 71 % 5.47 C
3628 18-03-2014 21:15:00 10.4 C 71 % 5.38 C
3629 18-03-2014 21:20:00 10.4 C 71 % 5.38 C
3630 18-03-2014 21:25:00 10.4 C 71 % 5.38 C
3631 18-03-2014 21:30:00 10.4 C 71 % 5.38 C
3632 18-03-2014 21:35:00 10.4 C 72 % 5.58 C
3633 18-03-2014 21:40:00 10.4 C 72 % 5.58 C
3634 18-03-2014 21:45:00 10.4 C 72 % 5.58 C
3635 18-03-2014 21:50:00 10.4 C 72 % 5.58 C
3636 18-03-2014 21:55:00 10.4 C 72 % 5.58 C
3637 18-03-2014 22:00:00 10.4 C 72 % 5.58 C
3638 18-03-2014 22:05:00 10.1 C 75 % 5.88 C
3639 18-03-2014 22:10:00 10.1 C 75 % 5.88 C
3640 18-03-2014 22:15:00 9.9 C 75 % 5.68 C
3641 18-03-2014 22:20:00 9.8 C 76 % 5.78 C
3642 18-03-2014 22:25:00 9.7 C 76 % 5.68 C
3643 18-03-2014 22:30:00 9.7 C 77 % 5.87 C
3644 18-03-2014 22:35:00 9.7 C 77 % 5.87 C
3645 18-03-2014 22:40:00 9.6 C 77 % 5.77 C
3646 18-03-2014 22:45:00 9.5 C 78 % 5.86 C
3647 18-03-2014 22:50:00 9.4 C 79 % 5.95 C
3648 18-03-2014 22:55:00 9.4 C 79 % 5.95 C
3649 18-03-2014 23:00:00 9.5 C 78 % 5.86 C
3650 18-03-2014 23:05:00 9.5 C 78 % 5.86 C
Sensor: Nr:Datum:Temp:Feuchte:Taupunkt:
Aussen-T/F 3651 18-03-2014 23:10:00 9.7 C 78 % 6.06 C
3652 18-03-2014 23:15:00 9.8 C 77 % 5.97 C
3653 18-03-2014 23:20:00 9.8 C 77 % 5.97 C
3654 18-03-2014 23:25:00 9.8 C 77 % 5.97 C
3655 18-03-2014 23:30:00 9.9 C 77 % 6.06 C
3656 18-03-2014 23:35:00 9.9 C 77 % 6.06 C
3657 18-03-2014 23:40:00 10 C 77 % 6.16 C
3658 18-03-2014 23:45:00 10.1 C 76 % 6.07 C
3659 18-03-2014 23:50:00 10.2 C 76 % 6.16 C
3660 18-03-2014 23:55:00 10.2 C 76 % 6.16 C
3661 19-03-2014 00:00:00 10.2 C 76 % 6.16 C
3662 19-03-2014 00:05:00 10.1 C 76 % 6.07 C
3663 19-03-2014 00:10:00 10.1 C 77 % 6.26 C
3664 19-03-2014 00:15:00 10 C 77 % 6.16 C
3665 19-03-2014 00:20:00 9.9 C 78 % 6.25 C
3666 19-03-2014 00:25:00 9.9 C 80 % 6.62 C
3667 19-03-2014 00:30:00 9.9 C 80 % 6.62 C
3668 19-03-2014 00:35:00 9.6 C 82 % 6.68 C
3669 19-03-2014 00:40:00 9.5 C 82 % 6.59 C
3670 19-03-2014 00:45:00 9.5 C 82 % 6.59 C
3671 19-03-2014 00:50:00 9.5 C 82 % 6.59 C
3672 19-03-2014 00:55:00 9.5 C 82 % 6.59 C
3673 19-03-2014 01:00:00 9.6 C 81 % 6.5 C
3674 19-03-2014 01:05:00 9.7 C 81 % 6.6 C
3675 19-03-2014 01:10:00 9.7 C 81 % 6.6 C
Sensor: Nr:Datum:Temp:Feuchte:Taupunkt:
Aussen-T/F 3676 19-03-2014 01:15:00 9.7 C 82 % 6.78 C
3677 19-03-2014 01:20:00 9.7 C 82 % 6.78 C
3678 19-03-2014 01:25:00 9.7 C 82 % 6.78 C
3679 19-03-2014 01:30:00 9.8 C 81 % 6.7 C
3680 19-03-2014 01:35:00 9.9 C 81 % 6.8 C
3681 19-03-2014 01:40:00 9.9 C 81 % 6.8 C
3682 19-03-2014 01:45:00 9.9 C 82 % 6.98 C
3683 19-03-2014 01:50:00 9.8 C 83 % 7.05 C
3684 19-03-2014 01:55:00 9.7 C 84 % 7.13 C
3685 19-03-2014 02:00:00 9.6 C 86 % 7.38 C
3686 19-03-2014 02:05:00 9.3 C 87 % 7.25 C
3687 19-03-2014 02:10:00 9.2 C 88 % 7.32 C
3688 19-03-2014 02:15:00 9.2 C 87 % 7.15 C
3689 19-03-2014 02:20:00 9.3 C 85 % 6.91 C
3690 19-03-2014 02:25:00 9.5 C 85 % 7.11 C
3691 19-03-2014 02:30:00 9.8 C 82 % 6.88 C
3692 19-03-2014 02:35:00 9.8 C 82 % 6.88 C
3693 19-03-2014 02:40:00 9.8 C 81 % 6.7 C
3694 19-03-2014 02:45:00 9.9 C 81 % 6.8 C
3695 19-03-2014 02:50:00 10.1 C 80 % 6.81 C
3696 19-03-2014 02:55:00 10.1 C 80 % 6.81 C
3697 19-03-2014 03:00:00 10.1 C 80 % 6.81 C
3698 19-03-2014 03:05:00 10 C 80 % 6.71 C
3699 19-03-2014 03:10:00 9.9 C 81 % 6.8 C
3700 19-03-2014 03:15:00 9.9 C 81 % 6.8 C
Sensor: Nr:Datum:Temp:Feuchte:Taupunkt:
Aussen-T/F 3701 19-03-2014 03:20:00 9.9 C 81 % 6.8 C
3702 19-03-2014 03:25:00 9.9 C 81 % 6.8 C
3703 19-03-2014 03:30:00 9.9 C 81 % 6.8 C
3704 19-03-2014 03:35:00 9.9 C 81 % 6.8 C
3705 19-03-2014 03:40:00 9.9 C 81 % 6.8 C
3706 19-03-2014 03:45:00 9.9 C 81 % 6.8 C
3707 19-03-2014 03:50:00 9.9 C 81 % 6.8 C
3708 19-03-2014 03:55:00 9.9 C 81 % 6.8 C
3709 19-03-2014 04:00:00 9.9 C 81 % 6.8 C
3710 19-03-2014 04:05:00 9.9 C 81 % 6.8 C
3711 19-03-2014 04:10:00 9.9 C 81 % 6.8 C
3712 19-03-2014 04:15:00 9.9 C 81 % 6.8 C
3713 19-03-2014 04:20:00 9.9 C 80 % 6.62 C
3714 19-03-2014 04:25:00 9.9 C 80 % 6.62 C
3715 19-03-2014 04:30:00 9.9 C 80 % 6.62 C
3716 19-03-2014 04:35:00 9.9 C 80 % 6.62 C
3717 19-03-2014 04:40:00 9.9 C 80 % 6.62 C
3718 19-03-2014 04:45:00 9.9 C 81 % 6.8 C
3719 19-03-2014 04:50:00 9.9 C 81 % 6.8 C
3720 19-03-2014 04:55:00 9.9 C 80 % 6.62 C
3721 19-03-2014 05:00:00 9.9 C 80 % 6.62 C
3722 19-03-2014 05:05:00 9.9 C 80 % 6.62 C
3723 19-03-2014 05:10:00 10 C 80 % 6.71 C
3724 19-03-2014 05:15:00 10.1 C 79 % 6.63 C
3725 19-03-2014 05:20:00 10.1 C 79 % 6.63 C
Sensor: Nr:Datum:Temp:Feuchte:Taupunkt:
Aussen-T/F 3726 19-03-2014 05:25:00 10.1 C 79 % 6.63 C
3727 19-03-2014 05:30:00 10 C 80 % 6.71 C
3728 19-03-2014 05:35:00 10 C 80 % 6.71 C
3729 19-03-2014 05:40:00 9.9 C 80 % 6.62 C
3730 19-03-2014 05:45:00 9.9 C 80 % 6.62 C
3731 19-03-2014 05:50:00 9.9 C 80 % 6.62 C
3732 19-03-2014 05:55:00 9.9 C 80 % 6.62 C
3733 19-03-2014 06:00:00 9.9 C 80 % 6.62 C
3734 19-03-2014 06:05:00 9.9 C 80 % 6.62 C
3735 19-03-2014 06:10:00 9.9 C 81 % 6.8 C
3736 19-03-2014 06:15:00 9.8 C 81 % 6.7 C
3737 19-03-2014 06:20:00 9.8 C 81 % 6.7 C
3738 19-03-2014 06:25:00 9.8 C 81 % 6.7 C
3739 19-03-2014 06:30:00 9.8 C 81 % 6.7 C
3740 19-03-2014 06:35:00 9.8 C 80 % 6.52 C
3741 19-03-2014 06:40:00 9.8 C 81 % 6.7 C
3742 19-03-2014 06:45:00 9.8 C 80 % 6.52 C
3743 19-03-2014 06:50:00 9.9 C 80 % 6.62 C
3744 19-03-2014 06:55:00 9.9 C 80 % 6.62 C
3745 19-03-2014 07:00:00 9.9 C 80 % 6.62 C
3746 19-03-2014 07:05:00 9.9 C 80 % 6.62 C
3747 19-03-2014 07:10:00 9.9 C 80 % 6.62 C
3748 19-03-2014 07:15:00 10 C 79 % 6.53 C
3749 19-03-2014 07:20:00 10 C 79 % 6.53 C
3750 19-03-2014 07:25:00 10 C 79 % 6.53 C
Sensor: Nr:Datum:Temp:Feuchte:Taupunkt:
Aussen-T/F 3751 19-03-2014 07:30:00 10 C 80 % 6.71 C
3752 19-03-2014 07:35:00 10 C 80 % 6.71 C
3753 19-03-2014 07:40:00 9.9 C 80 % 6.62 C
3754 19-03-2014 07:45:00 9.9 C 81 % 6.8 C
3755 19-03-2014 07:50:00 9.8 C 81 % 6.7 C
3756 19-03-2014 07:55:00 9.8 C 81 % 6.7 C
3757 19-03-2014 08:00:00 9.9 C 81 % 6.8 C
3758 19-03-2014 08:05:00 10 C 81 % 6.89 C
3759 19-03-2014 08:10:00 10.1 C 80 % 6.81 C
3760 19-03-2014 08:15:00 10.2 C 80 % 6.91 C
3761 19-03-2014 08:20:00 10.2 C 79 % 6.73 C
3762 19-03-2014 08:25:00 10.3 C 79 % 6.82 C
3763 19-03-2014 08:30:00 10.3 C 79 % 6.82 C
3764 19-03-2014 08:35:00 10.3 C 79 % 6.82 C
3765 19-03-2014 08:40:00 10.4 C 79 % 6.92 C
3766 19-03-2014 08:45:00 10.4 C 78 % 6.74 C
3767 19-03-2014 08:50:00 10.5 C 78 % 6.83 C
3768 19-03-2014 08:55:00 10.6 C 78 % 6.93 C
3769 19-03-2014 09:00:00 10.6 C 78 % 6.93 C
3770 19-03-2014 09:05:00 10.6 C 78 % 6.93 C
3771 19-03-2014 09:10:00 10.6 C 78 % 6.93 C
3772 19-03-2014 09:15:00 10.7 C 77 % 6.84 C
3773 19-03-2014 09:20:00 10.8 C 77 % 6.94 C
3774 19-03-2014 09:25:00 10.8 C 77 % 6.94 C
3775 19-03-2014 09:30:00 10.8 C 77 % 6.94 C
Sensor: Nr:Datum:Temp:Feuchte:Taupunkt:
Aussen-T/F 3776 19-03-2014 09:35:00 10.9 C 77 % 7.03 C
3777 19-03-2014 09:40:00 11 C 77 % 7.13 C
3778 19-03-2014 09:45:00 11.1 C 76 % 7.04 C
3779 19-03-2014 09:50:00 11.3 C 76 % 7.23 C
3780 19-03-2014 09:55:00 11.3 C 75 % 7.04 C
3781 19-03-2014 10:00:00 11.4 C 75 % 7.13 C
3782 19-03-2014 10:05:00 11.5 C 76 % 7.42 C
3783 19-03-2014 10:10:00 11.6 C 74 % 7.13 C
3784 19-03-2014 10:15:00 11.7 C 74 % 7.23 C
3785 19-03-2014 10:20:00 11.7 C 74 % 7.23 C
3786 19-03-2014 10:25:00 11.6 C 75 % 7.33 C
3787 19-03-2014 10:30:00 11.7 C 74 % 7.23 C
3788 19-03-2014 10:35:00 11.8 C 73 % 7.12 C
3789 19-03-2014 10:40:00 12.1 C 72 % 7.21 C
3790 19-03-2014 10:45:00 12.3 C 70 % 6.99 C
3791 19-03-2014 10:50:00 12.6 C 69 % 7.07 C
3792 19-03-2014 10:55:00 12.6 C 68 % 6.86 C
3793 19-03-2014 11:00:00 12.7 C 66 % 6.52 C
3794 19-03-2014 11:05:00 12.8 C 66 % 6.61 C
3795 19-03-2014 11:10:00 12.8 C 67 % 6.83 C
3796 19-03-2014 11:15:00 12.9 C 66 % 6.71 C
3797 19-03-2014 11:20:00 12.9 C 65 % 6.49 C
3798 19-03-2014 11:25:00 12.9 C 65 % 6.49 C
3799 19-03-2014 11:30:00 13.1 C 66 % 6.9 C
3800 19-03-2014 11:35:00 13.3 C 64 % 6.64 C
Sensor: Nr:Datum:Temp:Feuchte:Taupunkt:
Aussen-T/F 3801 19-03-2014 11:40:00 13.4 C 64 % 6.74 C
3802 19-03-2014 11:45:00 13.6 C 64 % 6.93 C
3803 19-03-2014 11:50:00 13.7 C 64 % 7.02 C
3804 19-03-2014 11:55:00 13.6 C 62 % 6.47 C
3805 19-03-2014 12:00:00 13.5 C 63 % 6.6 C
3806 19-03-2014 12:05:00 13.6 C 63 % 6.7 C
3807 19-03-2014 12:10:00 13.8 C 64 % 7.12 C
3808 19-03-2014 12:15:00 14.1 C 63 % 7.17 C
3809 19-03-2014 12:20:00 14.3 C 62 % 7.13 C
3810 19-03-2014 12:25:00 14.3 C 61 % 6.89 C
3811 19-03-2014 12:30:00 14.4 C 61 % 6.98 C
3812 19-03-2014 12:35:00 14.5 C 60 % 6.84 C
3813 19-03-2014 12:40:00 14.6 C 60 % 6.93 C
3814 19-03-2014 12:45:00 14.7 C 59 % 6.78 C
3815 19-03-2014 12:50:00 14.7 C 59 % 6.78 C
3816 19-03-2014 12:55:00 14.9 C 59 % 6.97 C
3817 19-03-2014 13:00:00 15.3 C 58 % 7.09 C
3818 19-03-2014 13:05:00 15.7 C 58 % 7.47 C
3819 19-03-2014 13:10:00 15.7 C 57 % 7.21 C
3820 19-03-2014 13:15:00 15.8 C 58 % 7.56 C
3821 19-03-2014 13:20:00 15.7 C 58 % 7.47 C
3822 19-03-2014 13:25:00 15.8 C 58 % 7.56 C
3823 19-03-2014 13:30:00 16.1 C 57 % 7.59 C
3824 19-03-2014 13:35:00 16.1 C 56 % 7.33 C
3825 19-03-2014 13:40:00 15.9 C 57 % 7.4 C
Sensor: Nr:Datum:Temp:Feuchte:Taupunkt:
Aussen-T/F 3826 19-03-2014 13:45:00 15.7 C 57 % 7.21 C
3827 19-03-2014 13:50:00 15.5 C 58 % 7.28 C
3828 19-03-2014 13:55:00 15.6 C 58 % 7.37 C
3829 19-03-2014 14:00:00 15.8 C 57 % 7.31 C
3830 19-03-2014 14:05:00 15.8 C 57 % 7.31 C
3831 19-03-2014 14:10:00 15.8 C 58 % 7.56 C
3832 19-03-2014 14:15:00 15.8 C 57 % 7.31 C
3833 19-03-2014 14:20:00 15.7 C 58 % 7.47 C
3834 19-03-2014 14:25:00 15.7 C 58 % 7.47 C
3835 19-03-2014 14:30:00 15.8 C 58 % 7.56 C
3836 19-03-2014 14:35:00 16 C 57 % 7.49 C
3837 19-03-2014 14:40:00 15.8 C 57 % 7.31 C
3838 19-03-2014 14:45:00 15.9 C 58 % 7.66 C
3839 19-03-2014 14:50:00 15.9 C 57 % 7.4 C
3840 19-03-2014 14:55:00 16.1 C 57 % 7.59 C
3841 19-03-2014 15:00:00 16.1 C 56 % 7.33 C
3842 19-03-2014 15:05:00 16 C 56 % 7.24 C
3843 19-03-2014 15:10:00 16.3 C 56 % 7.52 C
3844 19-03-2014 15:15:00 16.5 C 55 % 7.44 C
3845 19-03-2014 15:20:00 16.5 C 55 % 7.44 C
3846 19-03-2014 15:25:00 16.6 C 54 % 7.26 C
3847 19-03-2014 15:30:00 16.6 C 54 % 7.26 C
3848 19-03-2014 15:35:00 16.7 C 53 % 7.08 C
3849 19-03-2014 15:40:00 16.8 C 53 % 7.18 C
3850 19-03-2014 15:45:00 17 C 52 % 7.08 C
Sensor: Nr:Datum:Temp:Feuchte:Taupunkt:
Aussen-T/F 3851 19-03-2014 15:50:00 17 C 52 % 7.08 C
3852 19-03-2014 15:55:00 16.8 C 52 % 6.9 C
3853 19-03-2014 16:00:00 16.8 C 52 % 6.9 C
3854 19-03-2014 16:05:00 16.7 C 52 % 6.81 C
3855 19-03-2014 16:10:00 16.7 C 54 % 7.36 C
3856 19-03-2014 16:15:00 16.7 C 53 % 7.08 C
3857 19-03-2014 16:20:00 16.5 C 53 % 6.9 C
3858 19-03-2014 16:25:00 16.4 C 53 % 6.81 C
3859 19-03-2014 16:30:00 16.4 C 53 % 6.81 C
3860 19-03-2014 16:35:00 16.4 C 54 % 7.08 C
3861 19-03-2014 16:40:00 16.5 C 54 % 7.17 C
3862 19-03-2014 16:45:00 16.5 C 54 % 7.17 C
3863 19-03-2014 16:50:00 16.5 C 55 % 7.44 C
3864 19-03-2014 16:55:00 16.4 C 55 % 7.35 C
3865 19-03-2014 17:00:00 16.3 C 55 % 7.25 C
3866 19-03-2014 17:05:00 16.2 C 55 % 7.16 C
3867 19-03-2014 17:10:00 15.9 C 56 % 7.14 C
3868 19-03-2014 17:15:00 15.9 C 57 % 7.4 C
3869 19-03-2014 17:20:00 15.9 C 57 % 7.4 C
3870 19-03-2014 17:25:00 15.9 C 57 % 7.4 C
3871 19-03-2014 17:30:00 15.9 C 58 % 7.66 C
3872 19-03-2014 17:35:00 16 C 58 % 7.75 C
3873 19-03-2014 17:40:00 15.9 C 58 % 7.66 C
3874 19-03-2014 17:45:00 15.7 C 58 % 7.47 C
3875 19-03-2014 17:50:00 15.6 C 59 % 7.62 C
Sensor: Nr:Datum:Temp:Feuchte:Taupunkt:
Aussen-T/F 3876 19-03-2014 17:55:00 15.4 C 60 % 7.68 C
3877 19-03-2014 18:00:00 15.3 C 60 % 7.59 C
3878 19-03-2014 18:05:00 15.2 C 61 % 7.74 C
3879 19-03-2014 18:10:00 15.1 C 61 % 7.64 C
3880 19-03-2014 18:15:00 14.9 C 62 % 7.69 C
3881 19-03-2014 18:20:00 14.8 C 62 % 7.6 C
3882 19-03-2014 18:25:00 14.6 C 63 % 7.64 C
3883 19-03-2014 18:30:00 14.4 C 63 % 7.45 C
3884 19-03-2014 18:35:00 14.3 C 64 % 7.59 C
3885 19-03-2014 18:40:00 14.2 C 64 % 7.5 C
3886 19-03-2014 18:45:00 14.1 C 64 % 7.4 C
3887 19-03-2014 18:50:00 14 C 65 % 7.53 C
3888 19-03-2014 18:55:00 13.9 C 65 % 7.44 C
3889 19-03-2014 19:00:00 13.8 C 65 % 7.34 C
3890 19-03-2014 19:05:00 13.8 C 65 % 7.34 C
3891 19-03-2014 19:10:00 13.7 C 65 % 7.25 C
3892 19-03-2014 19:15:00 13.6 C 66 % 7.38 C
3893 19-03-2014 19:20:00 13.5 C 66 % 7.28 C
3894 19-03-2014 19:25:00 13.4 C 66 % 7.19 C
3895 19-03-2014 19:30:00 13.3 C 66 % 7.09 C
3896 19-03-2014 19:35:00 13.2 C 67 % 7.21 C
3897 19-03-2014 19:40:00 13.2 C 67 % 7.21 C
3898 19-03-2014 19:45:00 13.1 C 67 % 7.12 C